<?xml version="1.0" encoding="UTF-8" standalone="no" ?>
<gpx xmlns="http://www.topografix.com/GPX/1/1" xmlns:xsi="http://www.w3.org/2001/XMLSchema-instance" xsi:schemaLocation="http://www.topografix.com/GPX/1/1 http://www.topografix.com/GPX/1/1/gpx.xsd" version="1.1" creator="VisuGPX - https://www.visugpx.com">
  <metadata>
    <name>RANDO PINOLS CHAPEL 21 KM.</name>
    <desc><![CDATA[RANDO PINOLS CHAPEL 21 KM.DEPART ARRIVEE PARKING CROISEMENT AVANT PINOLS.LA BOISSONIERE.LA FONT DU FAUX.CHAPEL.LA BASTIDE.LE MEYRIAL.BUFFAT..LE BOUSSILLON.]]></desc>
  </metadata>
  <trk>
    <name><![CDATA[21-FEV-21 15:06:08]]></name>
    <extensions>
      <line xmlns="http://www.topografix.com/GPX/gpx_style/0/2">
        <color>0000FF</color>
        <width>4</width>
      </line>
    </extensions>
    <trkseg>
      <trkpt lat="45.04435" lon="3.4333">
        <ele>1036.44</ele>
        <time>2021-02-21T08:32:36Z</time>
      </trkpt>
      <trkpt lat="45.04435" lon="3.43316">
        <ele>1030.19</ele>
        <time>2021-02-21T08:32:46Z</time>
      </trkpt>
      <trkpt lat="45.04426" lon="3.43303">
        <ele>1028.27</ele>
        <time>2021-02-21T08:32:53Z</time>
      </trkpt>
      <trkpt lat="45.0443" lon="3.43298">
        <ele>1036.92</ele>
        <time>2021-02-21T08:32:57Z</time>
      </trkpt>
      <trkpt lat="45.04432" lon="3.43261">
        <ele>1034.52</ele>
        <time>2021-02-21T08:33:16Z</time>
      </trkpt>
      <trkpt lat="45.04434" lon="3.4322">
        <ele>1030.67</ele>
        <time>2021-02-21T08:33:35Z</time>
      </trkpt>
      <trkpt lat="45.04436" lon="3.43193">
        <ele>1030.19</ele>
        <time>2021-02-21T08:33:49Z</time>
      </trkpt>
      <trkpt lat="45.04439" lon="3.43167">
        <ele>1025.38</ele>
        <time>2021-02-21T08:34:04Z</time>
      </trkpt>
      <trkpt lat="45.04443" lon="3.43141">
        <ele>1021.54</ele>
        <time>2021-02-21T08:34:21Z</time>
      </trkpt>
      <trkpt lat="45.04451" lon="3.43117">
        <ele>1018.17</ele>
        <time>2021-02-21T08:34:38Z</time>
      </trkpt>
      <trkpt lat="45.04465" lon="3.43096">
        <ele>1014.81</ele>
        <time>2021-02-21T08:34:55Z</time>
      </trkpt>
      <trkpt lat="45.04478" lon="3.4308">
        <ele>1015.77</ele>
        <time>2021-02-21T08:35:10Z</time>
      </trkpt>
      <trkpt lat="45.04484" lon="3.43074">
        <ele>1016.73</ele>
        <time>2021-02-21T08:35:16Z</time>
      </trkpt>
      <trkpt lat="45.045" lon="3.43054">
        <ele>1018.17</ele>
        <time>2021-02-21T08:35:32Z</time>
      </trkpt>
      <trkpt lat="45.04509" lon="3.4303">
        <ele>1019.13</ele>
        <time>2021-02-21T08:35:48Z</time>
      </trkpt>
      <trkpt lat="45.0451" lon="3.42995">
        <ele>1021.54</ele>
        <time>2021-02-21T08:36:06Z</time>
      </trkpt>
      <trkpt lat="45.04502" lon="3.42969">
        <ele>1022.02</ele>
        <time>2021-02-21T08:36:21Z</time>
      </trkpt>
      <trkpt lat="45.04491" lon="3.42947">
        <ele>1021.06</ele>
        <time>2021-02-21T08:36:36Z</time>
      </trkpt>
      <trkpt lat="45.04481" lon="3.42926">
        <ele>1020.58</ele>
        <time>2021-02-21T08:36:52Z</time>
      </trkpt>
      <trkpt lat="45.0447" lon="3.42906">
        <ele>1020.58</ele>
        <time>2021-02-21T08:37:07Z</time>
      </trkpt>
      <trkpt lat="45.04467" lon="3.429">
        <ele>1020.58</ele>
        <time>2021-02-21T08:37:11Z</time>
      </trkpt>
      <trkpt lat="45.04452" lon="3.42873">
        <ele>1020.1</ele>
        <time>2021-02-21T08:37:29Z</time>
      </trkpt>
      <trkpt lat="45.04439" lon="3.42857">
        <ele>1018.17</ele>
        <time>2021-02-21T08:37:42Z</time>
      </trkpt>
      <trkpt lat="45.04417" lon="3.42846">
        <ele>1016.73</ele>
        <time>2021-02-21T08:38:01Z</time>
      </trkpt>
      <trkpt lat="45.044" lon="3.42844">
        <ele>1015.29</ele>
        <time>2021-02-21T08:38:16Z</time>
      </trkpt>
      <trkpt lat="45.04384" lon="3.42844">
        <ele>1014.33</ele>
        <time>2021-02-21T08:38:29Z</time>
      </trkpt>
      <trkpt lat="45.04382" lon="3.42844">
        <ele>1014.33</ele>
        <time>2021-02-21T08:38:31Z</time>
      </trkpt>
      <trkpt lat="45.04361" lon="3.42844">
        <ele>1013.85</ele>
        <time>2021-02-21T08:38:48Z</time>
      </trkpt>
      <trkpt lat="45.04344" lon="3.4284">
        <ele>1014.81</ele>
        <time>2021-02-21T08:39:00Z</time>
      </trkpt>
      <trkpt lat="45.04334" lon="3.42839">
        <ele>1015.29</ele>
        <time>2021-02-21T08:39:08Z</time>
      </trkpt>
      <trkpt lat="45.04318" lon="3.42832">
        <ele>1015.29</ele>
        <time>2021-02-21T08:39:24Z</time>
      </trkpt>
      <trkpt lat="45.04303" lon="3.42815">
        <ele>1016.25</ele>
        <time>2021-02-21T08:39:39Z</time>
      </trkpt>
      <trkpt lat="45.043" lon="3.4281">
        <ele>1017.21</ele>
        <time>2021-02-21T08:39:44Z</time>
      </trkpt>
      <trkpt lat="45.04291" lon="3.42785">
        <ele>1020.1</ele>
        <time>2021-02-21T08:40:01Z</time>
      </trkpt>
      <trkpt lat="45.04287" lon="3.42773">
        <ele>1020.1</ele>
        <time>2021-02-21T08:40:09Z</time>
      </trkpt>
      <trkpt lat="45.04285" lon="3.42749">
        <ele>1019.62</ele>
        <time>2021-02-21T08:40:24Z</time>
      </trkpt>
      <trkpt lat="45.04288" lon="3.42724">
        <ele>1018.17</ele>
        <time>2021-02-21T08:40:40Z</time>
      </trkpt>
      <trkpt lat="45.04289" lon="3.42722">
        <ele>1018.17</ele>
        <time>2021-02-21T08:40:41Z</time>
      </trkpt>
      <trkpt lat="45.04296" lon="3.427">
        <ele>1017.21</ele>
        <time>2021-02-21T08:40:55Z</time>
      </trkpt>
      <trkpt lat="45.04302" lon="3.42681">
        <ele>1015.77</ele>
        <time>2021-02-21T08:41:08Z</time>
      </trkpt>
      <trkpt lat="45.04309" lon="3.42663">
        <ele>1012.41</ele>
        <time>2021-02-21T08:41:21Z</time>
      </trkpt>
      <trkpt lat="45.0432" lon="3.42639">
        <ele>1010.48</ele>
        <time>2021-02-21T08:41:38Z</time>
      </trkpt>
      <trkpt lat="45.04333" lon="3.42621">
        <ele>1010.48</ele>
        <time>2021-02-21T08:41:52Z</time>
      </trkpt>
      <trkpt lat="45.04346" lon="3.426">
        <ele>1012.89</ele>
        <time>2021-02-21T08:42:08Z</time>
      </trkpt>
      <trkpt lat="45.04363" lon="3.42581">
        <ele>1015.77</ele>
        <time>2021-02-21T08:42:26Z</time>
      </trkpt>
      <trkpt lat="45.04378" lon="3.42559">
        <ele>1021.54</ele>
        <time>2021-02-21T08:42:43Z</time>
      </trkpt>
      <trkpt lat="45.04389" lon="3.42536">
        <ele>1023.94</ele>
        <time>2021-02-21T08:42:59Z</time>
      </trkpt>
      <trkpt lat="45.04394" lon="3.42513">
        <ele>1026.83</ele>
        <time>2021-02-21T08:43:13Z</time>
      </trkpt>
      <trkpt lat="45.04397" lon="3.42486">
        <ele>1028.27</ele>
        <time>2021-02-21T08:43:29Z</time>
      </trkpt>
      <trkpt lat="45.04396" lon="3.42476">
        <ele>1028.27</ele>
        <time>2021-02-21T08:43:36Z</time>
      </trkpt>
      <trkpt lat="45.04395" lon="3.42469">
        <ele>1029.23</ele>
        <time>2021-02-21T08:43:40Z</time>
      </trkpt>
      <trkpt lat="45.04389" lon="3.42451">
        <ele>1029.23</ele>
        <time>2021-02-21T08:43:53Z</time>
      </trkpt>
      <trkpt lat="45.04381" lon="3.42434">
        <ele>1028.75</ele>
        <time>2021-02-21T08:44:07Z</time>
      </trkpt>
      <trkpt lat="45.04377" lon="3.42425">
        <ele>1029.23</ele>
        <time>2021-02-21T08:44:13Z</time>
      </trkpt>
      <trkpt lat="45.04368" lon="3.42406">
        <ele>1033.55</ele>
        <time>2021-02-21T08:44:27Z</time>
      </trkpt>
      <trkpt lat="45.04357" lon="3.42386">
        <ele>1032.11</ele>
        <time>2021-02-21T08:44:43Z</time>
      </trkpt>
      <trkpt lat="45.04357" lon="3.42385">
        <ele>1032.11</ele>
        <time>2021-02-21T08:44:44Z</time>
      </trkpt>
      <trkpt lat="45.04345" lon="3.42362">
        <ele>1033.55</ele>
        <time>2021-02-21T08:45:00Z</time>
      </trkpt>
      <trkpt lat="45.04342" lon="3.42355">
        <ele>1034.52</ele>
        <time>2021-02-21T08:45:04Z</time>
      </trkpt>
      <trkpt lat="45.04341" lon="3.4235">
        <ele>1035.48</ele>
        <time>2021-02-21T08:45:07Z</time>
      </trkpt>
      <trkpt lat="45.04329" lon="3.42325">
        <ele>1039.8</ele>
        <time>2021-02-21T08:45:24Z</time>
      </trkpt>
      <trkpt lat="45.04316" lon="3.42302">
        <ele>1039.32</ele>
        <time>2021-02-21T08:45:41Z</time>
      </trkpt>
      <trkpt lat="45.04301" lon="3.42275">
        <ele>1038.84</ele>
        <time>2021-02-21T08:46:01Z</time>
      </trkpt>
      <trkpt lat="45.04287" lon="3.4225">
        <ele>1038.36</ele>
        <time>2021-02-21T08:46:20Z</time>
      </trkpt>
      <trkpt lat="45.04276" lon="3.42228">
        <ele>1037.88</ele>
        <time>2021-02-21T08:46:36Z</time>
      </trkpt>
      <trkpt lat="45.04266" lon="3.42205">
        <ele>1038.36</ele>
        <time>2021-02-21T08:46:53Z</time>
      </trkpt>
      <trkpt lat="45.04255" lon="3.42173">
        <ele>1040.76</ele>
        <time>2021-02-21T08:47:13Z</time>
      </trkpt>
      <trkpt lat="45.04249" lon="3.42145">
        <ele>1043.65</ele>
        <time>2021-02-21T08:47:31Z</time>
      </trkpt>
      <trkpt lat="45.04247" lon="3.42139">
        <ele>1044.61</ele>
        <time>2021-02-21T08:47:35Z</time>
      </trkpt>
      <trkpt lat="45.04243" lon="3.42109">
        <ele>1047.97</ele>
        <time>2021-02-21T08:47:51Z</time>
      </trkpt>
      <trkpt lat="45.0424" lon="3.42084">
        <ele>1050.38</ele>
        <time>2021-02-21T08:48:04Z</time>
      </trkpt>
      <trkpt lat="45.04236" lon="3.42058">
        <ele>1051.82</ele>
        <time>2021-02-21T08:48:20Z</time>
      </trkpt>
      <trkpt lat="45.04236" lon="3.42056">
        <ele>1051.82</ele>
        <time>2021-02-21T08:48:21Z</time>
      </trkpt>
      <trkpt lat="45.04234" lon="3.42045">
        <ele>1051.34</ele>
        <time>2021-02-21T08:48:27Z</time>
      </trkpt>
      <trkpt lat="45.04231" lon="3.42017">
        <ele>1049.9</ele>
        <time>2021-02-21T08:48:43Z</time>
      </trkpt>
      <trkpt lat="45.04228" lon="3.41989">
        <ele>1049.42</ele>
        <time>2021-02-21T08:48:58Z</time>
      </trkpt>
      <trkpt lat="45.04227" lon="3.41961">
        <ele>1049.42</ele>
        <time>2021-02-21T08:49:13Z</time>
      </trkpt>
      <trkpt lat="45.04225" lon="3.41935">
        <ele>1049.42</ele>
        <time>2021-02-21T08:49:28Z</time>
      </trkpt>
      <trkpt lat="45.04222" lon="3.41906">
        <ele>1049.42</ele>
        <time>2021-02-21T08:49:44Z</time>
      </trkpt>
      <trkpt lat="45.04221" lon="3.41882">
        <ele>1047.49</ele>
        <time>2021-02-21T08:49:58Z</time>
      </trkpt>
      <trkpt lat="45.04224" lon="3.41854">
        <ele>1045.09</ele>
        <time>2021-02-21T08:50:14Z</time>
      </trkpt>
      <trkpt lat="45.04228" lon="3.41823">
        <ele>1045.09</ele>
        <time>2021-02-21T08:50:31Z</time>
      </trkpt>
      <trkpt lat="45.04233" lon="3.41795">
        <ele>1046.05</ele>
        <time>2021-02-21T08:50:47Z</time>
      </trkpt>
      <trkpt lat="45.04235" lon="3.41773">
        <ele>1044.13</ele>
        <time>2021-02-21T08:51:01Z</time>
      </trkpt>
      <trkpt lat="45.04242" lon="3.41748">
        <ele>1043.65</ele>
        <time>2021-02-21T08:51:16Z</time>
      </trkpt>
      <trkpt lat="45.04249" lon="3.41727">
        <ele>1045.09</ele>
        <time>2021-02-21T08:51:32Z</time>
      </trkpt>
      <trkpt lat="45.04255" lon="3.4171">
        <ele>1045.09</ele>
        <time>2021-02-21T08:51:45Z</time>
      </trkpt>
      <trkpt lat="45.04255" lon="3.41691">
        <ele>1045.09</ele>
        <time>2021-02-21T08:51:59Z</time>
      </trkpt>
      <trkpt lat="45.04252" lon="3.41668">
        <ele>1045.09</ele>
        <time>2021-02-21T08:52:12Z</time>
      </trkpt>
      <trkpt lat="45.04249" lon="3.41647">
        <ele>1045.57</ele>
        <time>2021-02-21T08:52:27Z</time>
      </trkpt>
      <trkpt lat="45.0425" lon="3.41634">
        <ele>1044.61</ele>
        <time>2021-02-21T08:52:40Z</time>
      </trkpt>
      <trkpt lat="45.04253" lon="3.41629">
        <ele>1045.09</ele>
        <time>2021-02-21T08:52:54Z</time>
      </trkpt>
      <trkpt lat="45.04253" lon="3.41629">
        <ele>1043.65</ele>
        <time>2021-02-21T08:53:06Z</time>
      </trkpt>
      <trkpt lat="45.04254" lon="3.41627">
        <ele>1044.13</ele>
        <time>2021-02-21T08:53:21Z</time>
      </trkpt>
      <trkpt lat="45.04253" lon="3.41626">
        <ele>1044.13</ele>
        <time>2021-02-21T08:53:33Z</time>
      </trkpt>
      <trkpt lat="45.04252" lon="3.41626">
        <ele>1044.61</ele>
        <time>2021-02-21T08:53:43Z</time>
      </trkpt>
      <trkpt lat="45.04253" lon="3.41625">
        <ele>1046.05</ele>
        <time>2021-02-21T08:54:02Z</time>
      </trkpt>
      <trkpt lat="45.04253" lon="3.41624">
        <ele>1046.05</ele>
        <time>2021-02-21T08:54:20Z</time>
      </trkpt>
      <trkpt lat="45.04253" lon="3.41624">
        <ele>1046.05</ele>
        <time>2021-02-21T08:54:40Z</time>
      </trkpt>
      <trkpt lat="45.04253" lon="3.41623">
        <ele>1045.09</ele>
        <time>2021-02-21T08:55:02Z</time>
      </trkpt>
      <trkpt lat="45.04255" lon="3.41607">
        <ele>1041.25</ele>
        <time>2021-02-21T08:55:22Z</time>
      </trkpt>
      <trkpt lat="45.04255" lon="3.41592">
        <ele>1038.84</ele>
        <time>2021-02-21T08:55:30Z</time>
      </trkpt>
      <trkpt lat="45.04254" lon="3.4157">
        <ele>1035</ele>
        <time>2021-02-21T08:55:42Z</time>
      </trkpt>
      <trkpt lat="45.04267" lon="3.41551">
        <ele>1032.59</ele>
        <time>2021-02-21T08:55:57Z</time>
      </trkpt>
      <trkpt lat="45.04282" lon="3.41538">
        <ele>1033.07</ele>
        <time>2021-02-21T08:56:11Z</time>
      </trkpt>
      <trkpt lat="45.04298" lon="3.41524">
        <ele>1033.55</ele>
        <time>2021-02-21T08:56:26Z</time>
      </trkpt>
      <trkpt lat="45.04314" lon="3.4151">
        <ele>1033.07</ele>
        <time>2021-02-21T08:56:41Z</time>
      </trkpt>
      <trkpt lat="45.04322" lon="3.41502">
        <ele>1032.11</ele>
        <time>2021-02-21T08:56:49Z</time>
      </trkpt>
      <trkpt lat="45.04337" lon="3.41484">
        <ele>1032.11</ele>
        <time>2021-02-21T08:57:04Z</time>
      </trkpt>
      <trkpt lat="45.04346" lon="3.41465">
        <ele>1032.59</ele>
        <time>2021-02-21T08:57:17Z</time>
      </trkpt>
      <trkpt lat="45.04352" lon="3.41436">
        <ele>1032.59</ele>
        <time>2021-02-21T08:57:35Z</time>
      </trkpt>
      <trkpt lat="45.04356" lon="3.41405">
        <ele>1032.11</ele>
        <time>2021-02-21T08:57:52Z</time>
      </trkpt>
      <trkpt lat="45.04362" lon="3.41376">
        <ele>1033.07</ele>
        <time>2021-02-21T08:58:11Z</time>
      </trkpt>
      <trkpt lat="45.04365" lon="3.41352">
        <ele>1033.07</ele>
        <time>2021-02-21T08:58:25Z</time>
      </trkpt>
      <trkpt lat="45.04366" lon="3.41328">
        <ele>1029.71</ele>
        <time>2021-02-21T08:58:41Z</time>
      </trkpt>
      <trkpt lat="45.04368" lon="3.41319">
        <ele>1028.27</ele>
        <time>2021-02-21T08:58:49Z</time>
      </trkpt>
      <trkpt lat="45.04372" lon="3.41296">
        <ele>1028.27</ele>
        <time>2021-02-21T08:59:01Z</time>
      </trkpt>
      <trkpt lat="45.04372" lon="3.41285">
        <ele>1026.83</ele>
        <time>2021-02-21T08:59:07Z</time>
      </trkpt>
      <trkpt lat="45.0438" lon="3.41252">
        <ele>1026.83</ele>
        <time>2021-02-21T08:59:23Z</time>
      </trkpt>
      <trkpt lat="45.04387" lon="3.41227">
        <ele>1026.83</ele>
        <time>2021-02-21T08:59:38Z</time>
      </trkpt>
      <trkpt lat="45.04396" lon="3.41213">
        <ele>1022.5</ele>
        <time>2021-02-21T08:59:51Z</time>
      </trkpt>
      <trkpt lat="45.044" lon="3.41213">
        <ele>1021.54</ele>
        <time>2021-02-21T08:59:54Z</time>
      </trkpt>
      <trkpt lat="45.04416" lon="3.41223">
        <ele>1019.62</ele>
        <time>2021-02-21T09:00:08Z</time>
      </trkpt>
      <trkpt lat="45.04429" lon="3.41235">
        <ele>1016.73</ele>
        <time>2021-02-21T09:00:22Z</time>
      </trkpt>
      <trkpt lat="45.04439" lon="3.41247">
        <ele>1017.21</ele>
        <time>2021-02-21T09:00:35Z</time>
      </trkpt>
      <trkpt lat="45.04451" lon="3.41269">
        <ele>1017.69</ele>
        <time>2021-02-21T09:00:50Z</time>
      </trkpt>
      <trkpt lat="45.04455" lon="3.41275">
        <ele>1018.65</ele>
        <time>2021-02-21T09:00:54Z</time>
      </trkpt>
      <trkpt lat="45.04471" lon="3.41294">
        <ele>1024.9</ele>
        <time>2021-02-21T09:01:09Z</time>
      </trkpt>
      <trkpt lat="45.04485" lon="3.41308">
        <ele>1026.34</ele>
        <time>2021-02-21T09:01:23Z</time>
      </trkpt>
      <trkpt lat="45.04489" lon="3.41314">
        <ele>1027.31</ele>
        <time>2021-02-21T09:01:28Z</time>
      </trkpt>
      <trkpt lat="45.04503" lon="3.41331">
        <ele>1030.67</ele>
        <time>2021-02-21T09:01:41Z</time>
      </trkpt>
      <trkpt lat="45.04504" lon="3.41332">
        <ele>1030.67</ele>
        <time>2021-02-21T09:01:42Z</time>
      </trkpt>
      <trkpt lat="45.04508" lon="3.41336">
        <ele>1030.67</ele>
        <time>2021-02-21T09:01:46Z</time>
      </trkpt>
      <trkpt lat="45.04521" lon="3.41353">
        <ele>1032.59</ele>
        <time>2021-02-21T09:01:59Z</time>
      </trkpt>
      <trkpt lat="45.04528" lon="3.41361">
        <ele>1034.52</ele>
        <time>2021-02-21T09:02:06Z</time>
      </trkpt>
      <trkpt lat="45.04541" lon="3.4138">
        <ele>1036.92</ele>
        <time>2021-02-21T09:02:20Z</time>
      </trkpt>
      <trkpt lat="45.04546" lon="3.41386">
        <ele>1038.36</ele>
        <time>2021-02-21T09:02:24Z</time>
      </trkpt>
      <trkpt lat="45.04562" lon="3.41404">
        <ele>1040.28</ele>
        <time>2021-02-21T09:02:38Z</time>
      </trkpt>
      <trkpt lat="45.04564" lon="3.41406">
        <ele>1040.76</ele>
        <time>2021-02-21T09:02:40Z</time>
      </trkpt>
      <trkpt lat="45.04573" lon="3.41418">
        <ele>1043.17</ele>
        <time>2021-02-21T09:02:50Z</time>
      </trkpt>
      <trkpt lat="45.04577" lon="3.41423">
        <ele>1044.61</ele>
        <time>2021-02-21T09:02:55Z</time>
      </trkpt>
      <trkpt lat="45.0459" lon="3.41442">
        <ele>1046.53</ele>
        <time>2021-02-21T09:03:10Z</time>
      </trkpt>
      <trkpt lat="45.04597" lon="3.4145">
        <ele>1046.53</ele>
        <time>2021-02-21T09:03:17Z</time>
      </trkpt>
      <trkpt lat="45.04605" lon="3.41456">
        <ele>1047.49</ele>
        <time>2021-02-21T09:03:25Z</time>
      </trkpt>
      <trkpt lat="45.04621" lon="3.41465">
        <ele>1049.9</ele>
        <time>2021-02-21T09:03:39Z</time>
      </trkpt>
      <trkpt lat="45.04622" lon="3.41466">
        <ele>1049.9</ele>
        <time>2021-02-21T09:03:40Z</time>
      </trkpt>
      <trkpt lat="45.04637" lon="3.41472">
        <ele>1051.34</ele>
        <time>2021-02-21T09:03:54Z</time>
      </trkpt>
      <trkpt lat="45.04643" lon="3.41474">
        <ele>1052.3</ele>
        <time>2021-02-21T09:03:59Z</time>
      </trkpt>
      <trkpt lat="45.04648" lon="3.41477">
        <ele>1052.3</ele>
        <time>2021-02-21T09:04:03Z</time>
      </trkpt>
      <trkpt lat="45.04669" lon="3.41484">
        <ele>1053.74</ele>
        <time>2021-02-21T09:04:20Z</time>
      </trkpt>
      <trkpt lat="45.04687" lon="3.41493">
        <ele>1054.7</ele>
        <time>2021-02-21T09:04:35Z</time>
      </trkpt>
      <trkpt lat="45.04692" lon="3.41495">
        <ele>1054.7</ele>
        <time>2021-02-21T09:04:39Z</time>
      </trkpt>
      <trkpt lat="45.04708" lon="3.41502">
        <ele>1056.63</ele>
        <time>2021-02-21T09:04:53Z</time>
      </trkpt>
      <trkpt lat="45.04725" lon="3.41511">
        <ele>1058.07</ele>
        <time>2021-02-21T09:05:07Z</time>
      </trkpt>
      <trkpt lat="45.04738" lon="3.41523">
        <ele>1058.55</ele>
        <time>2021-02-21T09:05:20Z</time>
      </trkpt>
      <trkpt lat="45.0475" lon="3.41534">
        <ele>1058.55</ele>
        <time>2021-02-21T09:05:32Z</time>
      </trkpt>
      <trkpt lat="45.04756" lon="3.41539">
        <ele>1058.07</ele>
        <time>2021-02-21T09:05:38Z</time>
      </trkpt>
      <trkpt lat="45.0477" lon="3.41543">
        <ele>1059.03</ele>
        <time>2021-02-21T09:05:50Z</time>
      </trkpt>
      <trkpt lat="45.04784" lon="3.41543">
        <ele>1058.55</ele>
        <time>2021-02-21T09:06:01Z</time>
      </trkpt>
      <trkpt lat="45.04793" lon="3.41542">
        <ele>1057.59</ele>
        <time>2021-02-21T09:06:11Z</time>
      </trkpt>
      <trkpt lat="45.04794" lon="3.41542">
        <ele>1057.59</ele>
        <time>2021-02-21T09:06:23Z</time>
      </trkpt>
      <trkpt lat="45.04794" lon="3.41542">
        <ele>1058.07</ele>
        <time>2021-02-21T09:06:35Z</time>
      </trkpt>
      <trkpt lat="45.04795" lon="3.41543">
        <ele>1058.07</ele>
        <time>2021-02-21T09:06:46Z</time>
      </trkpt>
      <trkpt lat="45.04795" lon="3.41542">
        <ele>1058.55</ele>
        <time>2021-02-21T09:07:00Z</time>
      </trkpt>
      <trkpt lat="45.04795" lon="3.41542">
        <ele>1058.55</ele>
        <time>2021-02-21T09:07:20Z</time>
      </trkpt>
      <trkpt lat="45.04795" lon="3.41542">
        <ele>1058.55</ele>
        <time>2021-02-21T09:07:39Z</time>
      </trkpt>
      <trkpt lat="45.04796" lon="3.41542">
        <ele>1058.55</ele>
        <time>2021-02-21T09:07:56Z</time>
      </trkpt>
      <trkpt lat="45.04797" lon="3.41542">
        <ele>1058.07</ele>
        <time>2021-02-21T09:08:11Z</time>
      </trkpt>
      <trkpt lat="45.04802" lon="3.41539">
        <ele>1055.67</ele>
        <time>2021-02-21T09:08:21Z</time>
      </trkpt>
      <trkpt lat="45.04804" lon="3.41537">
        <ele>1054.7</ele>
        <time>2021-02-21T09:08:23Z</time>
      </trkpt>
      <trkpt lat="45.04809" lon="3.41529">
        <ele>1055.18</ele>
        <time>2021-02-21T09:08:36Z</time>
      </trkpt>
      <trkpt lat="45.04807" lon="3.41521">
        <ele>1057.11</ele>
        <time>2021-02-21T09:08:49Z</time>
      </trkpt>
      <trkpt lat="45.04798" lon="3.41494">
        <ele>1060.95</ele>
        <time>2021-02-21T09:09:10Z</time>
      </trkpt>
      <trkpt lat="45.04791" lon="3.41473">
        <ele>1064.32</ele>
        <time>2021-02-21T09:09:26Z</time>
      </trkpt>
      <trkpt lat="45.04783" lon="3.41451">
        <ele>1065.76</ele>
        <time>2021-02-21T09:09:44Z</time>
      </trkpt>
      <trkpt lat="45.04779" lon="3.41445">
        <ele>1065.76</ele>
        <time>2021-02-21T09:09:49Z</time>
      </trkpt>
      <trkpt lat="45.04775" lon="3.41441">
        <ele>1066.24</ele>
        <time>2021-02-21T09:09:53Z</time>
      </trkpt>
      <trkpt lat="45.04766" lon="3.4143">
        <ele>1067.68</ele>
        <time>2021-02-21T09:10:06Z</time>
      </trkpt>
      <trkpt lat="45.04751" lon="3.41411">
        <ele>1068.16</ele>
        <time>2021-02-21T09:10:21Z</time>
      </trkpt>
      <trkpt lat="45.04735" lon="3.41395">
        <ele>1068.64</ele>
        <time>2021-02-21T09:10:36Z</time>
      </trkpt>
      <trkpt lat="45.04722" lon="3.4138">
        <ele>1070.08</ele>
        <time>2021-02-21T09:10:50Z</time>
      </trkpt>
      <trkpt lat="45.04713" lon="3.41371">
        <ele>1071.05</ele>
        <time>2021-02-21T09:11:00Z</time>
      </trkpt>
      <trkpt lat="45.04698" lon="3.41346">
        <ele>1073.93</ele>
        <time>2021-02-21T09:11:18Z</time>
      </trkpt>
      <trkpt lat="45.04686" lon="3.41325">
        <ele>1074.89</ele>
        <time>2021-02-21T09:11:34Z</time>
      </trkpt>
      <trkpt lat="45.04671" lon="3.41298">
        <ele>1075.85</ele>
        <time>2021-02-21T09:11:52Z</time>
      </trkpt>
      <trkpt lat="45.04659" lon="3.41277">
        <ele>1076.33</ele>
        <time>2021-02-21T09:12:07Z</time>
      </trkpt>
      <trkpt lat="45.04646" lon="3.41249">
        <ele>1075.37</ele>
        <time>2021-02-21T09:12:24Z</time>
      </trkpt>
      <trkpt lat="45.04636" lon="3.41217">
        <ele>1074.89</ele>
        <time>2021-02-21T09:12:41Z</time>
      </trkpt>
      <trkpt lat="45.04626" lon="3.41183">
        <ele>1074.89</ele>
        <time>2021-02-21T09:13:00Z</time>
      </trkpt>
      <trkpt lat="45.04619" lon="3.4116">
        <ele>1072.97</ele>
        <time>2021-02-21T09:13:15Z</time>
      </trkpt>
      <trkpt lat="45.04613" lon="3.41135">
        <ele>1072.49</ele>
        <time>2021-02-21T09:13:29Z</time>
      </trkpt>
      <trkpt lat="45.04604" lon="3.41106">
        <ele>1072.01</ele>
        <time>2021-02-21T09:13:44Z</time>
      </trkpt>
      <trkpt lat="45.04599" lon="3.41084">
        <ele>1072.01</ele>
        <time>2021-02-21T09:13:57Z</time>
      </trkpt>
      <trkpt lat="45.04592" lon="3.41052">
        <ele>1072.97</ele>
        <time>2021-02-21T09:14:14Z</time>
      </trkpt>
      <trkpt lat="45.04587" lon="3.41022">
        <ele>1072.97</ele>
        <time>2021-02-21T09:14:30Z</time>
      </trkpt>
      <trkpt lat="45.04584" lon="3.41005">
        <ele>1072.01</ele>
        <time>2021-02-21T09:14:39Z</time>
      </trkpt>
      <trkpt lat="45.04582" lon="3.40998">
        <ele>1071.53</ele>
        <time>2021-02-21T09:14:43Z</time>
      </trkpt>
      <trkpt lat="45.04581" lon="3.40995">
        <ele>1071.53</ele>
        <time>2021-02-21T09:14:45Z</time>
      </trkpt>
      <trkpt lat="45.04578" lon="3.4097">
        <ele>1070.08</ele>
        <time>2021-02-21T09:14:59Z</time>
      </trkpt>
      <trkpt lat="45.0457" lon="3.40941">
        <ele>1073.45</ele>
        <time>2021-02-21T09:15:15Z</time>
      </trkpt>
      <trkpt lat="45.04569" lon="3.40938">
        <ele>1073.93</ele>
        <time>2021-02-21T09:15:17Z</time>
      </trkpt>
      <trkpt lat="45.04566" lon="3.40926">
        <ele>1075.37</ele>
        <time>2021-02-21T09:15:23Z</time>
      </trkpt>
      <trkpt lat="45.04559" lon="3.409">
        <ele>1078.74</ele>
        <time>2021-02-21T09:15:38Z</time>
      </trkpt>
      <trkpt lat="45.04557" lon="3.40874">
        <ele>1079.7</ele>
        <time>2021-02-21T09:15:53Z</time>
      </trkpt>
      <trkpt lat="45.04558" lon="3.40846">
        <ele>1078.74</ele>
        <time>2021-02-21T09:16:08Z</time>
      </trkpt>
      <trkpt lat="45.04558" lon="3.40836">
        <ele>1079.7</ele>
        <time>2021-02-21T09:16:22Z</time>
      </trkpt>
      <trkpt lat="45.0456" lon="3.40823">
        <ele>1080.66</ele>
        <time>2021-02-21T09:16:36Z</time>
      </trkpt>
      <trkpt lat="45.04559" lon="3.40819">
        <ele>1080.66</ele>
        <time>2021-02-21T09:16:52Z</time>
      </trkpt>
      <trkpt lat="45.0456" lon="3.40816">
        <ele>1081.14</ele>
        <time>2021-02-21T09:17:06Z</time>
      </trkpt>
      <trkpt lat="45.04561" lon="3.40814">
        <ele>1080.66</ele>
        <time>2021-02-21T09:17:20Z</time>
      </trkpt>
      <trkpt lat="45.04564" lon="3.40799">
        <ele>1079.7</ele>
        <time>2021-02-21T09:17:32Z</time>
      </trkpt>
      <trkpt lat="45.04565" lon="3.40786">
        <ele>1080.18</ele>
        <time>2021-02-21T09:17:44Z</time>
      </trkpt>
      <trkpt lat="45.04565" lon="3.40777">
        <ele>1079.7</ele>
        <time>2021-02-21T09:18:02Z</time>
      </trkpt>
      <trkpt lat="45.04567" lon="3.40755">
        <ele>1079.7</ele>
        <time>2021-02-21T09:18:16Z</time>
      </trkpt>
      <trkpt lat="45.04567" lon="3.40749">
        <ele>1080.18</ele>
        <time>2021-02-21T09:18:20Z</time>
      </trkpt>
      <trkpt lat="45.04567" lon="3.40742">
        <ele>1080.18</ele>
        <time>2021-02-21T09:18:24Z</time>
      </trkpt>
      <trkpt lat="45.04565" lon="3.40727">
        <ele>1079.22</ele>
        <time>2021-02-21T09:18:36Z</time>
      </trkpt>
      <trkpt lat="45.04564" lon="3.40723">
        <ele>1078.74</ele>
        <time>2021-02-21T09:18:38Z</time>
      </trkpt>
      <trkpt lat="45.04558" lon="3.40703">
        <ele>1075.85</ele>
        <time>2021-02-21T09:18:49Z</time>
      </trkpt>
      <trkpt lat="45.04558" lon="3.40696">
        <ele>1075.85</ele>
        <time>2021-02-21T09:18:53Z</time>
      </trkpt>
      <trkpt lat="45.04553" lon="3.40673">
        <ele>1074.41</ele>
        <time>2021-02-21T09:19:07Z</time>
      </trkpt>
      <trkpt lat="45.04551" lon="3.40665">
        <ele>1074.41</ele>
        <time>2021-02-21T09:19:12Z</time>
      </trkpt>
      <trkpt lat="45.04547" lon="3.40647">
        <ele>1073.45</ele>
        <time>2021-02-21T09:19:25Z</time>
      </trkpt>
      <trkpt lat="45.04542" lon="3.40626">
        <ele>1071.53</ele>
        <time>2021-02-21T09:19:39Z</time>
      </trkpt>
      <trkpt lat="45.04536" lon="3.40602">
        <ele>1071.05</ele>
        <time>2021-02-21T09:19:53Z</time>
      </trkpt>
      <trkpt lat="45.04531" lon="3.40579">
        <ele>1071.53</ele>
        <time>2021-02-21T09:20:06Z</time>
      </trkpt>
      <trkpt lat="45.04527" lon="3.40557">
        <ele>1071.53</ele>
        <time>2021-02-21T09:20:19Z</time>
      </trkpt>
      <trkpt lat="45.04523" lon="3.40535">
        <ele>1071.05</ele>
        <time>2021-02-21T09:20:33Z</time>
      </trkpt>
      <trkpt lat="45.0452" lon="3.40512">
        <ele>1072.01</ele>
        <time>2021-02-21T09:20:46Z</time>
      </trkpt>
      <trkpt lat="45.04519" lon="3.40507">
        <ele>1072.01</ele>
        <time>2021-02-21T09:20:49Z</time>
      </trkpt>
      <trkpt lat="45.04518" lon="3.40482">
        <ele>1074.41</ele>
        <time>2021-02-21T09:21:04Z</time>
      </trkpt>
      <trkpt lat="45.04519" lon="3.40462">
        <ele>1078.26</ele>
        <time>2021-02-21T09:21:17Z</time>
      </trkpt>
      <trkpt lat="45.0452" lon="3.40456">
        <ele>1083.06</ele>
        <time>2021-02-21T09:21:32Z</time>
      </trkpt>
      <trkpt lat="45.04519" lon="3.40451">
        <ele>1085.95</ele>
        <time>2021-02-21T09:21:44Z</time>
      </trkpt>
      <trkpt lat="45.04519" lon="3.4045">
        <ele>1086.43</ele>
        <time>2021-02-21T09:21:58Z</time>
      </trkpt>
      <trkpt lat="45.04519" lon="3.40448">
        <ele>1087.87</ele>
        <time>2021-02-21T09:22:14Z</time>
      </trkpt>
      <trkpt lat="45.04524" lon="3.40452">
        <ele>1087.87</ele>
        <time>2021-02-21T09:22:25Z</time>
      </trkpt>
      <trkpt lat="45.04538" lon="3.40458">
        <ele>1087.87</ele>
        <time>2021-02-21T09:22:39Z</time>
      </trkpt>
      <trkpt lat="45.04553" lon="3.40467">
        <ele>1088.83</ele>
        <time>2021-02-21T09:22:52Z</time>
      </trkpt>
      <trkpt lat="45.04567" lon="3.40478">
        <ele>1088.35</ele>
        <time>2021-02-21T09:23:04Z</time>
      </trkpt>
      <trkpt lat="45.04582" lon="3.40494">
        <ele>1085.47</ele>
        <time>2021-02-21T09:23:19Z</time>
      </trkpt>
      <trkpt lat="45.04595" lon="3.40501">
        <ele>1084.99</ele>
        <time>2021-02-21T09:23:31Z</time>
      </trkpt>
      <trkpt lat="45.04596" lon="3.405">
        <ele>1085.47</ele>
        <time>2021-02-21T09:23:34Z</time>
      </trkpt>
      <trkpt lat="45.04596" lon="3.40481">
        <ele>1086.91</ele>
        <time>2021-02-21T09:23:49Z</time>
      </trkpt>
      <trkpt lat="45.04595" lon="3.40475">
        <ele>1087.39</ele>
        <time>2021-02-21T09:23:54Z</time>
      </trkpt>
      <trkpt lat="45.04597" lon="3.40455">
        <ele>1088.83</ele>
        <time>2021-02-21T09:24:09Z</time>
      </trkpt>
      <trkpt lat="45.04598" lon="3.40438">
        <ele>1091.71</ele>
        <time>2021-02-21T09:24:23Z</time>
      </trkpt>
      <trkpt lat="45.04593" lon="3.40422">
        <ele>1095.08</ele>
        <time>2021-02-21T09:24:35Z</time>
      </trkpt>
      <trkpt lat="45.04584" lon="3.40404">
        <ele>1097.48</ele>
        <time>2021-02-21T09:24:54Z</time>
      </trkpt>
      <trkpt lat="45.04569" lon="3.40367">
        <ele>1098.92</ele>
        <time>2021-02-21T09:25:17Z</time>
      </trkpt>
      <trkpt lat="45.04563" lon="3.40353">
        <ele>1099.4</ele>
        <time>2021-02-21T09:25:29Z</time>
      </trkpt>
      <trkpt lat="45.04552" lon="3.40325">
        <ele>1100.85</ele>
        <time>2021-02-21T09:25:50Z</time>
      </trkpt>
      <trkpt lat="45.04543" lon="3.40299">
        <ele>1102.29</ele>
        <time>2021-02-21T09:26:08Z</time>
      </trkpt>
      <trkpt lat="45.04528" lon="3.40268">
        <ele>1104.21</ele>
        <time>2021-02-21T09:26:29Z</time>
      </trkpt>
      <trkpt lat="45.04515" lon="3.40243">
        <ele>1104.69</ele>
        <time>2021-02-21T09:26:46Z</time>
      </trkpt>
      <trkpt lat="45.04503" lon="3.40221">
        <ele>1103.73</ele>
        <time>2021-02-21T09:27:02Z</time>
      </trkpt>
      <trkpt lat="45.04492" lon="3.40204">
        <ele>1104.21</ele>
        <time>2021-02-21T09:27:22Z</time>
      </trkpt>
      <trkpt lat="45.04478" lon="3.40192">
        <ele>1104.21</ele>
        <time>2021-02-21T09:27:34Z</time>
      </trkpt>
      <trkpt lat="45.0446" lon="3.40182">
        <ele>1104.69</ele>
        <time>2021-02-21T09:27:50Z</time>
      </trkpt>
      <trkpt lat="45.04446" lon="3.40175">
        <ele>1104.21</ele>
        <time>2021-02-21T09:28:04Z</time>
      </trkpt>
      <trkpt lat="45.04432" lon="3.4017">
        <ele>1104.69</ele>
        <time>2021-02-21T09:28:18Z</time>
      </trkpt>
      <trkpt lat="45.04417" lon="3.40164">
        <ele>1104.21</ele>
        <time>2021-02-21T09:28:38Z</time>
      </trkpt>
      <trkpt lat="45.04402" lon="3.40151">
        <ele>1107.1</ele>
        <time>2021-02-21T09:28:55Z</time>
      </trkpt>
      <trkpt lat="45.04387" lon="3.40137">
        <ele>1105.65</ele>
        <time>2021-02-21T09:29:12Z</time>
      </trkpt>
      <trkpt lat="45.04384" lon="3.40134">
        <ele>1105.65</ele>
        <time>2021-02-21T09:29:14Z</time>
      </trkpt>
      <trkpt lat="45.04365" lon="3.40121">
        <ele>1108.54</ele>
        <time>2021-02-21T09:29:29Z</time>
      </trkpt>
      <trkpt lat="45.04351" lon="3.4011">
        <ele>1109.98</ele>
        <time>2021-02-21T09:29:42Z</time>
      </trkpt>
      <trkpt lat="45.04341" lon="3.40102">
        <ele>1111.42</ele>
        <time>2021-02-21T09:29:55Z</time>
      </trkpt>
      <trkpt lat="45.04336" lon="3.401">
        <ele>1114.31</ele>
        <time>2021-02-21T09:30:11Z</time>
      </trkpt>
      <trkpt lat="45.04334" lon="3.40101">
        <ele>1116.71</ele>
        <time>2021-02-21T09:30:25Z</time>
      </trkpt>
      <trkpt lat="45.04328" lon="3.40098">
        <ele>1117.19</ele>
        <time>2021-02-21T09:30:40Z</time>
      </trkpt>
      <trkpt lat="45.04319" lon="3.4009">
        <ele>1118.15</ele>
        <time>2021-02-21T09:30:52Z</time>
      </trkpt>
      <trkpt lat="45.04308" lon="3.40083">
        <ele>1119.59</ele>
        <time>2021-02-21T09:31:08Z</time>
      </trkpt>
      <trkpt lat="45.04296" lon="3.40074">
        <ele>1118.15</ele>
        <time>2021-02-21T09:31:23Z</time>
      </trkpt>
      <trkpt lat="45.04282" lon="3.40062">
        <ele>1116.71</ele>
        <time>2021-02-21T09:31:39Z</time>
      </trkpt>
      <trkpt lat="45.04277" lon="3.40057">
        <ele>1115.75</ele>
        <time>2021-02-21T09:31:43Z</time>
      </trkpt>
      <trkpt lat="45.04258" lon="3.4004">
        <ele>1115.75</ele>
        <time>2021-02-21T09:31:58Z</time>
      </trkpt>
      <trkpt lat="45.04242" lon="3.40026">
        <ele>1118.15</ele>
        <time>2021-02-21T09:32:16Z</time>
      </trkpt>
      <trkpt lat="45.04225" lon="3.40013">
        <ele>1120.55</ele>
        <time>2021-02-21T09:32:33Z</time>
      </trkpt>
      <trkpt lat="45.04207" lon="3.39998">
        <ele>1122.96</ele>
        <time>2021-02-21T09:32:48Z</time>
      </trkpt>
      <trkpt lat="45.04188" lon="3.39982">
        <ele>1125.84</ele>
        <time>2021-02-21T09:33:04Z</time>
      </trkpt>
      <trkpt lat="45.04175" lon="3.39968">
        <ele>1126.8</ele>
        <time>2021-02-21T09:33:16Z</time>
      </trkpt>
      <trkpt lat="45.04163" lon="3.39951">
        <ele>1128.73</ele>
        <time>2021-02-21T09:33:29Z</time>
      </trkpt>
      <trkpt lat="45.04151" lon="3.39934">
        <ele>1130.17</ele>
        <time>2021-02-21T09:33:43Z</time>
      </trkpt>
      <trkpt lat="45.04138" lon="3.39916">
        <ele>1131.61</ele>
        <time>2021-02-21T09:33:57Z</time>
      </trkpt>
      <trkpt lat="45.04129" lon="3.39899">
        <ele>1131.13</ele>
        <time>2021-02-21T09:34:09Z</time>
      </trkpt>
      <trkpt lat="45.04123" lon="3.39879">
        <ele>1130.65</ele>
        <time>2021-02-21T09:34:22Z</time>
      </trkpt>
      <trkpt lat="45.04119" lon="3.39867">
        <ele>1131.61</ele>
        <time>2021-02-21T09:34:32Z</time>
      </trkpt>
      <trkpt lat="45.04114" lon="3.39855">
        <ele>1133.05</ele>
        <time>2021-02-21T09:34:41Z</time>
      </trkpt>
      <trkpt lat="45.04106" lon="3.39829">
        <ele>1135.45</ele>
        <time>2021-02-21T09:34:58Z</time>
      </trkpt>
      <trkpt lat="45.04101" lon="3.39815">
        <ele>1137.38</ele>
        <time>2021-02-21T09:35:08Z</time>
      </trkpt>
      <trkpt lat="45.04095" lon="3.39791">
        <ele>1141.7</ele>
        <time>2021-02-21T09:35:23Z</time>
      </trkpt>
      <trkpt lat="45.04088" lon="3.39765">
        <ele>1143.63</ele>
        <time>2021-02-21T09:35:39Z</time>
      </trkpt>
      <trkpt lat="45.04084" lon="3.39742">
        <ele>1145.55</ele>
        <time>2021-02-21T09:35:54Z</time>
      </trkpt>
      <trkpt lat="45.04083" lon="3.39739">
        <ele>1146.03</ele>
        <time>2021-02-21T09:35:56Z</time>
      </trkpt>
      <trkpt lat="45.04077" lon="3.39718">
        <ele>1147.47</ele>
        <time>2021-02-21T09:36:11Z</time>
      </trkpt>
      <trkpt lat="45.04071" lon="3.39699">
        <ele>1147.47</ele>
        <time>2021-02-21T09:36:24Z</time>
      </trkpt>
      <trkpt lat="45.04065" lon="3.39676">
        <ele>1147.47</ele>
        <time>2021-02-21T09:36:39Z</time>
      </trkpt>
      <trkpt lat="45.04061" lon="3.39657">
        <ele>1147.47</ele>
        <time>2021-02-21T09:36:52Z</time>
      </trkpt>
      <trkpt lat="45.04055" lon="3.39633">
        <ele>1147.95</ele>
        <time>2021-02-21T09:37:08Z</time>
      </trkpt>
      <trkpt lat="45.0405" lon="3.39611">
        <ele>1146.99</ele>
        <time>2021-02-21T09:37:22Z</time>
      </trkpt>
      <trkpt lat="45.04045" lon="3.39588">
        <ele>1146.51</ele>
        <time>2021-02-21T09:37:36Z</time>
      </trkpt>
      <trkpt lat="45.04039" lon="3.39567">
        <ele>1146.03</ele>
        <time>2021-02-21T09:37:51Z</time>
      </trkpt>
      <trkpt lat="45.04038" lon="3.39563">
        <ele>1145.55</ele>
        <time>2021-02-21T09:37:54Z</time>
      </trkpt>
      <trkpt lat="45.04035" lon="3.39556">
        <ele>1146.03</ele>
        <time>2021-02-21T09:38:07Z</time>
      </trkpt>
      <trkpt lat="45.04036" lon="3.39554">
        <ele>1146.03</ele>
        <time>2021-02-21T09:38:23Z</time>
      </trkpt>
      <trkpt lat="45.04034" lon="3.39552">
        <ele>1146.03</ele>
        <time>2021-02-21T09:38:44Z</time>
      </trkpt>
      <trkpt lat="45.04033" lon="3.3955">
        <ele>1146.51</ele>
        <time>2021-02-21T09:39:06Z</time>
      </trkpt>
      <trkpt lat="45.04033" lon="3.39549">
        <ele>1146.99</ele>
        <time>2021-02-21T09:39:20Z</time>
      </trkpt>
      <trkpt lat="45.04029" lon="3.39539">
        <ele>1147.47</ele>
        <time>2021-02-21T09:39:34Z</time>
      </trkpt>
      <trkpt lat="45.04022" lon="3.39513">
        <ele>1148.43</ele>
        <time>2021-02-21T09:39:51Z</time>
      </trkpt>
      <trkpt lat="45.04017" lon="3.3949">
        <ele>1149.39</ele>
        <time>2021-02-21T09:40:05Z</time>
      </trkpt>
      <trkpt lat="45.04011" lon="3.39469">
        <ele>1149.39</ele>
        <time>2021-02-21T09:40:19Z</time>
      </trkpt>
      <trkpt lat="45.04005" lon="3.39442">
        <ele>1150.35</ele>
        <time>2021-02-21T09:40:34Z</time>
      </trkpt>
      <trkpt lat="45.03997" lon="3.39415">
        <ele>1152.28</ele>
        <time>2021-02-21T09:40:50Z</time>
      </trkpt>
      <trkpt lat="45.03992" lon="3.39389">
        <ele>1154.68</ele>
        <time>2021-02-21T09:41:05Z</time>
      </trkpt>
      <trkpt lat="45.03986" lon="3.39355">
        <ele>1158.05</ele>
        <time>2021-02-21T09:41:23Z</time>
      </trkpt>
      <trkpt lat="45.03979" lon="3.39325">
        <ele>1159.97</ele>
        <time>2021-02-21T09:41:40Z</time>
      </trkpt>
      <trkpt lat="45.03974" lon="3.39299">
        <ele>1160.45</ele>
        <time>2021-02-21T09:41:55Z</time>
      </trkpt>
      <trkpt lat="45.0397" lon="3.39275">
        <ele>1159.49</ele>
        <time>2021-02-21T09:42:10Z</time>
      </trkpt>
      <trkpt lat="45.03966" lon="3.39251">
        <ele>1159.49</ele>
        <time>2021-02-21T09:42:24Z</time>
      </trkpt>
      <trkpt lat="45.03961" lon="3.39227">
        <ele>1159.01</ele>
        <time>2021-02-21T09:42:38Z</time>
      </trkpt>
      <trkpt lat="45.03955" lon="3.39197">
        <ele>1158.05</ele>
        <time>2021-02-21T09:42:55Z</time>
      </trkpt>
      <trkpt lat="45.03948" lon="3.39167">
        <ele>1157.56</ele>
        <time>2021-02-21T09:43:12Z</time>
      </trkpt>
      <trkpt lat="45.03942" lon="3.39142">
        <ele>1157.56</ele>
        <time>2021-02-21T09:43:26Z</time>
      </trkpt>
      <trkpt lat="45.03936" lon="3.39121">
        <ele>1156.12</ele>
        <time>2021-02-21T09:43:40Z</time>
      </trkpt>
      <trkpt lat="45.03928" lon="3.39099">
        <ele>1153.24</ele>
        <time>2021-02-21T09:43:55Z</time>
      </trkpt>
      <trkpt lat="45.0392" lon="3.39077">
        <ele>1152.28</ele>
        <time>2021-02-21T09:44:09Z</time>
      </trkpt>
      <trkpt lat="45.03911" lon="3.39051">
        <ele>1151.8</ele>
        <time>2021-02-21T09:44:24Z</time>
      </trkpt>
      <trkpt lat="45.03901" lon="3.39026">
        <ele>1152.76</ele>
        <time>2021-02-21T09:44:39Z</time>
      </trkpt>
      <trkpt lat="45.03891" lon="3.39002">
        <ele>1153.24</ele>
        <time>2021-02-21T09:44:54Z</time>
      </trkpt>
      <trkpt lat="45.03878" lon="3.3898">
        <ele>1153.24</ele>
        <time>2021-02-21T09:45:10Z</time>
      </trkpt>
      <trkpt lat="45.03873" lon="3.38975">
        <ele>1152.28</ele>
        <time>2021-02-21T09:45:26Z</time>
      </trkpt>
      <trkpt lat="45.03862" lon="3.38953">
        <ele>1151.8</ele>
        <time>2021-02-21T09:45:41Z</time>
      </trkpt>
      <trkpt lat="45.0385" lon="3.38929">
        <ele>1153.24</ele>
        <time>2021-02-21T09:45:57Z</time>
      </trkpt>
      <trkpt lat="45.03842" lon="3.38905">
        <ele>1153.72</ele>
        <time>2021-02-21T09:46:12Z</time>
      </trkpt>
      <trkpt lat="45.03834" lon="3.38884">
        <ele>1153.72</ele>
        <time>2021-02-21T09:46:28Z</time>
      </trkpt>
      <trkpt lat="45.03825" lon="3.38855">
        <ele>1153.24</ele>
        <time>2021-02-21T09:46:46Z</time>
      </trkpt>
      <trkpt lat="45.03818" lon="3.38823">
        <ele>1151.8</ele>
        <time>2021-02-21T09:47:05Z</time>
      </trkpt>
      <trkpt lat="45.03816" lon="3.38792">
        <ele>1154.68</ele>
        <time>2021-02-21T09:47:20Z</time>
      </trkpt>
      <trkpt lat="45.03811" lon="3.38767">
        <ele>1154.2</ele>
        <time>2021-02-21T09:47:35Z</time>
      </trkpt>
      <trkpt lat="45.03805" lon="3.38741">
        <ele>1153.72</ele>
        <time>2021-02-21T09:47:50Z</time>
      </trkpt>
      <trkpt lat="45.03796" lon="3.38718">
        <ele>1153.72</ele>
        <time>2021-02-21T09:48:04Z</time>
      </trkpt>
      <trkpt lat="45.03787" lon="3.38696">
        <ele>1154.2</ele>
        <time>2021-02-21T09:48:17Z</time>
      </trkpt>
      <trkpt lat="45.03778" lon="3.38675">
        <ele>1151.8</ele>
        <time>2021-02-21T09:48:30Z</time>
      </trkpt>
      <trkpt lat="45.0377" lon="3.38658">
        <ele>1150.35</ele>
        <time>2021-02-21T09:48:43Z</time>
      </trkpt>
      <trkpt lat="45.03762" lon="3.38635">
        <ele>1146.99</ele>
        <time>2021-02-21T09:48:58Z</time>
      </trkpt>
      <trkpt lat="45.03754" lon="3.38611">
        <ele>1144.59</ele>
        <time>2021-02-21T09:49:13Z</time>
      </trkpt>
      <trkpt lat="45.03752" lon="3.38605">
        <ele>1143.63</ele>
        <time>2021-02-21T09:49:17Z</time>
      </trkpt>
      <trkpt lat="45.03743" lon="3.38583">
        <ele>1141.22</ele>
        <time>2021-02-21T09:49:31Z</time>
      </trkpt>
      <trkpt lat="45.03739" lon="3.38571">
        <ele>1140.26</ele>
        <time>2021-02-21T09:49:39Z</time>
      </trkpt>
      <trkpt lat="45.03736" lon="3.38562">
        <ele>1139.78</ele>
        <time>2021-02-21T09:49:45Z</time>
      </trkpt>
      <trkpt lat="45.03727" lon="3.38543">
        <ele>1138.34</ele>
        <time>2021-02-21T09:49:58Z</time>
      </trkpt>
      <trkpt lat="45.03725" lon="3.3853">
        <ele>1137.86</ele>
        <time>2021-02-21T09:50:05Z</time>
      </trkpt>
      <trkpt lat="45.03719" lon="3.38501">
        <ele>1137.86</ele>
        <time>2021-02-21T09:50:21Z</time>
      </trkpt>
      <trkpt lat="45.03713" lon="3.38478">
        <ele>1139.78</ele>
        <time>2021-02-21T09:50:35Z</time>
      </trkpt>
      <trkpt lat="45.03709" lon="3.38454">
        <ele>1141.22</ele>
        <time>2021-02-21T09:50:49Z</time>
      </trkpt>
      <trkpt lat="45.03708" lon="3.38446">
        <ele>1142.66</ele>
        <time>2021-02-21T09:50:54Z</time>
      </trkpt>
      <trkpt lat="45.03707" lon="3.38443">
        <ele>1142.66</ele>
        <time>2021-02-21T09:50:56Z</time>
      </trkpt>
      <trkpt lat="45.03701" lon="3.38416">
        <ele>1142.18</ele>
        <time>2021-02-21T09:51:11Z</time>
      </trkpt>
      <trkpt lat="45.03696" lon="3.38392">
        <ele>1142.18</ele>
        <time>2021-02-21T09:51:26Z</time>
      </trkpt>
      <trkpt lat="45.0369" lon="3.38367">
        <ele>1142.66</ele>
        <time>2021-02-21T09:51:40Z</time>
      </trkpt>
      <trkpt lat="45.03683" lon="3.3835">
        <ele>1142.18</ele>
        <time>2021-02-21T09:51:52Z</time>
      </trkpt>
      <trkpt lat="45.03674" lon="3.38324">
        <ele>1141.22</ele>
        <time>2021-02-21T09:52:08Z</time>
      </trkpt>
      <trkpt lat="45.03666" lon="3.38293">
        <ele>1142.18</ele>
        <time>2021-02-21T09:52:24Z</time>
      </trkpt>
      <trkpt lat="45.03661" lon="3.38272">
        <ele>1144.11</ele>
        <time>2021-02-21T09:52:37Z</time>
      </trkpt>
      <trkpt lat="45.03656" lon="3.38249">
        <ele>1143.63</ele>
        <time>2021-02-21T09:52:51Z</time>
      </trkpt>
      <trkpt lat="45.03648" lon="3.38224">
        <ele>1143.63</ele>
        <time>2021-02-21T09:53:06Z</time>
      </trkpt>
      <trkpt lat="45.03645" lon="3.38217">
        <ele>1143.63</ele>
        <time>2021-02-21T09:53:11Z</time>
      </trkpt>
      <trkpt lat="45.03638" lon="3.38201">
        <ele>1143.14</ele>
        <time>2021-02-21T09:53:23Z</time>
      </trkpt>
      <trkpt lat="45.03635" lon="3.38197">
        <ele>1145.07</ele>
        <time>2021-02-21T09:53:36Z</time>
      </trkpt>
      <trkpt lat="45.03635" lon="3.38196">
        <ele>1147.47</ele>
        <time>2021-02-21T09:53:53Z</time>
      </trkpt>
      <trkpt lat="45.03631" lon="3.38182">
        <ele>1149.39</ele>
        <time>2021-02-21T09:54:10Z</time>
      </trkpt>
      <trkpt lat="45.03625" lon="3.38165">
        <ele>1153.24</ele>
        <time>2021-02-21T09:54:19Z</time>
      </trkpt>
      <trkpt lat="45.03613" lon="3.38142">
        <ele>1157.08</ele>
        <time>2021-02-21T09:54:33Z</time>
      </trkpt>
      <trkpt lat="45.03602" lon="3.38122">
        <ele>1159.01</ele>
        <time>2021-02-21T09:54:46Z</time>
      </trkpt>
      <trkpt lat="45.03592" lon="3.38101">
        <ele>1159.01</ele>
        <time>2021-02-21T09:55:00Z</time>
      </trkpt>
      <trkpt lat="45.03589" lon="3.38099">
        <ele>1159.97</ele>
        <time>2021-02-21T09:55:12Z</time>
      </trkpt>
      <trkpt lat="45.03588" lon="3.38098">
        <ele>1161.89</ele>
        <time>2021-02-21T09:55:36Z</time>
      </trkpt>
      <trkpt lat="45.03581" lon="3.38086">
        <ele>1161.89</ele>
        <time>2021-02-21T09:55:45Z</time>
      </trkpt>
      <trkpt lat="45.03571" lon="3.38065">
        <ele>1160.93</ele>
        <time>2021-02-21T09:55:58Z</time>
      </trkpt>
      <trkpt lat="45.03563" lon="3.38049">
        <ele>1161.89</ele>
        <time>2021-02-21T09:56:10Z</time>
      </trkpt>
      <trkpt lat="45.03552" lon="3.3803">
        <ele>1160.45</ele>
        <time>2021-02-21T09:56:22Z</time>
      </trkpt>
      <trkpt lat="45.03542" lon="3.38004">
        <ele>1162.37</ele>
        <time>2021-02-21T09:56:38Z</time>
      </trkpt>
      <trkpt lat="45.03535" lon="3.37987">
        <ele>1165.26</ele>
        <time>2021-02-21T09:56:48Z</time>
      </trkpt>
      <trkpt lat="45.03519" lon="3.37968">
        <ele>1167.66</ele>
        <time>2021-02-21T09:57:05Z</time>
      </trkpt>
      <trkpt lat="45.03508" lon="3.37949">
        <ele>1170.54</ele>
        <time>2021-02-21T09:57:19Z</time>
      </trkpt>
      <trkpt lat="45.03508" lon="3.37948">
        <ele>1171.02</ele>
        <time>2021-02-21T09:57:20Z</time>
      </trkpt>
      <trkpt lat="45.03499" lon="3.37929">
        <ele>1174.39</ele>
        <time>2021-02-21T09:57:34Z</time>
      </trkpt>
      <trkpt lat="45.03494" lon="3.3792">
        <ele>1175.83</ele>
        <time>2021-02-21T09:57:42Z</time>
      </trkpt>
      <trkpt lat="45.03484" lon="3.379">
        <ele>1178.23</ele>
        <time>2021-02-21T09:57:56Z</time>
      </trkpt>
      <trkpt lat="45.03478" lon="3.37887">
        <ele>1181.12</ele>
        <time>2021-02-21T09:58:09Z</time>
      </trkpt>
      <trkpt lat="45.03477" lon="3.37885">
        <ele>1181.12</ele>
        <time>2021-02-21T09:58:24Z</time>
      </trkpt>
      <trkpt lat="45.03477" lon="3.37884">
        <ele>1181.6</ele>
        <time>2021-02-21T09:58:43Z</time>
      </trkpt>
      <trkpt lat="45.03476" lon="3.37879">
        <ele>1182.08</ele>
        <time>2021-02-21T09:59:00Z</time>
      </trkpt>
      <trkpt lat="45.03467" lon="3.3787">
        <ele>1182.56</ele>
        <time>2021-02-21T09:59:16Z</time>
      </trkpt>
      <trkpt lat="45.03463" lon="3.37866">
        <ele>1182.56</ele>
        <time>2021-02-21T09:59:20Z</time>
      </trkpt>
      <trkpt lat="45.03459" lon="3.37857">
        <ele>1182.08</ele>
        <time>2021-02-21T09:59:25Z</time>
      </trkpt>
      <trkpt lat="45.03445" lon="3.37844">
        <ele>1184</ele>
        <time>2021-02-21T09:59:39Z</time>
      </trkpt>
      <trkpt lat="45.03443" lon="3.37843">
        <ele>1184.48</ele>
        <time>2021-02-21T09:59:41Z</time>
      </trkpt>
      <trkpt lat="45.03438" lon="3.37838">
        <ele>1185.44</ele>
        <time>2021-02-21T09:59:56Z</time>
      </trkpt>
      <trkpt lat="45.03419" lon="3.37817">
        <ele>1188.33</ele>
        <time>2021-02-21T10:00:16Z</time>
      </trkpt>
      <trkpt lat="45.03411" lon="3.37807">
        <ele>1189.29</ele>
        <time>2021-02-21T10:00:24Z</time>
      </trkpt>
      <trkpt lat="45.03397" lon="3.37792">
        <ele>1190.73</ele>
        <time>2021-02-21T10:00:39Z</time>
      </trkpt>
      <trkpt lat="45.03391" lon="3.37787">
        <ele>1191.21</ele>
        <time>2021-02-21T10:00:44Z</time>
      </trkpt>
      <trkpt lat="45.03374" lon="3.37774">
        <ele>1191.21</ele>
        <time>2021-02-21T10:01:01Z</time>
      </trkpt>
      <trkpt lat="45.0337" lon="3.37764">
        <ele>1192.17</ele>
        <time>2021-02-21T10:01:15Z</time>
      </trkpt>
      <trkpt lat="45.03371" lon="3.37764">
        <ele>1191.21</ele>
        <time>2021-02-21T10:01:33Z</time>
      </trkpt>
      <trkpt lat="45.0337" lon="3.37756">
        <ele>1191.69</ele>
        <time>2021-02-21T10:01:43Z</time>
      </trkpt>
      <trkpt lat="45.0337" lon="3.37728">
        <ele>1192.65</ele>
        <time>2021-02-21T10:02:01Z</time>
      </trkpt>
      <trkpt lat="45.03371" lon="3.37701">
        <ele>1193.13</ele>
        <time>2021-02-21T10:02:17Z</time>
      </trkpt>
      <trkpt lat="45.03374" lon="3.37679">
        <ele>1192.65</ele>
        <time>2021-02-21T10:02:30Z</time>
      </trkpt>
      <trkpt lat="45.03383" lon="3.37657">
        <ele>1193.13</ele>
        <time>2021-02-21T10:02:46Z</time>
      </trkpt>
      <trkpt lat="45.03383" lon="3.37655">
        <ele>1193.13</ele>
        <time>2021-02-21T10:02:47Z</time>
      </trkpt>
      <trkpt lat="45.03391" lon="3.37649">
        <ele>1193.13</ele>
        <time>2021-02-21T10:02:54Z</time>
      </trkpt>
      <trkpt lat="45.03408" lon="3.37655">
        <ele>1191.69</ele>
        <time>2021-02-21T10:03:08Z</time>
      </trkpt>
      <trkpt lat="45.03418" lon="3.37669">
        <ele>1190.25</ele>
        <time>2021-02-21T10:03:21Z</time>
      </trkpt>
      <trkpt lat="45.03432" lon="3.37669">
        <ele>1190.73</ele>
        <time>2021-02-21T10:03:35Z</time>
      </trkpt>
      <trkpt lat="45.03436" lon="3.37661">
        <ele>1191.21</ele>
        <time>2021-02-21T10:03:50Z</time>
      </trkpt>
      <trkpt lat="45.03436" lon="3.3766">
        <ele>1190.73</ele>
        <time>2021-02-21T10:03:53Z</time>
      </trkpt>
      <trkpt lat="45.03438" lon="3.37647">
        <ele>1191.21</ele>
        <time>2021-02-21T10:04:05Z</time>
      </trkpt>
      <trkpt lat="45.03433" lon="3.37625">
        <ele>1191.69</ele>
        <time>2021-02-21T10:04:21Z</time>
      </trkpt>
      <trkpt lat="45.03429" lon="3.37611">
        <ele>1190.73</ele>
        <time>2021-02-21T10:04:34Z</time>
      </trkpt>
      <trkpt lat="45.03425" lon="3.37598">
        <ele>1190.73</ele>
        <time>2021-02-21T10:04:50Z</time>
      </trkpt>
      <trkpt lat="45.03424" lon="3.37597">
        <ele>1190.73</ele>
        <time>2021-02-21T10:04:52Z</time>
      </trkpt>
      <trkpt lat="45.0341" lon="3.37595">
        <ele>1191.21</ele>
        <time>2021-02-21T10:05:07Z</time>
      </trkpt>
      <trkpt lat="45.03406" lon="3.37588">
        <ele>1189.29</ele>
        <time>2021-02-21T10:05:21Z</time>
      </trkpt>
      <trkpt lat="45.03405" lon="3.37587">
        <ele>1189.29</ele>
        <time>2021-02-21T10:05:22Z</time>
      </trkpt>
      <trkpt lat="45.034" lon="3.37571">
        <ele>1190.73</ele>
        <time>2021-02-21T10:05:35Z</time>
      </trkpt>
      <trkpt lat="45.034" lon="3.37569">
        <ele>1190.73</ele>
        <time>2021-02-21T10:05:36Z</time>
      </trkpt>
      <trkpt lat="45.03397" lon="3.37546">
        <ele>1192.17</ele>
        <time>2021-02-21T10:05:50Z</time>
      </trkpt>
      <trkpt lat="45.03398" lon="3.37532">
        <ele>1193.13</ele>
        <time>2021-02-21T10:06:01Z</time>
      </trkpt>
      <trkpt lat="45.03397" lon="3.37501">
        <ele>1194.58</ele>
        <time>2021-02-21T10:06:19Z</time>
      </trkpt>
      <trkpt lat="45.03388" lon="3.37477">
        <ele>1196.02</ele>
        <time>2021-02-21T10:06:34Z</time>
      </trkpt>
      <trkpt lat="45.0338" lon="3.37454">
        <ele>1199.38</ele>
        <time>2021-02-21T10:06:49Z</time>
      </trkpt>
      <trkpt lat="45.03375" lon="3.37435">
        <ele>1201.3</ele>
        <time>2021-02-21T10:07:03Z</time>
      </trkpt>
      <trkpt lat="45.03373" lon="3.37409">
        <ele>1204.19</ele>
        <time>2021-02-21T10:07:20Z</time>
      </trkpt>
      <trkpt lat="45.03373" lon="3.37408">
        <ele>1204.19</ele>
        <time>2021-02-21T10:07:21Z</time>
      </trkpt>
      <trkpt lat="45.03372" lon="3.37406">
        <ele>1202.75</ele>
        <time>2021-02-21T10:07:35Z</time>
      </trkpt>
      <trkpt lat="45.03373" lon="3.37406">
        <ele>1200.82</ele>
        <time>2021-02-21T10:07:57Z</time>
      </trkpt>
      <trkpt lat="45.03374" lon="3.37404">
        <ele>1198.42</ele>
        <time>2021-02-21T10:08:22Z</time>
      </trkpt>
      <trkpt lat="45.03374" lon="3.374">
        <ele>1198.9</ele>
        <time>2021-02-21T10:08:25Z</time>
      </trkpt>
      <trkpt lat="45.03374" lon="3.37394">
        <ele>1197.94</ele>
        <time>2021-02-21T10:08:29Z</time>
      </trkpt>
      <trkpt lat="45.03369" lon="3.37374">
        <ele>1196.02</ele>
        <time>2021-02-21T10:08:42Z</time>
      </trkpt>
      <trkpt lat="45.03368" lon="3.3736">
        <ele>1195.54</ele>
        <time>2021-02-21T10:08:55Z</time>
      </trkpt>
      <trkpt lat="45.03364" lon="3.37341">
        <ele>1195.06</ele>
        <time>2021-02-21T10:09:07Z</time>
      </trkpt>
      <trkpt lat="45.03359" lon="3.3732">
        <ele>1194.58</ele>
        <time>2021-02-21T10:09:20Z</time>
      </trkpt>
      <trkpt lat="45.03353" lon="3.37291">
        <ele>1192.65</ele>
        <time>2021-02-21T10:09:36Z</time>
      </trkpt>
      <trkpt lat="45.03345" lon="3.37266">
        <ele>1192.17</ele>
        <time>2021-02-21T10:09:50Z</time>
      </trkpt>
      <trkpt lat="45.03345" lon="3.37264">
        <ele>1192.17</ele>
        <time>2021-02-21T10:09:52Z</time>
      </trkpt>
      <trkpt lat="45.03338" lon="3.37242">
        <ele>1191.69</ele>
        <time>2021-02-21T10:10:06Z</time>
      </trkpt>
      <trkpt lat="45.03332" lon="3.37218">
        <ele>1192.17</ele>
        <time>2021-02-21T10:10:22Z</time>
      </trkpt>
      <trkpt lat="45.03325" lon="3.37198">
        <ele>1193.61</ele>
        <time>2021-02-21T10:10:35Z</time>
      </trkpt>
      <trkpt lat="45.03319" lon="3.37178">
        <ele>1196.02</ele>
        <time>2021-02-21T10:10:49Z</time>
      </trkpt>
      <trkpt lat="45.03314" lon="3.37158">
        <ele>1196.5</ele>
        <time>2021-02-21T10:11:01Z</time>
      </trkpt>
      <trkpt lat="45.03311" lon="3.37141">
        <ele>1195.54</ele>
        <time>2021-02-21T10:11:12Z</time>
      </trkpt>
      <trkpt lat="45.0331" lon="3.37139">
        <ele>1195.54</ele>
        <time>2021-02-21T10:11:28Z</time>
      </trkpt>
      <trkpt lat="45.0331" lon="3.37137">
        <ele>1193.61</ele>
        <time>2021-02-21T10:11:43Z</time>
      </trkpt>
      <trkpt lat="45.03305" lon="3.37123">
        <ele>1194.09</ele>
        <time>2021-02-21T10:11:54Z</time>
      </trkpt>
      <trkpt lat="45.03295" lon="3.37097">
        <ele>1193.61</ele>
        <time>2021-02-21T10:12:09Z</time>
      </trkpt>
      <trkpt lat="45.03289" lon="3.37078">
        <ele>1192.65</ele>
        <time>2021-02-21T10:12:19Z</time>
      </trkpt>
      <trkpt lat="45.03282" lon="3.37052">
        <ele>1191.69</ele>
        <time>2021-02-21T10:12:33Z</time>
      </trkpt>
      <trkpt lat="45.03274" lon="3.3702">
        <ele>1191.69</ele>
        <time>2021-02-21T10:12:52Z</time>
      </trkpt>
      <trkpt lat="45.03264" lon="3.36988">
        <ele>1192.17</ele>
        <time>2021-02-21T10:13:07Z</time>
      </trkpt>
      <trkpt lat="45.03261" lon="3.36968">
        <ele>1193.13</ele>
        <time>2021-02-21T10:13:17Z</time>
      </trkpt>
      <trkpt lat="45.03254" lon="3.36942">
        <ele>1193.61</ele>
        <time>2021-02-21T10:13:31Z</time>
      </trkpt>
      <trkpt lat="45.03249" lon="3.36917">
        <ele>1195.06</ele>
        <time>2021-02-21T10:13:43Z</time>
      </trkpt>
      <trkpt lat="45.03247" lon="3.36886">
        <ele>1199.38</ele>
        <time>2021-02-21T10:14:01Z</time>
      </trkpt>
      <trkpt lat="45.03245" lon="3.36873">
        <ele>1198.42</ele>
        <time>2021-02-21T10:14:09Z</time>
      </trkpt>
      <trkpt lat="45.03245" lon="3.36846">
        <ele>1197.94</ele>
        <time>2021-02-21T10:14:25Z</time>
      </trkpt>
      <trkpt lat="45.03243" lon="3.36821">
        <ele>1196.5</ele>
        <time>2021-02-21T10:14:43Z</time>
      </trkpt>
      <trkpt lat="45.0324" lon="3.36793">
        <ele>1195.06</ele>
        <time>2021-02-21T10:15:00Z</time>
      </trkpt>
      <trkpt lat="45.03235" lon="3.36762">
        <ele>1191.69</ele>
        <time>2021-02-21T10:15:19Z</time>
      </trkpt>
      <trkpt lat="45.0323" lon="3.36732">
        <ele>1188.81</ele>
        <time>2021-02-21T10:15:35Z</time>
      </trkpt>
      <trkpt lat="45.03234" lon="3.36694">
        <ele>1192.65</ele>
        <time>2021-02-21T10:15:52Z</time>
      </trkpt>
      <trkpt lat="45.03236" lon="3.3667">
        <ele>1195.54</ele>
        <time>2021-02-21T10:16:07Z</time>
      </trkpt>
      <trkpt lat="45.03238" lon="3.36651">
        <ele>1196.98</ele>
        <time>2021-02-21T10:16:18Z</time>
      </trkpt>
      <trkpt lat="45.03238" lon="3.36634">
        <ele>1197.94</ele>
        <time>2021-02-21T10:16:28Z</time>
      </trkpt>
      <trkpt lat="45.03238" lon="3.36607">
        <ele>1192.17</ele>
        <time>2021-02-21T10:16:47Z</time>
      </trkpt>
      <trkpt lat="45.03237" lon="3.36584">
        <ele>1190.73</ele>
        <time>2021-02-21T10:17:02Z</time>
      </trkpt>
      <trkpt lat="45.0324" lon="3.36577">
        <ele>1196.5</ele>
        <time>2021-02-21T10:17:20Z</time>
      </trkpt>
      <trkpt lat="45.03241" lon="3.36577">
        <ele>1197.46</ele>
        <time>2021-02-21T10:17:35Z</time>
      </trkpt>
      <trkpt lat="45.03242" lon="3.36576">
        <ele>1197.46</ele>
        <time>2021-02-21T10:17:50Z</time>
      </trkpt>
      <trkpt lat="45.03243" lon="3.36574">
        <ele>1197.94</ele>
        <time>2021-02-21T10:18:09Z</time>
      </trkpt>
      <trkpt lat="45.03245" lon="3.36573">
        <ele>1199.38</ele>
        <time>2021-02-21T10:18:26Z</time>
      </trkpt>
      <trkpt lat="45.03246" lon="3.36573">
        <ele>1200.34</ele>
        <time>2021-02-21T10:18:49Z</time>
      </trkpt>
      <trkpt lat="45.03246" lon="3.36571">
        <ele>1201.3</ele>
        <time>2021-02-21T10:19:09Z</time>
      </trkpt>
      <trkpt lat="45.03245" lon="3.3657">
        <ele>1201.79</ele>
        <time>2021-02-21T10:19:23Z</time>
      </trkpt>
      <trkpt lat="45.03232" lon="3.36572">
        <ele>1201.3</ele>
        <time>2021-02-21T10:19:44Z</time>
      </trkpt>
      <trkpt lat="45.0323" lon="3.36574">
        <ele>1200.82</ele>
        <time>2021-02-21T10:19:46Z</time>
      </trkpt>
      <trkpt lat="45.032" lon="3.36583">
        <ele>1200.82</ele>
        <time>2021-02-21T10:20:06Z</time>
      </trkpt>
      <trkpt lat="45.03172" lon="3.36595">
        <ele>1202.27</ele>
        <time>2021-02-21T10:20:24Z</time>
      </trkpt>
      <trkpt lat="45.03157" lon="3.36591">
        <ele>1202.75</ele>
        <time>2021-02-21T10:20:43Z</time>
      </trkpt>
      <trkpt lat="45.03134" lon="3.36589">
        <ele>1200.82</ele>
        <time>2021-02-21T10:21:05Z</time>
      </trkpt>
      <trkpt lat="45.03109" lon="3.36599">
        <ele>1201.79</ele>
        <time>2021-02-21T10:21:26Z</time>
      </trkpt>
      <trkpt lat="45.03087" lon="3.36601">
        <ele>1207.07</ele>
        <time>2021-02-21T10:21:45Z</time>
      </trkpt>
      <trkpt lat="45.03075" lon="3.36606">
        <ele>1209.48</ele>
        <time>2021-02-21T10:22:02Z</time>
      </trkpt>
      <trkpt lat="45.03054" lon="3.36613">
        <ele>1217.17</ele>
        <time>2021-02-21T10:22:17Z</time>
      </trkpt>
      <trkpt lat="45.03037" lon="3.3662">
        <ele>1218.13</ele>
        <time>2021-02-21T10:22:32Z</time>
      </trkpt>
      <trkpt lat="45.03019" lon="3.36617">
        <ele>1221.49</ele>
        <time>2021-02-21T10:22:45Z</time>
      </trkpt>
      <trkpt lat="45.03006" lon="3.36617">
        <ele>1222.93</ele>
        <time>2021-02-21T10:22:58Z</time>
      </trkpt>
      <trkpt lat="45.02998" lon="3.36613">
        <ele>1223.9</ele>
        <time>2021-02-21T10:23:14Z</time>
      </trkpt>
      <trkpt lat="45.02996" lon="3.36615">
        <ele>1222.93</ele>
        <time>2021-02-21T10:23:37Z</time>
      </trkpt>
      <trkpt lat="45.02976" lon="3.36613">
        <ele>1223.42</ele>
        <time>2021-02-21T10:23:56Z</time>
      </trkpt>
      <trkpt lat="45.02959" lon="3.36607">
        <ele>1223.9</ele>
        <time>2021-02-21T10:24:11Z</time>
      </trkpt>
      <trkpt lat="45.02948" lon="3.36603">
        <ele>1224.38</ele>
        <time>2021-02-21T10:24:23Z</time>
      </trkpt>
      <trkpt lat="45.02931" lon="3.36599">
        <ele>1225.82</ele>
        <time>2021-02-21T10:24:40Z</time>
      </trkpt>
      <trkpt lat="45.02915" lon="3.36591">
        <ele>1227.74</ele>
        <time>2021-02-21T10:24:56Z</time>
      </trkpt>
      <trkpt lat="45.02903" lon="3.36589">
        <ele>1229.18</ele>
        <time>2021-02-21T10:25:12Z</time>
      </trkpt>
      <trkpt lat="45.02901" lon="3.36589">
        <ele>1228.7</ele>
        <time>2021-02-21T10:25:14Z</time>
      </trkpt>
      <trkpt lat="45.02883" lon="3.36587">
        <ele>1230.62</ele>
        <time>2021-02-21T10:25:30Z</time>
      </trkpt>
      <trkpt lat="45.02868" lon="3.36587">
        <ele>1229.18</ele>
        <time>2021-02-21T10:25:47Z</time>
      </trkpt>
      <trkpt lat="45.0285" lon="3.36588">
        <ele>1230.14</ele>
        <time>2021-02-21T10:26:09Z</time>
      </trkpt>
      <trkpt lat="45.02831" lon="3.36585">
        <ele>1228.22</ele>
        <time>2021-02-21T10:26:23Z</time>
      </trkpt>
      <trkpt lat="45.02827" lon="3.3658">
        <ele>1227.26</ele>
        <time>2021-02-21T10:26:45Z</time>
      </trkpt>
      <trkpt lat="45.02827" lon="3.36581">
        <ele>1228.7</ele>
        <time>2021-02-21T10:27:09Z</time>
      </trkpt>
      <trkpt lat="45.02823" lon="3.3658">
        <ele>1227.74</ele>
        <time>2021-02-21T10:27:29Z</time>
      </trkpt>
      <trkpt lat="45.02806" lon="3.36581">
        <ele>1224.86</ele>
        <time>2021-02-21T10:27:44Z</time>
      </trkpt>
      <trkpt lat="45.02782" lon="3.36578">
        <ele>1226.3</ele>
        <time>2021-02-21T10:28:03Z</time>
      </trkpt>
      <trkpt lat="45.02774" lon="3.36577">
        <ele>1227.74</ele>
        <time>2021-02-21T10:28:14Z</time>
      </trkpt>
      <trkpt lat="45.02749" lon="3.36571">
        <ele>1230.62</ele>
        <time>2021-02-21T10:28:29Z</time>
      </trkpt>
      <trkpt lat="45.02739" lon="3.36571">
        <ele>1230.14</ele>
        <time>2021-02-21T10:28:40Z</time>
      </trkpt>
      <trkpt lat="45.02725" lon="3.36569">
        <ele>1229.66</ele>
        <time>2021-02-21T10:28:54Z</time>
      </trkpt>
      <trkpt lat="45.02711" lon="3.36573">
        <ele>1230.62</ele>
        <time>2021-02-21T10:29:07Z</time>
      </trkpt>
      <trkpt lat="45.0271" lon="3.36573">
        <ele>1230.62</ele>
        <time>2021-02-21T10:29:08Z</time>
      </trkpt>
      <trkpt lat="45.02694" lon="3.36568">
        <ele>1233.03</ele>
        <time>2021-02-21T10:29:26Z</time>
      </trkpt>
      <trkpt lat="45.02691" lon="3.36566">
        <ele>1233.99</ele>
        <time>2021-02-21T10:29:29Z</time>
      </trkpt>
      <trkpt lat="45.02685" lon="3.36565">
        <ele>1233.99</ele>
        <time>2021-02-21T10:29:34Z</time>
      </trkpt>
      <trkpt lat="45.02667" lon="3.36565">
        <ele>1233.03</ele>
        <time>2021-02-21T10:29:50Z</time>
      </trkpt>
      <trkpt lat="45.02658" lon="3.36566">
        <ele>1233.03</ele>
        <time>2021-02-21T10:30:03Z</time>
      </trkpt>
      <trkpt lat="45.02651" lon="3.36575">
        <ele>1232.07</ele>
        <time>2021-02-21T10:30:18Z</time>
      </trkpt>
      <trkpt lat="45.02646" lon="3.36577">
        <ele>1231.59</ele>
        <time>2021-02-21T10:30:24Z</time>
      </trkpt>
      <trkpt lat="45.02631" lon="3.36584">
        <ele>1232.55</ele>
        <time>2021-02-21T10:30:40Z</time>
      </trkpt>
      <trkpt lat="45.02612" lon="3.36585">
        <ele>1236.87</ele>
        <time>2021-02-21T10:30:57Z</time>
      </trkpt>
      <trkpt lat="45.02596" lon="3.36583">
        <ele>1238.32</ele>
        <time>2021-02-21T10:31:12Z</time>
      </trkpt>
      <trkpt lat="45.02594" lon="3.36581">
        <ele>1239.28</ele>
        <time>2021-02-21T10:31:14Z</time>
      </trkpt>
      <trkpt lat="45.0258" lon="3.36576">
        <ele>1241.2</ele>
        <time>2021-02-21T10:31:29Z</time>
      </trkpt>
      <trkpt lat="45.02574" lon="3.36575">
        <ele>1241.2</ele>
        <time>2021-02-21T10:31:35Z</time>
      </trkpt>
      <trkpt lat="45.02566" lon="3.36574">
        <ele>1241.2</ele>
        <time>2021-02-21T10:31:44Z</time>
      </trkpt>
      <trkpt lat="45.02545" lon="3.3657">
        <ele>1242.16</ele>
        <time>2021-02-21T10:32:00Z</time>
      </trkpt>
      <trkpt lat="45.02528" lon="3.36574">
        <ele>1241.2</ele>
        <time>2021-02-21T10:32:19Z</time>
      </trkpt>
      <trkpt lat="45.02508" lon="3.36577">
        <ele>1241.2</ele>
        <time>2021-02-21T10:32:34Z</time>
      </trkpt>
      <trkpt lat="45.02496" lon="3.36581">
        <ele>1243.6</ele>
        <time>2021-02-21T10:32:47Z</time>
      </trkpt>
      <trkpt lat="45.02481" lon="3.36582">
        <ele>1244.08</ele>
        <time>2021-02-21T10:33:02Z</time>
      </trkpt>
      <trkpt lat="45.02461" lon="3.36591">
        <ele>1247.45</ele>
        <time>2021-02-21T10:33:17Z</time>
      </trkpt>
      <trkpt lat="45.02442" lon="3.366">
        <ele>1254.18</ele>
        <time>2021-02-21T10:33:32Z</time>
      </trkpt>
      <trkpt lat="45.02423" lon="3.36607">
        <ele>1258.02</ele>
        <time>2021-02-21T10:33:48Z</time>
      </trkpt>
      <trkpt lat="45.02404" lon="3.36612">
        <ele>1261.39</ele>
        <time>2021-02-21T10:34:04Z</time>
      </trkpt>
      <trkpt lat="45.02387" lon="3.36613">
        <ele>1266.19</ele>
        <time>2021-02-21T10:34:19Z</time>
      </trkpt>
      <trkpt lat="45.0237" lon="3.3662">
        <ele>1268.6</ele>
        <time>2021-02-21T10:34:35Z</time>
      </trkpt>
      <trkpt lat="45.02351" lon="3.36624">
        <ele>1270.52</ele>
        <time>2021-02-21T10:34:50Z</time>
      </trkpt>
      <trkpt lat="45.02337" lon="3.36622">
        <ele>1272.44</ele>
        <time>2021-02-21T10:35:02Z</time>
      </trkpt>
      <trkpt lat="45.02321" lon="3.36618">
        <ele>1272.92</ele>
        <time>2021-02-21T10:35:16Z</time>
      </trkpt>
      <trkpt lat="45.02308" lon="3.36615">
        <ele>1272.44</ele>
        <time>2021-02-21T10:35:28Z</time>
      </trkpt>
      <trkpt lat="45.02303" lon="3.36614">
        <ele>1272.92</ele>
        <time>2021-02-21T10:35:32Z</time>
      </trkpt>
      <trkpt lat="45.02287" lon="3.3661">
        <ele>1273.88</ele>
        <time>2021-02-21T10:35:46Z</time>
      </trkpt>
      <trkpt lat="45.02268" lon="3.36602">
        <ele>1274.85</ele>
        <time>2021-02-21T10:36:03Z</time>
      </trkpt>
      <trkpt lat="45.02253" lon="3.3659">
        <ele>1277.73</ele>
        <time>2021-02-21T10:36:18Z</time>
      </trkpt>
      <trkpt lat="45.02239" lon="3.36574">
        <ele>1279.17</ele>
        <time>2021-02-21T10:36:35Z</time>
      </trkpt>
      <trkpt lat="45.02227" lon="3.3656">
        <ele>1282.06</ele>
        <time>2021-02-21T10:36:50Z</time>
      </trkpt>
      <trkpt lat="45.02217" lon="3.36545">
        <ele>1284.46</ele>
        <time>2021-02-21T10:37:02Z</time>
      </trkpt>
      <trkpt lat="45.02205" lon="3.36531">
        <ele>1286.86</ele>
        <time>2021-02-21T10:37:17Z</time>
      </trkpt>
      <trkpt lat="45.02203" lon="3.3653">
        <ele>1288.78</ele>
        <time>2021-02-21T10:37:25Z</time>
      </trkpt>
      <trkpt lat="45.02197" lon="3.36516">
        <ele>1290.23</ele>
        <time>2021-02-21T10:37:36Z</time>
      </trkpt>
      <trkpt lat="45.02194" lon="3.36496">
        <ele>1291.19</ele>
        <time>2021-02-21T10:37:50Z</time>
      </trkpt>
      <trkpt lat="45.02186" lon="3.3648">
        <ele>1292.15</ele>
        <time>2021-02-21T10:38:02Z</time>
      </trkpt>
      <trkpt lat="45.02179" lon="3.36464">
        <ele>1295.99</ele>
        <time>2021-02-21T10:38:19Z</time>
      </trkpt>
      <trkpt lat="45.02177" lon="3.36459">
        <ele>1297.44</ele>
        <time>2021-02-21T10:38:35Z</time>
      </trkpt>
      <trkpt lat="45.02176" lon="3.36457">
        <ele>1297.92</ele>
        <time>2021-02-21T10:39:00Z</time>
      </trkpt>
      <trkpt lat="45.02175" lon="3.36456">
        <ele>1299.84</ele>
        <time>2021-02-21T10:39:26Z</time>
      </trkpt>
      <trkpt lat="45.02175" lon="3.36455">
        <ele>1301.28</ele>
        <time>2021-02-21T10:39:47Z</time>
      </trkpt>
      <trkpt lat="45.02175" lon="3.36455">
        <ele>1302.72</ele>
        <time>2021-02-21T10:40:05Z</time>
      </trkpt>
      <trkpt lat="45.02175" lon="3.36454">
        <ele>1303.2</ele>
        <time>2021-02-21T10:40:21Z</time>
      </trkpt>
      <trkpt lat="45.02175" lon="3.36453">
        <ele>1303.2</ele>
        <time>2021-02-21T10:40:42Z</time>
      </trkpt>
      <trkpt lat="45.02175" lon="3.36453">
        <ele>1303.69</ele>
        <time>2021-02-21T10:41:04Z</time>
      </trkpt>
      <trkpt lat="45.02175" lon="3.36453">
        <ele>1304.17</ele>
        <time>2021-02-21T10:41:26Z</time>
      </trkpt>
      <trkpt lat="45.02175" lon="3.36453">
        <ele>1304.17</ele>
        <time>2021-02-21T10:41:55Z</time>
      </trkpt>
      <trkpt lat="45.02175" lon="3.36451">
        <ele>1304.17</ele>
        <time>2021-02-21T10:42:17Z</time>
      </trkpt>
      <trkpt lat="45.02183" lon="3.3643">
        <ele>1301.28</ele>
        <time>2021-02-21T10:42:38Z</time>
      </trkpt>
      <trkpt lat="45.02185" lon="3.36408">
        <ele>1297.92</ele>
        <time>2021-02-21T10:42:53Z</time>
      </trkpt>
      <trkpt lat="45.02187" lon="3.364">
        <ele>1296.96</ele>
        <time>2021-02-21T10:42:58Z</time>
      </trkpt>
      <trkpt lat="45.02189" lon="3.36377">
        <ele>1295.99</ele>
        <time>2021-02-21T10:43:11Z</time>
      </trkpt>
      <trkpt lat="45.0219" lon="3.36352">
        <ele>1293.59</ele>
        <time>2021-02-21T10:43:24Z</time>
      </trkpt>
      <trkpt lat="45.02195" lon="3.36327">
        <ele>1293.59</ele>
        <time>2021-02-21T10:43:38Z</time>
      </trkpt>
      <trkpt lat="45.02195" lon="3.36318">
        <ele>1293.11</ele>
        <time>2021-02-21T10:43:44Z</time>
      </trkpt>
      <trkpt lat="45.02189" lon="3.36294">
        <ele>1292.63</ele>
        <time>2021-02-21T10:43:59Z</time>
      </trkpt>
      <trkpt lat="45.02177" lon="3.36278">
        <ele>1291.67</ele>
        <time>2021-02-21T10:44:13Z</time>
      </trkpt>
      <trkpt lat="45.02164" lon="3.36267">
        <ele>1291.19</ele>
        <time>2021-02-21T10:44:26Z</time>
      </trkpt>
      <trkpt lat="45.0215" lon="3.36251">
        <ele>1291.19</ele>
        <time>2021-02-21T10:44:40Z</time>
      </trkpt>
      <trkpt lat="45.0214" lon="3.36238">
        <ele>1292.63</ele>
        <time>2021-02-21T10:44:51Z</time>
      </trkpt>
      <trkpt lat="45.02127" lon="3.36227">
        <ele>1295.03</ele>
        <time>2021-02-21T10:45:05Z</time>
      </trkpt>
      <trkpt lat="45.0211" lon="3.3621">
        <ele>1295.03</ele>
        <time>2021-02-21T10:45:23Z</time>
      </trkpt>
      <trkpt lat="45.02093" lon="3.36194">
        <ele>1297.44</ele>
        <time>2021-02-21T10:45:41Z</time>
      </trkpt>
      <trkpt lat="45.02086" lon="3.36186">
        <ele>1299.84</ele>
        <time>2021-02-21T10:45:49Z</time>
      </trkpt>
      <trkpt lat="45.02081" lon="3.36179">
        <ele>1300.32</ele>
        <time>2021-02-21T10:45:54Z</time>
      </trkpt>
      <trkpt lat="45.02062" lon="3.3616">
        <ele>1301.28</ele>
        <time>2021-02-21T10:46:14Z</time>
      </trkpt>
      <trkpt lat="45.02049" lon="3.36151">
        <ele>1302.72</ele>
        <time>2021-02-21T10:46:26Z</time>
      </trkpt>
      <trkpt lat="45.02044" lon="3.36142">
        <ele>1305.13</ele>
        <time>2021-02-21T10:46:39Z</time>
      </trkpt>
      <trkpt lat="45.02043" lon="3.36141">
        <ele>1307.05</ele>
        <time>2021-02-21T10:46:54Z</time>
      </trkpt>
      <trkpt lat="45.02041" lon="3.36139">
        <ele>1309.45</ele>
        <time>2021-02-21T10:47:10Z</time>
      </trkpt>
      <trkpt lat="45.02035" lon="3.36133">
        <ele>1312.34</ele>
        <time>2021-02-21T10:47:26Z</time>
      </trkpt>
      <trkpt lat="45.02034" lon="3.36132">
        <ele>1313.3</ele>
        <time>2021-02-21T10:47:39Z</time>
      </trkpt>
      <trkpt lat="45.02033" lon="3.3613">
        <ele>1314.74</ele>
        <time>2021-02-21T10:48:03Z</time>
      </trkpt>
      <trkpt lat="45.02033" lon="3.3613">
        <ele>1317.62</ele>
        <time>2021-02-21T10:48:27Z</time>
      </trkpt>
      <trkpt lat="45.02028" lon="3.36118">
        <ele>1319.07</ele>
        <time>2021-02-21T10:48:50Z</time>
      </trkpt>
      <trkpt lat="45.02022" lon="3.36107">
        <ele>1320.51</ele>
        <time>2021-02-21T10:48:59Z</time>
      </trkpt>
      <trkpt lat="45.02007" lon="3.36087">
        <ele>1321.95</ele>
        <time>2021-02-21T10:49:18Z</time>
      </trkpt>
      <trkpt lat="45.01992" lon="3.36065">
        <ele>1322.43</ele>
        <time>2021-02-21T10:49:35Z</time>
      </trkpt>
      <trkpt lat="45.01977" lon="3.36046">
        <ele>1324.83</ele>
        <time>2021-02-21T10:49:51Z</time>
      </trkpt>
      <trkpt lat="45.01965" lon="3.36029">
        <ele>1324.83</ele>
        <time>2021-02-21T10:50:07Z</time>
      </trkpt>
      <trkpt lat="45.01952" lon="3.36004">
        <ele>1324.83</ele>
        <time>2021-02-21T10:50:24Z</time>
      </trkpt>
      <trkpt lat="45.0194" lon="3.35978">
        <ele>1327.24</ele>
        <time>2021-02-21T10:50:39Z</time>
      </trkpt>
      <trkpt lat="45.01931" lon="3.35961">
        <ele>1328.2</ele>
        <time>2021-02-21T10:50:51Z</time>
      </trkpt>
      <trkpt lat="45.01921" lon="3.3595">
        <ele>1328.2</ele>
        <time>2021-02-21T10:51:00Z</time>
      </trkpt>
      <trkpt lat="45.01903" lon="3.35943">
        <ele>1331.56</ele>
        <time>2021-02-21T10:51:16Z</time>
      </trkpt>
      <trkpt lat="45.01901" lon="3.35939">
        <ele>1332.52</ele>
        <time>2021-02-21T10:51:19Z</time>
      </trkpt>
      <trkpt lat="45.01895" lon="3.35925">
        <ele>1333.49</ele>
        <time>2021-02-21T10:51:30Z</time>
      </trkpt>
      <trkpt lat="45.0189" lon="3.35889">
        <ele>1333.01</ele>
        <time>2021-02-21T10:51:50Z</time>
      </trkpt>
      <trkpt lat="45.01888" lon="3.3586">
        <ele>1331.56</ele>
        <time>2021-02-21T10:52:07Z</time>
      </trkpt>
      <trkpt lat="45.01879" lon="3.35828">
        <ele>1329.16</ele>
        <time>2021-02-21T10:52:28Z</time>
      </trkpt>
      <trkpt lat="45.01876" lon="3.35797">
        <ele>1328.2</ele>
        <time>2021-02-21T10:52:44Z</time>
      </trkpt>
      <trkpt lat="45.0187" lon="3.35759">
        <ele>1331.56</ele>
        <time>2021-02-21T10:53:02Z</time>
      </trkpt>
      <trkpt lat="45.01866" lon="3.35735">
        <ele>1328.68</ele>
        <time>2021-02-21T10:53:17Z</time>
      </trkpt>
      <trkpt lat="45.01869" lon="3.35727">
        <ele>1328.2</ele>
        <time>2021-02-21T10:53:29Z</time>
      </trkpt>
      <trkpt lat="45.0187" lon="3.35727">
        <ele>1328.68</ele>
        <time>2021-02-21T10:53:51Z</time>
      </trkpt>
      <trkpt lat="45.01869" lon="3.35726">
        <ele>1331.56</ele>
        <time>2021-02-21T10:54:21Z</time>
      </trkpt>
      <trkpt lat="45.01862" lon="3.35726">
        <ele>1333.01</ele>
        <time>2021-02-21T10:54:40Z</time>
      </trkpt>
      <trkpt lat="45.01856" lon="3.35725">
        <ele>1332.52</ele>
        <time>2021-02-21T10:54:48Z</time>
      </trkpt>
      <trkpt lat="45.0184" lon="3.35712">
        <ele>1332.52</ele>
        <time>2021-02-21T10:55:06Z</time>
      </trkpt>
      <trkpt lat="45.01837" lon="3.35711">
        <ele>1332.52</ele>
        <time>2021-02-21T10:55:25Z</time>
      </trkpt>
      <trkpt lat="45.01837" lon="3.35711">
        <ele>1333.01</ele>
        <time>2021-02-21T10:55:49Z</time>
      </trkpt>
      <trkpt lat="45.01834" lon="3.35705">
        <ele>1332.52</ele>
        <time>2021-02-21T10:56:08Z</time>
      </trkpt>
      <trkpt lat="45.01816" lon="3.35679">
        <ele>1333.97</ele>
        <time>2021-02-21T10:56:25Z</time>
      </trkpt>
      <trkpt lat="45.01806" lon="3.35661">
        <ele>1335.89</ele>
        <time>2021-02-21T10:56:39Z</time>
      </trkpt>
      <trkpt lat="45.01803" lon="3.35654">
        <ele>1337.33</ele>
        <time>2021-02-21T10:56:59Z</time>
      </trkpt>
      <trkpt lat="45.01794" lon="3.35637">
        <ele>1339.25</ele>
        <time>2021-02-21T10:57:16Z</time>
      </trkpt>
      <trkpt lat="45.01772" lon="3.35606">
        <ele>1339.73</ele>
        <time>2021-02-21T10:57:39Z</time>
      </trkpt>
      <trkpt lat="45.01753" lon="3.35578">
        <ele>1341.18</ele>
        <time>2021-02-21T10:58:02Z</time>
      </trkpt>
      <trkpt lat="45.01734" lon="3.35552">
        <ele>1337.81</ele>
        <time>2021-02-21T10:58:24Z</time>
      </trkpt>
      <trkpt lat="45.01713" lon="3.35528">
        <ele>1333.49</ele>
        <time>2021-02-21T10:58:46Z</time>
      </trkpt>
      <trkpt lat="45.0171" lon="3.3552">
        <ele>1332.04</ele>
        <time>2021-02-21T10:59:03Z</time>
      </trkpt>
      <trkpt lat="45.0171" lon="3.35519">
        <ele>1333.01</ele>
        <time>2021-02-21T10:59:20Z</time>
      </trkpt>
      <trkpt lat="45.01695" lon="3.35514">
        <ele>1332.04</ele>
        <time>2021-02-21T10:59:37Z</time>
      </trkpt>
      <trkpt lat="45.0168" lon="3.35505">
        <ele>1330.6</ele>
        <time>2021-02-21T10:59:53Z</time>
      </trkpt>
      <trkpt lat="45.01661" lon="3.35494">
        <ele>1330.12</ele>
        <time>2021-02-21T11:00:09Z</time>
      </trkpt>
      <trkpt lat="45.01642" lon="3.35487">
        <ele>1322.91</ele>
        <time>2021-02-21T11:00:27Z</time>
      </trkpt>
      <trkpt lat="45.01624" lon="3.35477">
        <ele>1320.51</ele>
        <time>2021-02-21T11:00:45Z</time>
      </trkpt>
      <trkpt lat="45.01611" lon="3.3548">
        <ele>1319.07</ele>
        <time>2021-02-21T11:01:03Z</time>
      </trkpt>
      <trkpt lat="45.01602" lon="3.35475">
        <ele>1320.51</ele>
        <time>2021-02-21T11:01:18Z</time>
      </trkpt>
      <trkpt lat="45.01599" lon="3.35472">
        <ele>1322.43</ele>
        <time>2021-02-21T11:01:38Z</time>
      </trkpt>
      <trkpt lat="45.01596" lon="3.35471">
        <ele>1322.91</ele>
        <time>2021-02-21T11:01:54Z</time>
      </trkpt>
      <trkpt lat="45.01594" lon="3.35468">
        <ele>1323.87</ele>
        <time>2021-02-21T11:02:16Z</time>
      </trkpt>
      <trkpt lat="45.01592" lon="3.35467">
        <ele>1324.83</ele>
        <time>2021-02-21T11:02:37Z</time>
      </trkpt>
      <trkpt lat="45.01591" lon="3.35466">
        <ele>1324.83</ele>
        <time>2021-02-21T11:02:56Z</time>
      </trkpt>
      <trkpt lat="45.01589" lon="3.35465">
        <ele>1325.31</ele>
        <time>2021-02-21T11:03:15Z</time>
      </trkpt>
      <trkpt lat="45.01589" lon="3.35466">
        <ele>1325.8</ele>
        <time>2021-02-21T11:03:40Z</time>
      </trkpt>
      <trkpt lat="45.01587" lon="3.35467">
        <ele>1326.28</ele>
        <time>2021-02-21T11:04:06Z</time>
      </trkpt>
      <trkpt lat="45.01586" lon="3.35467">
        <ele>1326.28</ele>
        <time>2021-02-21T11:04:37Z</time>
      </trkpt>
      <trkpt lat="45.01586" lon="3.35468">
        <ele>1326.28</ele>
        <time>2021-02-21T11:05:06Z</time>
      </trkpt>
      <trkpt lat="45.01587" lon="3.35468">
        <ele>1326.76</ele>
        <time>2021-02-21T11:05:33Z</time>
      </trkpt>
      <trkpt lat="45.01586" lon="3.35467">
        <ele>1327.24</ele>
        <time>2021-02-21T11:05:46Z</time>
      </trkpt>
      <trkpt lat="45.01575" lon="3.35459">
        <ele>1323.87</ele>
        <time>2021-02-21T11:06:13Z</time>
      </trkpt>
      <trkpt lat="45.01579" lon="3.35464">
        <ele>1322.43</ele>
        <time>2021-02-21T11:06:35Z</time>
      </trkpt>
      <trkpt lat="45.01584" lon="3.35468">
        <ele>1321.47</ele>
        <time>2021-02-21T11:06:56Z</time>
      </trkpt>
      <trkpt lat="45.01587" lon="3.35472">
        <ele>1326.28</ele>
        <time>2021-02-21T11:07:20Z</time>
      </trkpt>
      <trkpt lat="45.01586" lon="3.35475">
        <ele>1329.64</ele>
        <time>2021-02-21T11:07:45Z</time>
      </trkpt>
      <trkpt lat="45.01587" lon="3.35469">
        <ele>1331.08</ele>
        <time>2021-02-21T11:08:15Z</time>
      </trkpt>
      <trkpt lat="45.01601" lon="3.35464">
        <ele>1334.45</ele>
        <time>2021-02-21T11:08:40Z</time>
      </trkpt>
      <trkpt lat="45.01599" lon="3.35463">
        <ele>1333.97</ele>
        <time>2021-02-21T11:09:05Z</time>
      </trkpt>
      <trkpt lat="45.01594" lon="3.35461">
        <ele>1332.52</ele>
        <time>2021-02-21T11:09:24Z</time>
      </trkpt>
      <trkpt lat="45.01595" lon="3.35462">
        <ele>1333.97</ele>
        <time>2021-02-21T11:09:50Z</time>
      </trkpt>
      <trkpt lat="45.01596" lon="3.35462">
        <ele>1335.41</ele>
        <time>2021-02-21T11:10:16Z</time>
      </trkpt>
      <trkpt lat="45.01597" lon="3.35449">
        <ele>1332.52</ele>
        <time>2021-02-21T11:10:33Z</time>
      </trkpt>
      <trkpt lat="45.01603" lon="3.35448">
        <ele>1330.6</ele>
        <time>2021-02-21T11:10:49Z</time>
      </trkpt>
      <trkpt lat="45.01596" lon="3.35455">
        <ele>1328.68</ele>
        <time>2021-02-21T11:11:01Z</time>
      </trkpt>
      <trkpt lat="45.01588" lon="3.3546">
        <ele>1327.24</ele>
        <time>2021-02-21T11:11:18Z</time>
      </trkpt>
      <trkpt lat="45.01586" lon="3.35462">
        <ele>1326.76</ele>
        <time>2021-02-21T11:11:38Z</time>
      </trkpt>
      <trkpt lat="45.01587" lon="3.35465">
        <ele>1325.8</ele>
        <time>2021-02-21T11:11:56Z</time>
      </trkpt>
      <trkpt lat="45.01589" lon="3.35467">
        <ele>1325.8</ele>
        <time>2021-02-21T11:12:18Z</time>
      </trkpt>
      <trkpt lat="45.0159" lon="3.35467">
        <ele>1325.8</ele>
        <time>2021-02-21T11:12:44Z</time>
      </trkpt>
      <trkpt lat="45.0159" lon="3.35467">
        <ele>1327.24</ele>
        <time>2021-02-21T11:13:09Z</time>
      </trkpt>
      <trkpt lat="45.01589" lon="3.35467">
        <ele>1327.24</ele>
        <time>2021-02-21T11:13:35Z</time>
      </trkpt>
      <trkpt lat="45.0159" lon="3.35465">
        <ele>1327.24</ele>
        <time>2021-02-21T11:14:09Z</time>
      </trkpt>
      <trkpt lat="45.01591" lon="3.35465">
        <ele>1327.72</ele>
        <time>2021-02-21T11:14:36Z</time>
      </trkpt>
      <trkpt lat="45.0159" lon="3.35464">
        <ele>1328.2</ele>
        <time>2021-02-21T11:15:01Z</time>
      </trkpt>
      <trkpt lat="45.01591" lon="3.35464">
        <ele>1327.72</ele>
        <time>2021-02-21T11:15:26Z</time>
      </trkpt>
      <trkpt lat="45.01591" lon="3.35464">
        <ele>1327.72</ele>
        <time>2021-02-21T11:15:54Z</time>
      </trkpt>
      <trkpt lat="45.01592" lon="3.35464">
        <ele>1328.2</ele>
        <time>2021-02-21T11:16:17Z</time>
      </trkpt>
      <trkpt lat="45.01593" lon="3.35464">
        <ele>1328.2</ele>
        <time>2021-02-21T11:16:40Z</time>
      </trkpt>
      <trkpt lat="45.01593" lon="3.35466">
        <ele>1328.2</ele>
        <time>2021-02-21T11:17:03Z</time>
      </trkpt>
      <trkpt lat="45.01595" lon="3.35466">
        <ele>1328.2</ele>
        <time>2021-02-21T11:17:32Z</time>
      </trkpt>
      <trkpt lat="45.01597" lon="3.35465">
        <ele>1329.16</ele>
        <time>2021-02-21T11:17:53Z</time>
      </trkpt>
      <trkpt lat="45.01592" lon="3.35469">
        <ele>1329.16</ele>
        <time>2021-02-21T11:18:15Z</time>
      </trkpt>
      <trkpt lat="45.01597" lon="3.35469">
        <ele>1326.76</ele>
        <time>2021-02-21T11:18:37Z</time>
      </trkpt>
      <trkpt lat="45.01598" lon="3.35469">
        <ele>1326.28</ele>
        <time>2021-02-21T11:19:02Z</time>
      </trkpt>
      <trkpt lat="45.01597" lon="3.35466">
        <ele>1326.28</ele>
        <time>2021-02-21T11:19:25Z</time>
      </trkpt>
      <trkpt lat="45.01592" lon="3.35467">
        <ele>1324.35</ele>
        <time>2021-02-21T11:19:48Z</time>
      </trkpt>
      <trkpt lat="45.01594" lon="3.35468">
        <ele>1324.83</ele>
        <time>2021-02-21T11:20:15Z</time>
      </trkpt>
      <trkpt lat="45.01595" lon="3.35466">
        <ele>1324.35</ele>
        <time>2021-02-21T11:20:38Z</time>
      </trkpt>
      <trkpt lat="45.01594" lon="3.35466">
        <ele>1324.83</ele>
        <time>2021-02-21T11:21:03Z</time>
      </trkpt>
      <trkpt lat="45.01595" lon="3.35466">
        <ele>1326.28</ele>
        <time>2021-02-21T11:21:24Z</time>
      </trkpt>
      <trkpt lat="45.01596" lon="3.35466">
        <ele>1325.8</ele>
        <time>2021-02-21T11:21:47Z</time>
      </trkpt>
      <trkpt lat="45.01596" lon="3.35466">
        <ele>1326.28</ele>
        <time>2021-02-21T11:22:12Z</time>
      </trkpt>
      <trkpt lat="45.01595" lon="3.35466">
        <ele>1326.76</ele>
        <time>2021-02-21T11:22:36Z</time>
      </trkpt>
      <trkpt lat="45.01594" lon="3.35465">
        <ele>1326.28</ele>
        <time>2021-02-21T11:22:58Z</time>
      </trkpt>
      <trkpt lat="45.01593" lon="3.35465">
        <ele>1326.28</ele>
        <time>2021-02-21T11:23:17Z</time>
      </trkpt>
      <trkpt lat="45.0159" lon="3.35465">
        <ele>1326.28</ele>
        <time>2021-02-21T11:23:38Z</time>
      </trkpt>
      <trkpt lat="45.01589" lon="3.35465">
        <ele>1326.28</ele>
        <time>2021-02-21T11:23:58Z</time>
      </trkpt>
      <trkpt lat="45.01587" lon="3.35467">
        <ele>1325.31</ele>
        <time>2021-02-21T11:24:23Z</time>
      </trkpt>
      <trkpt lat="45.0159" lon="3.35468">
        <ele>1324.83</ele>
        <time>2021-02-21T11:24:38Z</time>
      </trkpt>
      <trkpt lat="45.01589" lon="3.35467">
        <ele>1324.35</ele>
        <time>2021-02-21T11:25:03Z</time>
      </trkpt>
      <trkpt lat="45.01587" lon="3.35467">
        <ele>1323.87</ele>
        <time>2021-02-21T11:25:21Z</time>
      </trkpt>
      <trkpt lat="45.01588" lon="3.35464">
        <ele>1323.87</ele>
        <time>2021-02-21T11:25:42Z</time>
      </trkpt>
      <trkpt lat="45.01587" lon="3.35464">
        <ele>1323.87</ele>
        <time>2021-02-21T11:26:06Z</time>
      </trkpt>
      <trkpt lat="45.01586" lon="3.35463">
        <ele>1324.83</ele>
        <time>2021-02-21T11:26:28Z</time>
      </trkpt>
      <trkpt lat="45.01586" lon="3.35463">
        <ele>1325.31</ele>
        <time>2021-02-21T11:26:49Z</time>
      </trkpt>
      <trkpt lat="45.01586" lon="3.35463">
        <ele>1326.76</ele>
        <time>2021-02-21T11:27:15Z</time>
      </trkpt>
      <trkpt lat="45.01586" lon="3.35463">
        <ele>1327.24</ele>
        <time>2021-02-21T11:27:43Z</time>
      </trkpt>
      <trkpt lat="45.01585" lon="3.35463">
        <ele>1327.72</ele>
        <time>2021-02-21T11:28:10Z</time>
      </trkpt>
      <trkpt lat="45.01585" lon="3.35463">
        <ele>1327.72</ele>
        <time>2021-02-21T11:28:37Z</time>
      </trkpt>
      <trkpt lat="45.01585" lon="3.35463">
        <ele>1327.72</ele>
        <time>2021-02-21T11:28:59Z</time>
      </trkpt>
      <trkpt lat="45.01584" lon="3.35463">
        <ele>1327.72</ele>
        <time>2021-02-21T11:29:23Z</time>
      </trkpt>
      <trkpt lat="45.01585" lon="3.35464">
        <ele>1327.24</ele>
        <time>2021-02-21T11:29:48Z</time>
      </trkpt>
      <trkpt lat="45.01576" lon="3.35451">
        <ele>1326.28</ele>
        <time>2021-02-21T11:30:07Z</time>
      </trkpt>
      <trkpt lat="45.0156" lon="3.35438">
        <ele>1326.28</ele>
        <time>2021-02-21T11:30:22Z</time>
      </trkpt>
      <trkpt lat="45.01539" lon="3.35426">
        <ele>1327.72</ele>
        <time>2021-02-21T11:30:41Z</time>
      </trkpt>
      <trkpt lat="45.01529" lon="3.3542">
        <ele>1325.31</ele>
        <time>2021-02-21T11:30:58Z</time>
      </trkpt>
      <trkpt lat="45.01506" lon="3.35413">
        <ele>1319.55</ele>
        <time>2021-02-21T11:31:19Z</time>
      </trkpt>
      <trkpt lat="45.01489" lon="3.35416">
        <ele>1315.22</ele>
        <time>2021-02-21T11:31:38Z</time>
      </trkpt>
      <trkpt lat="45.01473" lon="3.35411">
        <ele>1312.82</ele>
        <time>2021-02-21T11:31:56Z</time>
      </trkpt>
      <trkpt lat="45.01455" lon="3.35401">
        <ele>1311.86</ele>
        <time>2021-02-21T11:32:17Z</time>
      </trkpt>
      <trkpt lat="45.01439" lon="3.35393">
        <ele>1309.93</ele>
        <time>2021-02-21T11:32:31Z</time>
      </trkpt>
      <trkpt lat="45.01422" lon="3.35384">
        <ele>1307.05</ele>
        <time>2021-02-21T11:32:52Z</time>
      </trkpt>
      <trkpt lat="45.01401" lon="3.3537">
        <ele>1303.69</ele>
        <time>2021-02-21T11:33:12Z</time>
      </trkpt>
      <trkpt lat="45.0139" lon="3.35359">
        <ele>1302.24</ele>
        <time>2021-02-21T11:33:35Z</time>
      </trkpt>
      <trkpt lat="45.01372" lon="3.35348">
        <ele>1300.32</ele>
        <time>2021-02-21T11:33:53Z</time>
      </trkpt>
      <trkpt lat="45.01357" lon="3.3534">
        <ele>1293.59</ele>
        <time>2021-02-21T11:34:08Z</time>
      </trkpt>
      <trkpt lat="45.01334" lon="3.35329">
        <ele>1290.23</ele>
        <time>2021-02-21T11:34:25Z</time>
      </trkpt>
      <trkpt lat="45.01319" lon="3.35324">
        <ele>1286.38</ele>
        <time>2021-02-21T11:34:40Z</time>
      </trkpt>
      <trkpt lat="45.01299" lon="3.35314">
        <ele>1283.98</ele>
        <time>2021-02-21T11:34:56Z</time>
      </trkpt>
      <trkpt lat="45.01287" lon="3.35307">
        <ele>1280.61</ele>
        <time>2021-02-21T11:35:08Z</time>
      </trkpt>
      <trkpt lat="45.01275" lon="3.35311">
        <ele>1278.21</ele>
        <time>2021-02-21T11:35:22Z</time>
      </trkpt>
      <trkpt lat="45.01259" lon="3.35334">
        <ele>1274.85</ele>
        <time>2021-02-21T11:35:40Z</time>
      </trkpt>
      <trkpt lat="45.01242" lon="3.35354">
        <ele>1274.85</ele>
        <time>2021-02-21T11:35:59Z</time>
      </trkpt>
      <trkpt lat="45.01226" lon="3.35377">
        <ele>1273.4</ele>
        <time>2021-02-21T11:36:16Z</time>
      </trkpt>
      <trkpt lat="45.01211" lon="3.35397">
        <ele>1269.56</ele>
        <time>2021-02-21T11:36:32Z</time>
      </trkpt>
      <trkpt lat="45.01197" lon="3.35426">
        <ele>1267.64</ele>
        <time>2021-02-21T11:36:51Z</time>
      </trkpt>
      <trkpt lat="45.01199" lon="3.35457">
        <ele>1266.19</ele>
        <time>2021-02-21T11:37:09Z</time>
      </trkpt>
      <trkpt lat="45.01204" lon="3.35475">
        <ele>1264.75</ele>
        <time>2021-02-21T11:37:20Z</time>
      </trkpt>
      <trkpt lat="45.01207" lon="3.35487">
        <ele>1264.27</ele>
        <time>2021-02-21T11:37:30Z</time>
      </trkpt>
      <trkpt lat="45.0121" lon="3.35516">
        <ele>1262.83</ele>
        <time>2021-02-21T11:37:45Z</time>
      </trkpt>
      <trkpt lat="45.01209" lon="3.35548">
        <ele>1264.27</ele>
        <time>2021-02-21T11:38:02Z</time>
      </trkpt>
      <trkpt lat="45.0121" lon="3.35581">
        <ele>1262.83</ele>
        <time>2021-02-21T11:38:23Z</time>
      </trkpt>
      <trkpt lat="45.01209" lon="3.3562">
        <ele>1259.94</ele>
        <time>2021-02-21T11:38:45Z</time>
      </trkpt>
      <trkpt lat="45.01206" lon="3.35664">
        <ele>1258.02</ele>
        <time>2021-02-21T11:39:06Z</time>
      </trkpt>
      <trkpt lat="45.012" lon="3.35701">
        <ele>1258.02</ele>
        <time>2021-02-21T11:39:26Z</time>
      </trkpt>
      <trkpt lat="45.01188" lon="3.35741">
        <ele>1260.91</ele>
        <time>2021-02-21T11:39:46Z</time>
      </trkpt>
      <trkpt lat="45.01174" lon="3.35776">
        <ele>1260.43</ele>
        <time>2021-02-21T11:40:07Z</time>
      </trkpt>
      <trkpt lat="45.01162" lon="3.35812">
        <ele>1260.43</ele>
        <time>2021-02-21T11:40:28Z</time>
      </trkpt>
      <trkpt lat="45.01155" lon="3.35846">
        <ele>1258.5</ele>
        <time>2021-02-21T11:40:49Z</time>
      </trkpt>
      <trkpt lat="45.01156" lon="3.35883">
        <ele>1254.18</ele>
        <time>2021-02-21T11:41:10Z</time>
      </trkpt>
      <trkpt lat="45.01162" lon="3.35903">
        <ele>1252.25</ele>
        <time>2021-02-21T11:41:31Z</time>
      </trkpt>
      <trkpt lat="45.01171" lon="3.35933">
        <ele>1248.89</ele>
        <time>2021-02-21T11:41:51Z</time>
      </trkpt>
      <trkpt lat="45.01178" lon="3.35985">
        <ele>1247.93</ele>
        <time>2021-02-21T11:42:10Z</time>
      </trkpt>
      <trkpt lat="45.01183" lon="3.36026">
        <ele>1248.41</ele>
        <time>2021-02-21T11:42:27Z</time>
      </trkpt>
      <trkpt lat="45.01192" lon="3.36057">
        <ele>1248.41</ele>
        <time>2021-02-21T11:42:44Z</time>
      </trkpt>
      <trkpt lat="45.01207" lon="3.36091">
        <ele>1243.12</ele>
        <time>2021-02-21T11:43:03Z</time>
      </trkpt>
      <trkpt lat="45.01218" lon="3.36115">
        <ele>1239.28</ele>
        <time>2021-02-21T11:43:20Z</time>
      </trkpt>
      <trkpt lat="45.01228" lon="3.36145">
        <ele>1235.43</ele>
        <time>2021-02-21T11:43:36Z</time>
      </trkpt>
      <trkpt lat="45.01226" lon="3.36172">
        <ele>1234.47</ele>
        <time>2021-02-21T11:43:57Z</time>
      </trkpt>
      <trkpt lat="45.0123" lon="3.36176">
        <ele>1234.47</ele>
        <time>2021-02-21T11:44:14Z</time>
      </trkpt>
      <trkpt lat="45.01229" lon="3.36179">
        <ele>1234.95</ele>
        <time>2021-02-21T11:44:30Z</time>
      </trkpt>
      <trkpt lat="45.0123" lon="3.36178">
        <ele>1234.95</ele>
        <time>2021-02-21T11:44:50Z</time>
      </trkpt>
      <trkpt lat="45.01229" lon="3.36193">
        <ele>1234.95</ele>
        <time>2021-02-21T11:45:06Z</time>
      </trkpt>
      <trkpt lat="45.01228" lon="3.36227">
        <ele>1233.03</ele>
        <time>2021-02-21T11:45:25Z</time>
      </trkpt>
      <trkpt lat="45.01223" lon="3.36257">
        <ele>1232.55</ele>
        <time>2021-02-21T11:45:43Z</time>
      </trkpt>
      <trkpt lat="45.01222" lon="3.36259">
        <ele>1232.55</ele>
        <time>2021-02-21T11:45:44Z</time>
      </trkpt>
      <trkpt lat="45.01201" lon="3.3627">
        <ele>1232.55</ele>
        <time>2021-02-21T11:46:02Z</time>
      </trkpt>
      <trkpt lat="45.01175" lon="3.36278">
        <ele>1232.07</ele>
        <time>2021-02-21T11:46:23Z</time>
      </trkpt>
      <trkpt lat="45.0115" lon="3.36291">
        <ele>1229.18</ele>
        <time>2021-02-21T11:46:42Z</time>
      </trkpt>
      <trkpt lat="45.01127" lon="3.36317">
        <ele>1228.22</ele>
        <time>2021-02-21T11:47:06Z</time>
      </trkpt>
      <trkpt lat="45.01112" lon="3.36349">
        <ele>1225.82</ele>
        <time>2021-02-21T11:47:27Z</time>
      </trkpt>
      <trkpt lat="45.011" lon="3.36377">
        <ele>1223.9</ele>
        <time>2021-02-21T11:47:45Z</time>
      </trkpt>
      <trkpt lat="45.0109" lon="3.3641">
        <ele>1222.45</ele>
        <time>2021-02-21T11:48:04Z</time>
      </trkpt>
      <trkpt lat="45.01084" lon="3.36442">
        <ele>1219.09</ele>
        <time>2021-02-21T11:48:23Z</time>
      </trkpt>
      <trkpt lat="45.01083" lon="3.36445">
        <ele>1219.09</ele>
        <time>2021-02-21T11:48:47Z</time>
      </trkpt>
      <trkpt lat="45.01083" lon="3.36446">
        <ele>1219.09</ele>
        <time>2021-02-21T11:49:08Z</time>
      </trkpt>
      <trkpt lat="45.01083" lon="3.36455">
        <ele>1218.13</ele>
        <time>2021-02-21T11:49:20Z</time>
      </trkpt>
      <trkpt lat="45.01081" lon="3.36475">
        <ele>1216.21</ele>
        <time>2021-02-21T11:49:35Z</time>
      </trkpt>
      <trkpt lat="45.01081" lon="3.36499">
        <ele>1215.72</ele>
        <time>2021-02-21T11:49:50Z</time>
      </trkpt>
      <trkpt lat="45.01084" lon="3.36531">
        <ele>1214.76</ele>
        <time>2021-02-21T11:50:08Z</time>
      </trkpt>
      <trkpt lat="45.01099" lon="3.36566">
        <ele>1214.28</ele>
        <time>2021-02-21T11:50:30Z</time>
      </trkpt>
      <trkpt lat="45.01105" lon="3.36574">
        <ele>1214.76</ele>
        <time>2021-02-21T11:50:35Z</time>
      </trkpt>
      <trkpt lat="45.01109" lon="3.3658">
        <ele>1214.76</ele>
        <time>2021-02-21T11:50:40Z</time>
      </trkpt>
      <trkpt lat="45.01127" lon="3.36607">
        <ele>1214.76</ele>
        <time>2021-02-21T11:50:58Z</time>
      </trkpt>
      <trkpt lat="45.01144" lon="3.3663">
        <ele>1215.72</ele>
        <time>2021-02-21T11:51:15Z</time>
      </trkpt>
      <trkpt lat="45.01167" lon="3.36658">
        <ele>1215.72</ele>
        <time>2021-02-21T11:51:35Z</time>
      </trkpt>
      <trkpt lat="45.01179" lon="3.36675">
        <ele>1215.24</ele>
        <time>2021-02-21T11:51:51Z</time>
      </trkpt>
      <trkpt lat="45.01189" lon="3.36682">
        <ele>1214.28</ele>
        <time>2021-02-21T11:52:02Z</time>
      </trkpt>
      <trkpt lat="45.012" lon="3.36692">
        <ele>1214.28</ele>
        <time>2021-02-21T11:52:17Z</time>
      </trkpt>
      <trkpt lat="45.01202" lon="3.36694">
        <ele>1213.8</ele>
        <time>2021-02-21T11:52:23Z</time>
      </trkpt>
      <trkpt lat="45.01222" lon="3.36709">
        <ele>1211.88</ele>
        <time>2021-02-21T11:52:40Z</time>
      </trkpt>
      <trkpt lat="45.01237" lon="3.36723">
        <ele>1209.96</ele>
        <time>2021-02-21T11:52:55Z</time>
      </trkpt>
      <trkpt lat="45.01253" lon="3.36739">
        <ele>1208.03</ele>
        <time>2021-02-21T11:53:10Z</time>
      </trkpt>
      <trkpt lat="45.01273" lon="3.36755">
        <ele>1206.59</ele>
        <time>2021-02-21T11:53:28Z</time>
      </trkpt>
      <trkpt lat="45.01292" lon="3.3677">
        <ele>1207.55</ele>
        <time>2021-02-21T11:53:46Z</time>
      </trkpt>
      <trkpt lat="45.01281" lon="3.3676">
        <ele>1209</ele>
        <time>2021-02-21T11:54:00Z</time>
      </trkpt>
      <trkpt lat="45.01258" lon="3.36737">
        <ele>1209</ele>
        <time>2021-02-21T11:54:22Z</time>
      </trkpt>
      <trkpt lat="45.01237" lon="3.36719">
        <ele>1211.4</ele>
        <time>2021-02-21T11:54:42Z</time>
      </trkpt>
      <trkpt lat="45.01205" lon="3.36695">
        <ele>1212.36</ele>
        <time>2021-02-21T11:55:06Z</time>
      </trkpt>
      <trkpt lat="45.01183" lon="3.36674">
        <ele>1212.84</ele>
        <time>2021-02-21T11:55:25Z</time>
      </trkpt>
      <trkpt lat="45.01159" lon="3.36646">
        <ele>1212.36</ele>
        <time>2021-02-21T11:55:47Z</time>
      </trkpt>
      <trkpt lat="45.01135" lon="3.36619">
        <ele>1211.88</ele>
        <time>2021-02-21T11:56:09Z</time>
      </trkpt>
      <trkpt lat="45.01111" lon="3.36589">
        <ele>1211.88</ele>
        <time>2021-02-21T11:56:31Z</time>
      </trkpt>
      <trkpt lat="45.01092" lon="3.36564">
        <ele>1211.4</ele>
        <time>2021-02-21T11:56:50Z</time>
      </trkpt>
      <trkpt lat="45.01066" lon="3.36548">
        <ele>1210.44</ele>
        <time>2021-02-21T11:57:10Z</time>
      </trkpt>
      <trkpt lat="45.01052" lon="3.36537">
        <ele>1209.96</ele>
        <time>2021-02-21T11:57:23Z</time>
      </trkpt>
      <trkpt lat="45.01043" lon="3.3654">
        <ele>1209.48</ele>
        <time>2021-02-21T11:57:31Z</time>
      </trkpt>
      <trkpt lat="45.01021" lon="3.36557">
        <ele>1207.55</ele>
        <time>2021-02-21T11:57:51Z</time>
      </trkpt>
      <trkpt lat="45.01013" lon="3.36586">
        <ele>1205.15</ele>
        <time>2021-02-21T11:58:08Z</time>
      </trkpt>
      <trkpt lat="45.01009" lon="3.36616">
        <ele>1202.75</ele>
        <time>2021-02-21T11:58:26Z</time>
      </trkpt>
      <trkpt lat="45.01004" lon="3.36644">
        <ele>1199.86</ele>
        <time>2021-02-21T11:58:42Z</time>
      </trkpt>
      <trkpt lat="45.01005" lon="3.36675">
        <ele>1194.58</ele>
        <time>2021-02-21T11:59:01Z</time>
      </trkpt>
      <trkpt lat="45.01009" lon="3.36708">
        <ele>1190.25</ele>
        <time>2021-02-21T11:59:20Z</time>
      </trkpt>
      <trkpt lat="45.01014" lon="3.36737">
        <ele>1186.88</ele>
        <time>2021-02-21T11:59:38Z</time>
      </trkpt>
      <trkpt lat="45.01016" lon="3.36772">
        <ele>1182.56</ele>
        <time>2021-02-21T11:59:59Z</time>
      </trkpt>
      <trkpt lat="45.01014" lon="3.36775">
        <ele>1182.08</ele>
        <time>2021-02-21T12:00:01Z</time>
      </trkpt>
      <trkpt lat="45.00995" lon="3.36797">
        <ele>1180.64</ele>
        <time>2021-02-21T12:00:21Z</time>
      </trkpt>
      <trkpt lat="45.00991" lon="3.36811">
        <ele>1179.67</ele>
        <time>2021-02-21T12:00:36Z</time>
      </trkpt>
      <trkpt lat="45.01001" lon="3.36816">
        <ele>1178.23</ele>
        <time>2021-02-21T12:00:47Z</time>
      </trkpt>
      <trkpt lat="45.01016" lon="3.36823">
        <ele>1176.79</ele>
        <time>2021-02-21T12:01:03Z</time>
      </trkpt>
      <trkpt lat="45.01027" lon="3.36829">
        <ele>1174.39</ele>
        <time>2021-02-21T12:01:18Z</time>
      </trkpt>
      <trkpt lat="45.0104" lon="3.36835">
        <ele>1172.95</ele>
        <time>2021-02-21T12:01:35Z</time>
      </trkpt>
      <trkpt lat="45.01059" lon="3.36827">
        <ele>1172.47</ele>
        <time>2021-02-21T12:01:53Z</time>
      </trkpt>
      <trkpt lat="45.0108" lon="3.36821">
        <ele>1170.06</ele>
        <time>2021-02-21T12:02:15Z</time>
      </trkpt>
      <trkpt lat="45.01099" lon="3.36822">
        <ele>1167.66</ele>
        <time>2021-02-21T12:02:32Z</time>
      </trkpt>
      <trkpt lat="45.0112" lon="3.36822">
        <ele>1166.7</ele>
        <time>2021-02-21T12:02:52Z</time>
      </trkpt>
      <trkpt lat="45.01142" lon="3.36829">
        <ele>1162.37</ele>
        <time>2021-02-21T12:03:12Z</time>
      </trkpt>
      <trkpt lat="45.01148" lon="3.36835">
        <ele>1160.93</ele>
        <time>2021-02-21T12:03:18Z</time>
      </trkpt>
      <trkpt lat="45.01158" lon="3.36847">
        <ele>1159.49</ele>
        <time>2021-02-21T12:03:30Z</time>
      </trkpt>
      <trkpt lat="45.01174" lon="3.36862">
        <ele>1157.08</ele>
        <time>2021-02-21T12:03:48Z</time>
      </trkpt>
      <trkpt lat="45.01189" lon="3.36875">
        <ele>1154.2</ele>
        <time>2021-02-21T12:04:01Z</time>
      </trkpt>
      <trkpt lat="45.01207" lon="3.36895">
        <ele>1146.99</ele>
        <time>2021-02-21T12:04:20Z</time>
      </trkpt>
      <trkpt lat="45.01223" lon="3.36912">
        <ele>1141.7</ele>
        <time>2021-02-21T12:04:36Z</time>
      </trkpt>
      <trkpt lat="45.01225" lon="3.36921">
        <ele>1139.3</ele>
        <time>2021-02-21T12:04:43Z</time>
      </trkpt>
      <trkpt lat="45.01229" lon="3.36957">
        <ele>1136.42</ele>
        <time>2021-02-21T12:05:04Z</time>
      </trkpt>
      <trkpt lat="45.01237" lon="3.36976">
        <ele>1132.57</ele>
        <time>2021-02-21T12:05:18Z</time>
      </trkpt>
      <trkpt lat="45.01248" lon="3.36993">
        <ele>1130.17</ele>
        <time>2021-02-21T12:05:33Z</time>
      </trkpt>
      <trkpt lat="45.01261" lon="3.37018">
        <ele>1130.65</ele>
        <time>2021-02-21T12:05:51Z</time>
      </trkpt>
      <trkpt lat="45.01266" lon="3.37023">
        <ele>1130.17</ele>
        <time>2021-02-21T12:05:56Z</time>
      </trkpt>
      <trkpt lat="45.01284" lon="3.37048">
        <ele>1130.17</ele>
        <time>2021-02-21T12:06:17Z</time>
      </trkpt>
      <trkpt lat="45.01291" lon="3.37064">
        <ele>1131.13</ele>
        <time>2021-02-21T12:06:28Z</time>
      </trkpt>
      <trkpt lat="45.01297" lon="3.37076">
        <ele>1131.61</ele>
        <time>2021-02-21T12:06:36Z</time>
      </trkpt>
      <trkpt lat="45.01316" lon="3.371">
        <ele>1130.17</ele>
        <time>2021-02-21T12:06:54Z</time>
      </trkpt>
      <trkpt lat="45.01335" lon="3.37116">
        <ele>1126.8</ele>
        <time>2021-02-21T12:07:12Z</time>
      </trkpt>
      <trkpt lat="45.01352" lon="3.37139">
        <ele>1124.4</ele>
        <time>2021-02-21T12:07:30Z</time>
      </trkpt>
      <trkpt lat="45.0137" lon="3.37162">
        <ele>1121.52</ele>
        <time>2021-02-21T12:07:48Z</time>
      </trkpt>
      <trkpt lat="45.01388" lon="3.37179">
        <ele>1119.59</ele>
        <time>2021-02-21T12:08:06Z</time>
      </trkpt>
      <trkpt lat="45.01408" lon="3.37199">
        <ele>1118.15</ele>
        <time>2021-02-21T12:08:23Z</time>
      </trkpt>
      <trkpt lat="45.01418" lon="3.3721">
        <ele>1119.59</ele>
        <time>2021-02-21T12:08:33Z</time>
      </trkpt>
      <trkpt lat="45.01426" lon="3.37231">
        <ele>1121.52</ele>
        <time>2021-02-21T12:08:48Z</time>
      </trkpt>
      <trkpt lat="45.01427" lon="3.37257">
        <ele>1122</ele>
        <time>2021-02-21T12:09:06Z</time>
      </trkpt>
      <trkpt lat="45.01428" lon="3.37267">
        <ele>1123.92</ele>
        <time>2021-02-21T12:09:22Z</time>
      </trkpt>
      <trkpt lat="45.01431" lon="3.37273">
        <ele>1123.92</ele>
        <time>2021-02-21T12:09:39Z</time>
      </trkpt>
      <trkpt lat="45.01442" lon="3.37283">
        <ele>1121.52</ele>
        <time>2021-02-21T12:09:56Z</time>
      </trkpt>
      <trkpt lat="45.01459" lon="3.373">
        <ele>1121.52</ele>
        <time>2021-02-21T12:10:14Z</time>
      </trkpt>
      <trkpt lat="45.01485" lon="3.37308">
        <ele>1118.15</ele>
        <time>2021-02-21T12:10:34Z</time>
      </trkpt>
      <trkpt lat="45.01504" lon="3.37309">
        <ele>1114.79</ele>
        <time>2021-02-21T12:10:52Z</time>
      </trkpt>
      <trkpt lat="45.01505" lon="3.37308">
        <ele>1114.31</ele>
        <time>2021-02-21T12:10:53Z</time>
      </trkpt>
      <trkpt lat="45.01528" lon="3.37301">
        <ele>1108.06</ele>
        <time>2021-02-21T12:11:13Z</time>
      </trkpt>
      <trkpt lat="45.01548" lon="3.37289">
        <ele>1106.13</ele>
        <time>2021-02-21T12:11:29Z</time>
      </trkpt>
      <trkpt lat="45.01573" lon="3.37278">
        <ele>1100.85</ele>
        <time>2021-02-21T12:11:50Z</time>
      </trkpt>
      <trkpt lat="45.01584" lon="3.37275">
        <ele>1097.96</ele>
        <time>2021-02-21T12:12:08Z</time>
      </trkpt>
      <trkpt lat="45.01602" lon="3.37278">
        <ele>1098.44</ele>
        <time>2021-02-21T12:12:24Z</time>
      </trkpt>
      <trkpt lat="45.01622" lon="3.37271">
        <ele>1099.4</ele>
        <time>2021-02-21T12:12:41Z</time>
      </trkpt>
      <trkpt lat="45.01632" lon="3.37265">
        <ele>1099.4</ele>
        <time>2021-02-21T12:12:51Z</time>
      </trkpt>
      <trkpt lat="45.01654" lon="3.37249">
        <ele>1098.92</ele>
        <time>2021-02-21T12:13:09Z</time>
      </trkpt>
      <trkpt lat="45.01668" lon="3.3723">
        <ele>1096.52</ele>
        <time>2021-02-21T12:13:30Z</time>
      </trkpt>
      <trkpt lat="45.0169" lon="3.37213">
        <ele>1095.08</ele>
        <time>2021-02-21T12:13:50Z</time>
      </trkpt>
      <trkpt lat="45.01718" lon="3.37195">
        <ele>1101.81</ele>
        <time>2021-02-21T12:14:11Z</time>
      </trkpt>
      <trkpt lat="45.01737" lon="3.37183">
        <ele>1102.29</ele>
        <time>2021-02-21T12:14:31Z</time>
      </trkpt>
      <trkpt lat="45.01744" lon="3.37178">
        <ele>1101.33</ele>
        <time>2021-02-21T12:14:38Z</time>
      </trkpt>
      <trkpt lat="45.01762" lon="3.37159">
        <ele>1098.92</ele>
        <time>2021-02-21T12:14:54Z</time>
      </trkpt>
      <trkpt lat="45.01768" lon="3.37154">
        <ele>1098.44</ele>
        <time>2021-02-21T12:14:58Z</time>
      </trkpt>
      <trkpt lat="45.01792" lon="3.37133">
        <ele>1100.37</ele>
        <time>2021-02-21T12:15:18Z</time>
      </trkpt>
      <trkpt lat="45.01811" lon="3.37113">
        <ele>1098.44</ele>
        <time>2021-02-21T12:15:39Z</time>
      </trkpt>
      <trkpt lat="45.01837" lon="3.37098">
        <ele>1100.85</ele>
        <time>2021-02-21T12:15:56Z</time>
      </trkpt>
      <trkpt lat="45.01848" lon="3.37083">
        <ele>1098.44</ele>
        <time>2021-02-21T12:16:17Z</time>
      </trkpt>
      <trkpt lat="45.01843" lon="3.37078">
        <ele>1097</ele>
        <time>2021-02-21T12:16:33Z</time>
      </trkpt>
      <trkpt lat="45.0184" lon="3.37078">
        <ele>1097.96</ele>
        <time>2021-02-21T12:17:01Z</time>
      </trkpt>
      <trkpt lat="45.0184" lon="3.37077">
        <ele>1099.4</ele>
        <time>2021-02-21T12:17:26Z</time>
      </trkpt>
      <trkpt lat="45.01841" lon="3.37078">
        <ele>1099.89</ele>
        <time>2021-02-21T12:17:47Z</time>
      </trkpt>
      <trkpt lat="45.01856" lon="3.37076">
        <ele>1100.37</ele>
        <time>2021-02-21T12:18:06Z</time>
      </trkpt>
      <trkpt lat="45.01876" lon="3.37074">
        <ele>1102.29</ele>
        <time>2021-02-21T12:18:24Z</time>
      </trkpt>
      <trkpt lat="45.01894" lon="3.37073">
        <ele>1101.81</ele>
        <time>2021-02-21T12:18:41Z</time>
      </trkpt>
      <trkpt lat="45.01919" lon="3.37083">
        <ele>1099.4</ele>
        <time>2021-02-21T12:19:00Z</time>
      </trkpt>
      <trkpt lat="45.01936" lon="3.37106">
        <ele>1096.04</ele>
        <time>2021-02-21T12:19:21Z</time>
      </trkpt>
      <trkpt lat="45.01947" lon="3.37129">
        <ele>1092.68</ele>
        <time>2021-02-21T12:19:39Z</time>
      </trkpt>
      <trkpt lat="45.0196" lon="3.37153">
        <ele>1091.23</ele>
        <time>2021-02-21T12:19:57Z</time>
      </trkpt>
      <trkpt lat="45.01972" lon="3.37172">
        <ele>1090.27</ele>
        <time>2021-02-21T12:20:14Z</time>
      </trkpt>
      <trkpt lat="45.01983" lon="3.37191">
        <ele>1092.68</ele>
        <time>2021-02-21T12:20:29Z</time>
      </trkpt>
      <trkpt lat="45.01985" lon="3.37195">
        <ele>1092.2</ele>
        <time>2021-02-21T12:20:33Z</time>
      </trkpt>
      <trkpt lat="45.01999" lon="3.37221">
        <ele>1090.27</ele>
        <time>2021-02-21T12:20:53Z</time>
      </trkpt>
      <trkpt lat="45.02007" lon="3.37235">
        <ele>1091.23</ele>
        <time>2021-02-21T12:21:05Z</time>
      </trkpt>
      <trkpt lat="45.02022" lon="3.37254">
        <ele>1092.68</ele>
        <time>2021-02-21T12:21:24Z</time>
      </trkpt>
      <trkpt lat="45.02046" lon="3.37273">
        <ele>1095.56</ele>
        <time>2021-02-21T12:21:45Z</time>
      </trkpt>
      <trkpt lat="45.02066" lon="3.37291">
        <ele>1102.77</ele>
        <time>2021-02-21T12:22:06Z</time>
      </trkpt>
      <trkpt lat="45.02088" lon="3.37298">
        <ele>1110.46</ele>
        <time>2021-02-21T12:22:29Z</time>
      </trkpt>
      <trkpt lat="45.02108" lon="3.37303">
        <ele>1114.31</ele>
        <time>2021-02-21T12:22:48Z</time>
      </trkpt>
      <trkpt lat="45.02111" lon="3.37305">
        <ele>1116.23</ele>
        <time>2021-02-21T12:22:54Z</time>
      </trkpt>
      <trkpt lat="45.02122" lon="3.37302">
        <ele>1121.52</ele>
        <time>2021-02-21T12:23:05Z</time>
      </trkpt>
      <trkpt lat="45.02134" lon="3.37294">
        <ele>1125.36</ele>
        <time>2021-02-21T12:23:19Z</time>
      </trkpt>
      <trkpt lat="45.02143" lon="3.37287">
        <ele>1127.28</ele>
        <time>2021-02-21T12:23:29Z</time>
      </trkpt>
      <trkpt lat="45.02164" lon="3.37259">
        <ele>1128.24</ele>
        <time>2021-02-21T12:23:51Z</time>
      </trkpt>
      <trkpt lat="45.02177" lon="3.37233">
        <ele>1123.44</ele>
        <time>2021-02-21T12:24:09Z</time>
      </trkpt>
      <trkpt lat="45.02179" lon="3.37231">
        <ele>1122.48</ele>
        <time>2021-02-21T12:24:16Z</time>
      </trkpt>
      <trkpt lat="45.02196" lon="3.37206">
        <ele>1118.15</ele>
        <time>2021-02-21T12:24:37Z</time>
      </trkpt>
      <trkpt lat="45.02205" lon="3.37212">
        <ele>1121.03</ele>
        <time>2021-02-21T12:24:49Z</time>
      </trkpt>
      <trkpt lat="45.02229" lon="3.37213">
        <ele>1126.32</ele>
        <time>2021-02-21T12:25:09Z</time>
      </trkpt>
      <trkpt lat="45.02248" lon="3.37217">
        <ele>1132.57</ele>
        <time>2021-02-21T12:25:25Z</time>
      </trkpt>
      <trkpt lat="45.02251" lon="3.37221">
        <ele>1135.94</ele>
        <time>2021-02-21T12:25:37Z</time>
      </trkpt>
      <trkpt lat="45.02251" lon="3.37222">
        <ele>1136.9</ele>
        <time>2021-02-21T12:25:53Z</time>
      </trkpt>
      <trkpt lat="45.02249" lon="3.37222">
        <ele>1136.42</ele>
        <time>2021-02-21T12:26:11Z</time>
      </trkpt>
      <trkpt lat="45.02249" lon="3.3722">
        <ele>1135.45</ele>
        <time>2021-02-21T12:26:36Z</time>
      </trkpt>
      <trkpt lat="45.02249" lon="3.37221">
        <ele>1134.97</ele>
        <time>2021-02-21T12:26:55Z</time>
      </trkpt>
      <trkpt lat="45.02249" lon="3.3722">
        <ele>1134.49</ele>
        <time>2021-02-21T12:27:15Z</time>
      </trkpt>
      <trkpt lat="45.02255" lon="3.37222">
        <ele>1134.01</ele>
        <time>2021-02-21T12:27:31Z</time>
      </trkpt>
      <trkpt lat="45.02258" lon="3.37222">
        <ele>1134.01</ele>
        <time>2021-02-21T12:27:47Z</time>
      </trkpt>
      <trkpt lat="45.02258" lon="3.37222">
        <ele>1134.01</ele>
        <time>2021-02-21T12:27:52Z</time>
      </trkpt>
      <trkpt lat="45.02268" lon="3.37233">
        <ele>1134.01</ele>
        <time>2021-02-21T12:28:05Z</time>
      </trkpt>
      <trkpt lat="45.02274" lon="3.37248">
        <ele>1135.94</ele>
        <time>2021-02-21T12:28:18Z</time>
      </trkpt>
      <trkpt lat="45.02282" lon="3.37261">
        <ele>1136.42</ele>
        <time>2021-02-21T12:28:32Z</time>
      </trkpt>
      <trkpt lat="45.02286" lon="3.3727">
        <ele>1137.86</ele>
        <time>2021-02-21T12:28:45Z</time>
      </trkpt>
      <trkpt lat="45.02287" lon="3.37272">
        <ele>1138.82</ele>
        <time>2021-02-21T12:29:05Z</time>
      </trkpt>
      <trkpt lat="45.02289" lon="3.37278">
        <ele>1138.82</ele>
        <time>2021-02-21T12:29:19Z</time>
      </trkpt>
      <trkpt lat="45.02295" lon="3.37293">
        <ele>1139.78</ele>
        <time>2021-02-21T12:29:34Z</time>
      </trkpt>
      <trkpt lat="45.02309" lon="3.37312">
        <ele>1142.66</ele>
        <time>2021-02-21T12:29:49Z</time>
      </trkpt>
      <trkpt lat="45.02323" lon="3.37333">
        <ele>1145.07</ele>
        <time>2021-02-21T12:30:05Z</time>
      </trkpt>
      <trkpt lat="45.02332" lon="3.37352">
        <ele>1145.07</ele>
        <time>2021-02-21T12:30:18Z</time>
      </trkpt>
      <trkpt lat="45.02339" lon="3.37362">
        <ele>1144.59</ele>
        <time>2021-02-21T12:30:25Z</time>
      </trkpt>
      <trkpt lat="45.02351" lon="3.37373">
        <ele>1145.07</ele>
        <time>2021-02-21T12:30:37Z</time>
      </trkpt>
      <trkpt lat="45.02356" lon="3.37375">
        <ele>1146.51</ele>
        <time>2021-02-21T12:30:50Z</time>
      </trkpt>
      <trkpt lat="45.02362" lon="3.37379">
        <ele>1148.43</ele>
        <time>2021-02-21T12:31:04Z</time>
      </trkpt>
      <trkpt lat="45.02369" lon="3.37385">
        <ele>1148.43</ele>
        <time>2021-02-21T12:31:19Z</time>
      </trkpt>
      <trkpt lat="45.0237" lon="3.37383">
        <ele>1148.43</ele>
        <time>2021-02-21T12:31:41Z</time>
      </trkpt>
      <trkpt lat="45.02372" lon="3.3737">
        <ele>1148.43</ele>
        <time>2021-02-21T12:31:56Z</time>
      </trkpt>
      <trkpt lat="45.02374" lon="3.37367">
        <ele>1148.43</ele>
        <time>2021-02-21T12:32:00Z</time>
      </trkpt>
      <trkpt lat="45.0238" lon="3.37361">
        <ele>1148.43</ele>
        <time>2021-02-21T12:32:14Z</time>
      </trkpt>
      <trkpt lat="45.02392" lon="3.37352">
        <ele>1148.91</ele>
        <time>2021-02-21T12:32:26Z</time>
      </trkpt>
      <trkpt lat="45.02408" lon="3.37334">
        <ele>1152.76</ele>
        <time>2021-02-21T12:32:43Z</time>
      </trkpt>
      <trkpt lat="45.02418" lon="3.37317">
        <ele>1154.68</ele>
        <time>2021-02-21T12:32:58Z</time>
      </trkpt>
      <trkpt lat="45.02418" lon="3.37318">
        <ele>1154.68</ele>
        <time>2021-02-21T12:33:00Z</time>
      </trkpt>
      <trkpt lat="45.02405" lon="3.37338">
        <ele>1151.8</ele>
        <time>2021-02-21T12:33:16Z</time>
      </trkpt>
      <trkpt lat="45.02389" lon="3.37356">
        <ele>1148.43</ele>
        <time>2021-02-21T12:33:32Z</time>
      </trkpt>
      <trkpt lat="45.02372" lon="3.37368">
        <ele>1148.43</ele>
        <time>2021-02-21T12:33:47Z</time>
      </trkpt>
      <trkpt lat="45.02367" lon="3.37374">
        <ele>1148.43</ele>
        <time>2021-02-21T12:33:54Z</time>
      </trkpt>
      <trkpt lat="45.02367" lon="3.37383">
        <ele>1148.43</ele>
        <time>2021-02-21T12:34:02Z</time>
      </trkpt>
      <trkpt lat="45.02376" lon="3.3739">
        <ele>1148.43</ele>
        <time>2021-02-21T12:34:13Z</time>
      </trkpt>
      <trkpt lat="45.02377" lon="3.37395">
        <ele>1148.43</ele>
        <time>2021-02-21T12:34:19Z</time>
      </trkpt>
      <trkpt lat="45.02378" lon="3.37408">
        <ele>1147.47</ele>
        <time>2021-02-21T12:34:26Z</time>
      </trkpt>
      <trkpt lat="45.02387" lon="3.37422">
        <ele>1146.99</ele>
        <time>2021-02-21T12:34:38Z</time>
      </trkpt>
      <trkpt lat="45.02402" lon="3.37429">
        <ele>1145.07</ele>
        <time>2021-02-21T12:34:53Z</time>
      </trkpt>
      <trkpt lat="45.02417" lon="3.37436">
        <ele>1143.14</ele>
        <time>2021-02-21T12:35:07Z</time>
      </trkpt>
      <trkpt lat="45.02432" lon="3.37439">
        <ele>1143.14</ele>
        <time>2021-02-21T12:35:20Z</time>
      </trkpt>
      <trkpt lat="45.02448" lon="3.37437">
        <ele>1140.26</ele>
        <time>2021-02-21T12:35:34Z</time>
      </trkpt>
      <trkpt lat="45.02455" lon="3.37436">
        <ele>1139.3</ele>
        <time>2021-02-21T12:35:40Z</time>
      </trkpt>
      <trkpt lat="45.02468" lon="3.37427">
        <ele>1135.45</ele>
        <time>2021-02-21T12:35:54Z</time>
      </trkpt>
      <trkpt lat="45.02471" lon="3.37425">
        <ele>1134.49</ele>
        <time>2021-02-21T12:35:57Z</time>
      </trkpt>
      <trkpt lat="45.02486" lon="3.37412">
        <ele>1131.61</ele>
        <time>2021-02-21T12:36:12Z</time>
      </trkpt>
      <trkpt lat="45.025" lon="3.37397">
        <ele>1129.21</ele>
        <time>2021-02-21T12:36:27Z</time>
      </trkpt>
      <trkpt lat="45.0251" lon="3.37383">
        <ele>1126.8</ele>
        <time>2021-02-21T12:36:40Z</time>
      </trkpt>
      <trkpt lat="45.02523" lon="3.37366">
        <ele>1123.92</ele>
        <time>2021-02-21T12:36:55Z</time>
      </trkpt>
      <trkpt lat="45.02535" lon="3.37355">
        <ele>1122.48</ele>
        <time>2021-02-21T12:37:09Z</time>
      </trkpt>
      <trkpt lat="45.02536" lon="3.37353">
        <ele>1122.48</ele>
        <time>2021-02-21T12:37:11Z</time>
      </trkpt>
      <trkpt lat="45.02555" lon="3.37346">
        <ele>1122.96</ele>
        <time>2021-02-21T12:37:28Z</time>
      </trkpt>
      <trkpt lat="45.02567" lon="3.37351">
        <ele>1123.44</ele>
        <time>2021-02-21T12:37:38Z</time>
      </trkpt>
      <trkpt lat="45.02573" lon="3.37361">
        <ele>1122.96</ele>
        <time>2021-02-21T12:37:50Z</time>
      </trkpt>
      <trkpt lat="45.02578" lon="3.37378">
        <ele>1122.48</ele>
        <time>2021-02-21T12:38:03Z</time>
      </trkpt>
      <trkpt lat="45.02586" lon="3.37393">
        <ele>1122.48</ele>
        <time>2021-02-21T12:38:17Z</time>
      </trkpt>
      <trkpt lat="45.02596" lon="3.37406">
        <ele>1122.48</ele>
        <time>2021-02-21T12:38:33Z</time>
      </trkpt>
      <trkpt lat="45.02603" lon="3.37414">
        <ele>1123.44</ele>
        <time>2021-02-21T12:38:45Z</time>
      </trkpt>
      <trkpt lat="45.02605" lon="3.37424">
        <ele>1124.88</ele>
        <time>2021-02-21T12:38:52Z</time>
      </trkpt>
      <trkpt lat="45.02613" lon="3.37443">
        <ele>1126.32</ele>
        <time>2021-02-21T12:39:07Z</time>
      </trkpt>
      <trkpt lat="45.02618" lon="3.3745">
        <ele>1124.88</ele>
        <time>2021-02-21T12:39:17Z</time>
      </trkpt>
      <trkpt lat="45.02628" lon="3.37468">
        <ele>1122</ele>
        <time>2021-02-21T12:39:31Z</time>
      </trkpt>
      <trkpt lat="45.02629" lon="3.37476">
        <ele>1122.48</ele>
        <time>2021-02-21T12:39:35Z</time>
      </trkpt>
      <trkpt lat="45.02629" lon="3.37501">
        <ele>1126.8</ele>
        <time>2021-02-21T12:39:49Z</time>
      </trkpt>
      <trkpt lat="45.02633" lon="3.37516">
        <ele>1126.32</ele>
        <time>2021-02-21T12:40:05Z</time>
      </trkpt>
      <trkpt lat="45.02639" lon="3.37533">
        <ele>1126.8</ele>
        <time>2021-02-21T12:40:22Z</time>
      </trkpt>
      <trkpt lat="45.02644" lon="3.37554">
        <ele>1127.28</ele>
        <time>2021-02-21T12:40:38Z</time>
      </trkpt>
      <trkpt lat="45.02645" lon="3.37582">
        <ele>1128.24</ele>
        <time>2021-02-21T12:40:52Z</time>
      </trkpt>
      <trkpt lat="45.02648" lon="3.37614">
        <ele>1134.01</ele>
        <time>2021-02-21T12:41:07Z</time>
      </trkpt>
      <trkpt lat="45.02652" lon="3.37634">
        <ele>1137.38</ele>
        <time>2021-02-21T12:41:23Z</time>
      </trkpt>
      <trkpt lat="45.02655" lon="3.37653">
        <ele>1142.66</ele>
        <time>2021-02-21T12:41:36Z</time>
      </trkpt>
      <trkpt lat="45.02657" lon="3.37671">
        <ele>1143.63</ele>
        <time>2021-02-21T12:41:49Z</time>
      </trkpt>
      <trkpt lat="45.02659" lon="3.37683">
        <ele>1144.59</ele>
        <time>2021-02-21T12:42:05Z</time>
      </trkpt>
      <trkpt lat="45.0266" lon="3.37698">
        <ele>1146.03</ele>
        <time>2021-02-21T12:42:19Z</time>
      </trkpt>
      <trkpt lat="45.02662" lon="3.37707">
        <ele>1146.99</ele>
        <time>2021-02-21T12:42:25Z</time>
      </trkpt>
      <trkpt lat="45.02663" lon="3.37734">
        <ele>1148.43</ele>
        <time>2021-02-21T12:42:39Z</time>
      </trkpt>
      <trkpt lat="45.02666" lon="3.37763">
        <ele>1148.91</ele>
        <time>2021-02-21T12:42:55Z</time>
      </trkpt>
      <trkpt lat="45.0267" lon="3.37795">
        <ele>1153.24</ele>
        <time>2021-02-21T12:43:12Z</time>
      </trkpt>
      <trkpt lat="45.02673" lon="3.37811">
        <ele>1152.76</ele>
        <time>2021-02-21T12:43:27Z</time>
      </trkpt>
      <trkpt lat="45.02676" lon="3.37824">
        <ele>1152.76</ele>
        <time>2021-02-21T12:43:36Z</time>
      </trkpt>
      <trkpt lat="45.0268" lon="3.37838">
        <ele>1154.2</ele>
        <time>2021-02-21T12:43:44Z</time>
      </trkpt>
      <trkpt lat="45.02686" lon="3.37869">
        <ele>1154.68</ele>
        <time>2021-02-21T12:44:00Z</time>
      </trkpt>
      <trkpt lat="45.02692" lon="3.3789">
        <ele>1154.68</ele>
        <time>2021-02-21T12:44:13Z</time>
      </trkpt>
      <trkpt lat="45.02697" lon="3.37916">
        <ele>1156.12</ele>
        <time>2021-02-21T12:44:28Z</time>
      </trkpt>
      <trkpt lat="45.02698" lon="3.37927">
        <ele>1156.12</ele>
        <time>2021-02-21T12:44:35Z</time>
      </trkpt>
      <trkpt lat="45.02701" lon="3.37941">
        <ele>1155.16</ele>
        <time>2021-02-21T12:44:47Z</time>
      </trkpt>
      <trkpt lat="45.02704" lon="3.37958">
        <ele>1155.16</ele>
        <time>2021-02-21T12:45:00Z</time>
      </trkpt>
      <trkpt lat="45.02708" lon="3.37993">
        <ele>1155.64</ele>
        <time>2021-02-21T12:45:16Z</time>
      </trkpt>
      <trkpt lat="45.02712" lon="3.38024">
        <ele>1155.16</ele>
        <time>2021-02-21T12:45:33Z</time>
      </trkpt>
      <trkpt lat="45.02716" lon="3.38056">
        <ele>1158.53</ele>
        <time>2021-02-21T12:45:45Z</time>
      </trkpt>
      <trkpt lat="45.0272" lon="3.38083">
        <ele>1159.97</ele>
        <time>2021-02-21T12:46:00Z</time>
      </trkpt>
      <trkpt lat="45.02724" lon="3.38111">
        <ele>1157.08</ele>
        <time>2021-02-21T12:46:17Z</time>
      </trkpt>
      <trkpt lat="45.02729" lon="3.38135">
        <ele>1154.2</ele>
        <time>2021-02-21T12:46:32Z</time>
      </trkpt>
      <trkpt lat="45.02733" lon="3.38151">
        <ele>1153.24</ele>
        <time>2021-02-21T12:46:46Z</time>
      </trkpt>
      <trkpt lat="45.02732" lon="3.38157">
        <ele>1155.16</ele>
        <time>2021-02-21T12:47:09Z</time>
      </trkpt>
      <trkpt lat="45.02733" lon="3.38158">
        <ele>1156.6</ele>
        <time>2021-02-21T12:47:31Z</time>
      </trkpt>
      <trkpt lat="45.02733" lon="3.38158">
        <ele>1157.08</ele>
        <time>2021-02-21T12:47:51Z</time>
      </trkpt>
      <trkpt lat="45.02733" lon="3.38157">
        <ele>1158.05</ele>
        <time>2021-02-21T12:48:16Z</time>
      </trkpt>
      <trkpt lat="45.02733" lon="3.38157">
        <ele>1158.53</ele>
        <time>2021-02-21T12:48:37Z</time>
      </trkpt>
      <trkpt lat="45.02734" lon="3.38157">
        <ele>1158.53</ele>
        <time>2021-02-21T12:48:59Z</time>
      </trkpt>
      <trkpt lat="45.02736" lon="3.38156">
        <ele>1157.56</ele>
        <time>2021-02-21T12:49:15Z</time>
      </trkpt>
      <trkpt lat="45.02744" lon="3.38157">
        <ele>1158.05</ele>
        <time>2021-02-21T12:49:38Z</time>
      </trkpt>
      <trkpt lat="45.02737" lon="3.38157">
        <ele>1159.01</ele>
        <time>2021-02-21T12:49:59Z</time>
      </trkpt>
      <trkpt lat="45.02725" lon="3.3816">
        <ele>1159.97</ele>
        <time>2021-02-21T12:50:25Z</time>
      </trkpt>
      <trkpt lat="45.02731" lon="3.38165">
        <ele>1159.97</ele>
        <time>2021-02-21T12:50:47Z</time>
      </trkpt>
      <trkpt lat="45.02735" lon="3.38199">
        <ele>1162.37</ele>
        <time>2021-02-21T12:50:58Z</time>
      </trkpt>
      <trkpt lat="45.02738" lon="3.38219">
        <ele>1160.45</ele>
        <time>2021-02-21T12:51:11Z</time>
      </trkpt>
      <trkpt lat="45.02744" lon="3.38239">
        <ele>1158.05</ele>
        <time>2021-02-21T12:51:27Z</time>
      </trkpt>
      <trkpt lat="45.0275" lon="3.38252">
        <ele>1155.64</ele>
        <time>2021-02-21T12:51:37Z</time>
      </trkpt>
      <trkpt lat="45.02757" lon="3.38266">
        <ele>1153.24</ele>
        <time>2021-02-21T12:51:48Z</time>
      </trkpt>
      <trkpt lat="45.02757" lon="3.38269">
        <ele>1152.76</ele>
        <time>2021-02-21T12:51:50Z</time>
      </trkpt>
      <trkpt lat="45.02757" lon="3.38273">
        <ele>1152.28</ele>
        <time>2021-02-21T12:51:52Z</time>
      </trkpt>
      <trkpt lat="45.02762" lon="3.38293">
        <ele>1147.95</ele>
        <time>2021-02-21T12:52:04Z</time>
      </trkpt>
      <trkpt lat="45.02764" lon="3.38305">
        <ele>1146.51</ele>
        <time>2021-02-21T12:52:11Z</time>
      </trkpt>
      <trkpt lat="45.02766" lon="3.3831">
        <ele>1146.03</ele>
        <time>2021-02-21T12:52:13Z</time>
      </trkpt>
      <trkpt lat="45.02767" lon="3.38322">
        <ele>1145.55</ele>
        <time>2021-02-21T12:52:19Z</time>
      </trkpt>
      <trkpt lat="45.02768" lon="3.38329">
        <ele>1146.03</ele>
        <time>2021-02-21T12:52:23Z</time>
      </trkpt>
      <trkpt lat="45.02771" lon="3.38335">
        <ele>1146.99</ele>
        <time>2021-02-21T12:52:26Z</time>
      </trkpt>
      <trkpt lat="45.02774" lon="3.38343">
        <ele>1146.99</ele>
        <time>2021-02-21T12:52:31Z</time>
      </trkpt>
      <trkpt lat="45.02776" lon="3.38354">
        <ele>1145.07</ele>
        <time>2021-02-21T12:52:38Z</time>
      </trkpt>
      <trkpt lat="45.02778" lon="3.38363">
        <ele>1142.18</ele>
        <time>2021-02-21T12:52:52Z</time>
      </trkpt>
      <trkpt lat="45.02778" lon="3.38363">
        <ele>1142.66</ele>
        <time>2021-02-21T12:52:55Z</time>
      </trkpt>
      <trkpt lat="45.02784" lon="3.38377">
        <ele>1142.18</ele>
        <time>2021-02-21T12:53:03Z</time>
      </trkpt>
      <trkpt lat="45.02789" lon="3.3839">
        <ele>1141.22</ele>
        <time>2021-02-21T12:53:12Z</time>
      </trkpt>
      <trkpt lat="45.02789" lon="3.38394">
        <ele>1141.7</ele>
        <time>2021-02-21T12:53:14Z</time>
      </trkpt>
      <trkpt lat="45.02792" lon="3.38401">
        <ele>1142.18</ele>
        <time>2021-02-21T12:53:19Z</time>
      </trkpt>
      <trkpt lat="45.02794" lon="3.38404">
        <ele>1141.22</ele>
        <time>2021-02-21T12:53:21Z</time>
      </trkpt>
      <trkpt lat="45.02797" lon="3.38411">
        <ele>1138.82</ele>
        <time>2021-02-21T12:53:27Z</time>
      </trkpt>
      <trkpt lat="45.02803" lon="3.38419">
        <ele>1135.94</ele>
        <time>2021-02-21T12:53:35Z</time>
      </trkpt>
      <trkpt lat="45.02804" lon="3.38427">
        <ele>1135.94</ele>
        <time>2021-02-21T12:53:40Z</time>
      </trkpt>
      <trkpt lat="45.02812" lon="3.3844">
        <ele>1136.9</ele>
        <time>2021-02-21T12:53:49Z</time>
      </trkpt>
      <trkpt lat="45.02822" lon="3.38462">
        <ele>1134.97</ele>
        <time>2021-02-21T12:54:04Z</time>
      </trkpt>
      <trkpt lat="45.02832" lon="3.38482">
        <ele>1134.49</ele>
        <time>2021-02-21T12:54:17Z</time>
      </trkpt>
      <trkpt lat="45.02844" lon="3.38503">
        <ele>1131.61</ele>
        <time>2021-02-21T12:54:32Z</time>
      </trkpt>
      <trkpt lat="45.02854" lon="3.38524">
        <ele>1129.69</ele>
        <time>2021-02-21T12:54:47Z</time>
      </trkpt>
      <trkpt lat="45.02861" lon="3.38537">
        <ele>1129.69</ele>
        <time>2021-02-21T12:54:57Z</time>
      </trkpt>
      <trkpt lat="45.02863" lon="3.3854">
        <ele>1130.17</ele>
        <time>2021-02-21T12:54:59Z</time>
      </trkpt>
      <trkpt lat="45.02867" lon="3.38547">
        <ele>1130.17</ele>
        <time>2021-02-21T12:55:04Z</time>
      </trkpt>
      <trkpt lat="45.02879" lon="3.38567">
        <ele>1129.21</ele>
        <time>2021-02-21T12:55:20Z</time>
      </trkpt>
      <trkpt lat="45.0289" lon="3.38587">
        <ele>1130.17</ele>
        <time>2021-02-21T12:55:35Z</time>
      </trkpt>
      <trkpt lat="45.02895" lon="3.38597">
        <ele>1130.65</ele>
        <time>2021-02-21T12:55:42Z</time>
      </trkpt>
      <trkpt lat="45.02899" lon="3.38607">
        <ele>1131.61</ele>
        <time>2021-02-21T12:55:50Z</time>
      </trkpt>
      <trkpt lat="45.02903" lon="3.38614">
        <ele>1132.09</ele>
        <time>2021-02-21T12:55:55Z</time>
      </trkpt>
      <trkpt lat="45.02904" lon="3.38623">
        <ele>1133.05</ele>
        <time>2021-02-21T12:56:01Z</time>
      </trkpt>
      <trkpt lat="45.02911" lon="3.38634">
        <ele>1134.01</ele>
        <time>2021-02-21T12:56:09Z</time>
      </trkpt>
      <trkpt lat="45.02922" lon="3.38657">
        <ele>1134.97</ele>
        <time>2021-02-21T12:56:24Z</time>
      </trkpt>
      <trkpt lat="45.02925" lon="3.38666">
        <ele>1133.53</ele>
        <time>2021-02-21T12:56:29Z</time>
      </trkpt>
      <trkpt lat="45.02932" lon="3.38684">
        <ele>1132.09</ele>
        <time>2021-02-21T12:56:42Z</time>
      </trkpt>
      <trkpt lat="45.02941" lon="3.38703">
        <ele>1130.17</ele>
        <time>2021-02-21T12:56:56Z</time>
      </trkpt>
      <trkpt lat="45.02947" lon="3.38721">
        <ele>1126.32</ele>
        <time>2021-02-21T12:57:09Z</time>
      </trkpt>
      <trkpt lat="45.02956" lon="3.38741">
        <ele>1123.92</ele>
        <time>2021-02-21T12:57:25Z</time>
      </trkpt>
      <trkpt lat="45.02962" lon="3.3876">
        <ele>1122.96</ele>
        <time>2021-02-21T12:57:39Z</time>
      </trkpt>
      <trkpt lat="45.02972" lon="3.3878">
        <ele>1124.4</ele>
        <time>2021-02-21T12:57:53Z</time>
      </trkpt>
      <trkpt lat="45.02983" lon="3.38797">
        <ele>1122.96</ele>
        <time>2021-02-21T12:58:09Z</time>
      </trkpt>
      <trkpt lat="45.02993" lon="3.38812">
        <ele>1122</ele>
        <time>2021-02-21T12:58:23Z</time>
      </trkpt>
      <trkpt lat="45.03006" lon="3.38831">
        <ele>1120.55</ele>
        <time>2021-02-21T12:58:40Z</time>
      </trkpt>
      <trkpt lat="45.03019" lon="3.38849">
        <ele>1122.48</ele>
        <time>2021-02-21T12:58:55Z</time>
      </trkpt>
      <trkpt lat="45.0303" lon="3.38864">
        <ele>1123.92</ele>
        <time>2021-02-21T12:59:10Z</time>
      </trkpt>
      <trkpt lat="45.03035" lon="3.38872">
        <ele>1123.44</ele>
        <time>2021-02-21T12:59:26Z</time>
      </trkpt>
      <trkpt lat="45.03036" lon="3.38873">
        <ele>1123.44</ele>
        <time>2021-02-21T12:59:27Z</time>
      </trkpt>
      <trkpt lat="45.03053" lon="3.38885">
        <ele>1122</ele>
        <time>2021-02-21T12:59:45Z</time>
      </trkpt>
      <trkpt lat="45.03064" lon="3.38891">
        <ele>1121.03</ele>
        <time>2021-02-21T12:59:57Z</time>
      </trkpt>
      <trkpt lat="45.03068" lon="3.38899">
        <ele>1120.55</ele>
        <time>2021-02-21T13:00:03Z</time>
      </trkpt>
      <trkpt lat="45.03071" lon="3.38924">
        <ele>1120.07</ele>
        <time>2021-02-21T13:00:19Z</time>
      </trkpt>
      <trkpt lat="45.03073" lon="3.38942">
        <ele>1120.07</ele>
        <time>2021-02-21T13:00:31Z</time>
      </trkpt>
      <trkpt lat="45.03074" lon="3.38962">
        <ele>1119.11</ele>
        <time>2021-02-21T13:00:44Z</time>
      </trkpt>
      <trkpt lat="45.03075" lon="3.38988">
        <ele>1121.03</ele>
        <time>2021-02-21T13:00:59Z</time>
      </trkpt>
      <trkpt lat="45.03075" lon="3.39006">
        <ele>1122</ele>
        <time>2021-02-21T13:01:09Z</time>
      </trkpt>
      <trkpt lat="45.03076" lon="3.39034">
        <ele>1121.52</ele>
        <time>2021-02-21T13:01:26Z</time>
      </trkpt>
      <trkpt lat="45.03075" lon="3.39061">
        <ele>1119.59</ele>
        <time>2021-02-21T13:01:42Z</time>
      </trkpt>
      <trkpt lat="45.03074" lon="3.39076">
        <ele>1118.63</ele>
        <time>2021-02-21T13:01:51Z</time>
      </trkpt>
      <trkpt lat="45.03068" lon="3.39103">
        <ele>1116.71</ele>
        <time>2021-02-21T13:02:07Z</time>
      </trkpt>
      <trkpt lat="45.03061" lon="3.39127">
        <ele>1114.79</ele>
        <time>2021-02-21T13:02:22Z</time>
      </trkpt>
      <trkpt lat="45.03056" lon="3.39144">
        <ele>1113.34</ele>
        <time>2021-02-21T13:02:33Z</time>
      </trkpt>
      <trkpt lat="45.03053" lon="3.39149">
        <ele>1112.86</ele>
        <time>2021-02-21T13:02:37Z</time>
      </trkpt>
      <trkpt lat="45.03045" lon="3.39172">
        <ele>1109.5</ele>
        <time>2021-02-21T13:02:52Z</time>
      </trkpt>
      <trkpt lat="45.03035" lon="3.39191">
        <ele>1107.58</ele>
        <time>2021-02-21T13:03:06Z</time>
      </trkpt>
      <trkpt lat="45.03021" lon="3.39218">
        <ele>1108.06</ele>
        <time>2021-02-21T13:03:23Z</time>
      </trkpt>
      <trkpt lat="45.03012" lon="3.39239">
        <ele>1107.58</ele>
        <time>2021-02-21T13:03:38Z</time>
      </trkpt>
      <trkpt lat="45.03007" lon="3.39247">
        <ele>1106.61</ele>
        <time>2021-02-21T13:03:50Z</time>
      </trkpt>
      <trkpt lat="45.03002" lon="3.39257">
        <ele>1105.65</ele>
        <time>2021-02-21T13:04:03Z</time>
      </trkpt>
      <trkpt lat="45.02998" lon="3.39271">
        <ele>1104.21</ele>
        <time>2021-02-21T13:04:20Z</time>
      </trkpt>
      <trkpt lat="45.02998" lon="3.39275">
        <ele>1104.69</ele>
        <time>2021-02-21T13:04:36Z</time>
      </trkpt>
      <trkpt lat="45.02999" lon="3.39291">
        <ele>1103.25</ele>
        <time>2021-02-21T13:04:50Z</time>
      </trkpt>
      <trkpt lat="45.03003" lon="3.39302">
        <ele>1101.81</ele>
        <time>2021-02-21T13:05:11Z</time>
      </trkpt>
      <trkpt lat="45.03004" lon="3.39303">
        <ele>1101.81</ele>
        <time>2021-02-21T13:05:12Z</time>
      </trkpt>
      <trkpt lat="45.03014" lon="3.39327">
        <ele>1101.33</ele>
        <time>2021-02-21T13:05:28Z</time>
      </trkpt>
      <trkpt lat="45.0302" lon="3.39338">
        <ele>1099.89</ele>
        <time>2021-02-21T13:05:36Z</time>
      </trkpt>
      <trkpt lat="45.03023" lon="3.39346">
        <ele>1098.92</ele>
        <time>2021-02-21T13:05:51Z</time>
      </trkpt>
      <trkpt lat="45.03023" lon="3.39346">
        <ele>1098.44</ele>
        <time>2021-02-21T13:05:55Z</time>
      </trkpt>
      <trkpt lat="45.03023" lon="3.39349">
        <ele>1098.44</ele>
        <time>2021-02-21T13:05:57Z</time>
      </trkpt>
      <trkpt lat="45.03035" lon="3.39357">
        <ele>1097</ele>
        <time>2021-02-21T13:06:06Z</time>
      </trkpt>
      <trkpt lat="45.03044" lon="3.3936">
        <ele>1095.08</ele>
        <time>2021-02-21T13:06:14Z</time>
      </trkpt>
      <trkpt lat="45.03061" lon="3.39363">
        <ele>1094.6</ele>
        <time>2021-02-21T13:06:30Z</time>
      </trkpt>
      <trkpt lat="45.03079" lon="3.39364">
        <ele>1094.6</ele>
        <time>2021-02-21T13:06:45Z</time>
      </trkpt>
      <trkpt lat="45.03101" lon="3.39364">
        <ele>1096.52</ele>
        <time>2021-02-21T13:07:02Z</time>
      </trkpt>
      <trkpt lat="45.03116" lon="3.3936">
        <ele>1095.56</ele>
        <time>2021-02-21T13:07:16Z</time>
      </trkpt>
      <trkpt lat="45.03118" lon="3.3936">
        <ele>1095.56</ele>
        <time>2021-02-21T13:07:17Z</time>
      </trkpt>
      <trkpt lat="45.03132" lon="3.39349">
        <ele>1094.12</ele>
        <time>2021-02-21T13:07:32Z</time>
      </trkpt>
      <trkpt lat="45.03145" lon="3.39335">
        <ele>1093.16</ele>
        <time>2021-02-21T13:07:45Z</time>
      </trkpt>
      <trkpt lat="45.03153" lon="3.39327">
        <ele>1092.68</ele>
        <time>2021-02-21T13:07:53Z</time>
      </trkpt>
      <trkpt lat="45.03167" lon="3.39303">
        <ele>1090.27</ele>
        <time>2021-02-21T13:08:10Z</time>
      </trkpt>
      <trkpt lat="45.0318" lon="3.39286">
        <ele>1088.83</ele>
        <time>2021-02-21T13:08:24Z</time>
      </trkpt>
      <trkpt lat="45.03194" lon="3.39267">
        <ele>1088.83</ele>
        <time>2021-02-21T13:08:39Z</time>
      </trkpt>
      <trkpt lat="45.0321" lon="3.39247">
        <ele>1088.35</ele>
        <time>2021-02-21T13:08:56Z</time>
      </trkpt>
      <trkpt lat="45.03222" lon="3.39226">
        <ele>1090.27</ele>
        <time>2021-02-21T13:09:10Z</time>
      </trkpt>
      <trkpt lat="45.03229" lon="3.392">
        <ele>1091.23</ele>
        <time>2021-02-21T13:09:26Z</time>
      </trkpt>
      <trkpt lat="45.03229" lon="3.39201">
        <ele>1091.23</ele>
        <time>2021-02-21T13:09:31Z</time>
      </trkpt>
      <trkpt lat="45.03228" lon="3.39217">
        <ele>1088.35</ele>
        <time>2021-02-21T13:09:45Z</time>
      </trkpt>
      <trkpt lat="45.03237" lon="3.39206">
        <ele>1086.91</ele>
        <time>2021-02-21T13:10:00Z</time>
      </trkpt>
      <trkpt lat="45.0324" lon="3.39207">
        <ele>1087.87</ele>
        <time>2021-02-21T13:10:10Z</time>
      </trkpt>
      <trkpt lat="45.03255" lon="3.39212">
        <ele>1083.06</ele>
        <time>2021-02-21T13:10:26Z</time>
      </trkpt>
      <trkpt lat="45.03262" lon="3.39217">
        <ele>1081.62</ele>
        <time>2021-02-21T13:10:38Z</time>
      </trkpt>
      <trkpt lat="45.03272" lon="3.39228">
        <ele>1079.7</ele>
        <time>2021-02-21T13:10:54Z</time>
      </trkpt>
      <trkpt lat="45.03272" lon="3.3924">
        <ele>1076.33</ele>
        <time>2021-02-21T13:11:09Z</time>
      </trkpt>
      <trkpt lat="45.03278" lon="3.39261">
        <ele>1072.97</ele>
        <time>2021-02-21T13:11:22Z</time>
      </trkpt>
      <trkpt lat="45.03278" lon="3.39268">
        <ele>1071.05</ele>
        <time>2021-02-21T13:11:36Z</time>
      </trkpt>
      <trkpt lat="45.03278" lon="3.39268">
        <ele>1071.05</ele>
        <time>2021-02-21T13:11:37Z</time>
      </trkpt>
      <trkpt lat="45.03283" lon="3.39284">
        <ele>1071.53</ele>
        <time>2021-02-21T13:11:46Z</time>
      </trkpt>
      <trkpt lat="45.03288" lon="3.39299">
        <ele>1072.49</ele>
        <time>2021-02-21T13:12:02Z</time>
      </trkpt>
      <trkpt lat="45.03288" lon="3.39301">
        <ele>1072.49</ele>
        <time>2021-02-21T13:12:18Z</time>
      </trkpt>
      <trkpt lat="45.03288" lon="3.39305">
        <ele>1073.45</ele>
        <time>2021-02-21T13:12:29Z</time>
      </trkpt>
      <trkpt lat="45.03286" lon="3.39316">
        <ele>1072.97</ele>
        <time>2021-02-21T13:12:38Z</time>
      </trkpt>
      <trkpt lat="45.03281" lon="3.39339">
        <ele>1072.01</ele>
        <time>2021-02-21T13:12:54Z</time>
      </trkpt>
      <trkpt lat="45.03275" lon="3.39357">
        <ele>1069.6</ele>
        <time>2021-02-21T13:13:08Z</time>
      </trkpt>
      <trkpt lat="45.0327" lon="3.3939">
        <ele>1068.64</ele>
        <time>2021-02-21T13:13:25Z</time>
      </trkpt>
      <trkpt lat="45.03273" lon="3.39414">
        <ele>1066.72</ele>
        <time>2021-02-21T13:13:39Z</time>
      </trkpt>
      <trkpt lat="45.03275" lon="3.39423">
        <ele>1065.28</ele>
        <time>2021-02-21T13:13:46Z</time>
      </trkpt>
      <trkpt lat="45.03283" lon="3.39444">
        <ele>1063.84</ele>
        <time>2021-02-21T13:14:01Z</time>
      </trkpt>
      <trkpt lat="45.03284" lon="3.39445">
        <ele>1063.84</ele>
        <time>2021-02-21T13:14:02Z</time>
      </trkpt>
      <trkpt lat="45.03291" lon="3.39463">
        <ele>1062.87</ele>
        <time>2021-02-21T13:14:17Z</time>
      </trkpt>
      <trkpt lat="45.03303" lon="3.39474">
        <ele>1063.84</ele>
        <time>2021-02-21T13:14:32Z</time>
      </trkpt>
      <trkpt lat="45.03311" lon="3.39486">
        <ele>1064.32</ele>
        <time>2021-02-21T13:14:46Z</time>
      </trkpt>
      <trkpt lat="45.03312" lon="3.39487">
        <ele>1064.32</ele>
        <time>2021-02-21T13:14:47Z</time>
      </trkpt>
      <trkpt lat="45.03312" lon="3.39504">
        <ele>1064.32</ele>
        <time>2021-02-21T13:15:00Z</time>
      </trkpt>
      <trkpt lat="45.03309" lon="3.39524">
        <ele>1065.76</ele>
        <time>2021-02-21T13:15:15Z</time>
      </trkpt>
      <trkpt lat="45.03313" lon="3.39543">
        <ele>1067.68</ele>
        <time>2021-02-21T13:15:28Z</time>
      </trkpt>
      <trkpt lat="45.03315" lon="3.39545">
        <ele>1067.68</ele>
        <time>2021-02-21T13:15:31Z</time>
      </trkpt>
      <trkpt lat="45.03327" lon="3.39558">
        <ele>1070.08</ele>
        <time>2021-02-21T13:15:46Z</time>
      </trkpt>
      <trkpt lat="45.03332" lon="3.39568">
        <ele>1071.53</ele>
        <time>2021-02-21T13:15:55Z</time>
      </trkpt>
      <trkpt lat="45.03342" lon="3.39584">
        <ele>1073.45</ele>
        <time>2021-02-21T13:16:08Z</time>
      </trkpt>
      <trkpt lat="45.03353" lon="3.39599">
        <ele>1075.37</ele>
        <time>2021-02-21T13:16:24Z</time>
      </trkpt>
      <trkpt lat="45.03367" lon="3.39618">
        <ele>1076.33</ele>
        <time>2021-02-21T13:16:42Z</time>
      </trkpt>
      <trkpt lat="45.03375" lon="3.39641">
        <ele>1079.22</ele>
        <time>2021-02-21T13:16:57Z</time>
      </trkpt>
      <trkpt lat="45.03383" lon="3.39662">
        <ele>1081.62</ele>
        <time>2021-02-21T13:17:12Z</time>
      </trkpt>
      <trkpt lat="45.03384" lon="3.39666">
        <ele>1081.14</ele>
        <time>2021-02-21T13:17:15Z</time>
      </trkpt>
      <trkpt lat="45.03389" lon="3.3968">
        <ele>1080.18</ele>
        <time>2021-02-21T13:17:25Z</time>
      </trkpt>
      <trkpt lat="45.03394" lon="3.39697">
        <ele>1080.18</ele>
        <time>2021-02-21T13:17:39Z</time>
      </trkpt>
      <trkpt lat="45.03403" lon="3.3972">
        <ele>1083.06</ele>
        <time>2021-02-21T13:17:56Z</time>
      </trkpt>
      <trkpt lat="45.03409" lon="3.39737">
        <ele>1084.5</ele>
        <time>2021-02-21T13:18:09Z</time>
      </trkpt>
      <trkpt lat="45.03414" lon="3.39759">
        <ele>1086.43</ele>
        <time>2021-02-21T13:18:23Z</time>
      </trkpt>
      <trkpt lat="45.03419" lon="3.39774">
        <ele>1092.68</ele>
        <time>2021-02-21T13:18:36Z</time>
      </trkpt>
      <trkpt lat="45.03427" lon="3.39791">
        <ele>1098.92</ele>
        <time>2021-02-21T13:18:51Z</time>
      </trkpt>
      <trkpt lat="45.03435" lon="3.39812">
        <ele>1099.4</ele>
        <time>2021-02-21T13:19:04Z</time>
      </trkpt>
      <trkpt lat="45.03444" lon="3.39835">
        <ele>1100.85</ele>
        <time>2021-02-21T13:19:20Z</time>
      </trkpt>
      <trkpt lat="45.03446" lon="3.39839">
        <ele>1101.33</ele>
        <time>2021-02-21T13:19:23Z</time>
      </trkpt>
      <trkpt lat="45.03448" lon="3.39847">
        <ele>1102.29</ele>
        <time>2021-02-21T13:19:28Z</time>
      </trkpt>
      <trkpt lat="45.03449" lon="3.39852">
        <ele>1102.29</ele>
        <time>2021-02-21T13:19:31Z</time>
      </trkpt>
      <trkpt lat="45.03457" lon="3.39872">
        <ele>1105.65</ele>
        <time>2021-02-21T13:19:45Z</time>
      </trkpt>
      <trkpt lat="45.03464" lon="3.39896">
        <ele>1110.94</ele>
        <time>2021-02-21T13:20:00Z</time>
      </trkpt>
      <trkpt lat="45.03466" lon="3.39905">
        <ele>1112.38</ele>
        <time>2021-02-21T13:20:05Z</time>
      </trkpt>
      <trkpt lat="45.03466" lon="3.3991">
        <ele>1112.86</ele>
        <time>2021-02-21T13:20:08Z</time>
      </trkpt>
      <trkpt lat="45.03468" lon="3.39921">
        <ele>1113.82</ele>
        <time>2021-02-21T13:20:14Z</time>
      </trkpt>
      <trkpt lat="45.03471" lon="3.39941">
        <ele>1117.19</ele>
        <time>2021-02-21T13:20:27Z</time>
      </trkpt>
      <trkpt lat="45.0347" lon="3.39964">
        <ele>1119.11</ele>
        <time>2021-02-21T13:20:41Z</time>
      </trkpt>
      <trkpt lat="45.03471" lon="3.39965">
        <ele>1120.07</ele>
        <time>2021-02-21T13:20:51Z</time>
      </trkpt>
      <trkpt lat="45.0347" lon="3.39965">
        <ele>1122.48</ele>
        <time>2021-02-21T13:21:07Z</time>
      </trkpt>
      <trkpt lat="45.0347" lon="3.39965">
        <ele>1123.92</ele>
        <time>2021-02-21T13:21:19Z</time>
      </trkpt>
      <trkpt lat="45.0347" lon="3.39965">
        <ele>1125.36</ele>
        <time>2021-02-21T13:21:34Z</time>
      </trkpt>
      <trkpt lat="45.0347" lon="3.39965">
        <ele>1127.28</ele>
        <time>2021-02-21T13:21:50Z</time>
      </trkpt>
      <trkpt lat="45.03468" lon="3.39966">
        <ele>1126.8</ele>
        <time>2021-02-21T13:22:05Z</time>
      </trkpt>
      <trkpt lat="45.03468" lon="3.39967">
        <ele>1126.32</ele>
        <time>2021-02-21T13:22:22Z</time>
      </trkpt>
      <trkpt lat="45.03468" lon="3.39968">
        <ele>1125.36</ele>
        <time>2021-02-21T13:22:37Z</time>
      </trkpt>
      <trkpt lat="45.03468" lon="3.39968">
        <ele>1126.32</ele>
        <time>2021-02-21T13:22:49Z</time>
      </trkpt>
      <trkpt lat="45.03468" lon="3.39967">
        <ele>1127.76</ele>
        <time>2021-02-21T13:23:05Z</time>
      </trkpt>
      <trkpt lat="45.03469" lon="3.39966">
        <ele>1128.73</ele>
        <time>2021-02-21T13:23:30Z</time>
      </trkpt>
      <trkpt lat="45.0347" lon="3.39966">
        <ele>1129.69</ele>
        <time>2021-02-21T13:23:53Z</time>
      </trkpt>
      <trkpt lat="45.0347" lon="3.39966">
        <ele>1130.17</ele>
        <time>2021-02-21T13:24:08Z</time>
      </trkpt>
      <trkpt lat="45.03472" lon="3.39976">
        <ele>1129.69</ele>
        <time>2021-02-21T13:24:17Z</time>
      </trkpt>
      <trkpt lat="45.0348" lon="3.39995">
        <ele>1131.13</ele>
        <time>2021-02-21T13:24:32Z</time>
      </trkpt>
      <trkpt lat="45.03483" lon="3.40008">
        <ele>1132.09</ele>
        <time>2021-02-21T13:24:45Z</time>
      </trkpt>
      <trkpt lat="45.03485" lon="3.40029">
        <ele>1131.61</ele>
        <time>2021-02-21T13:25:01Z</time>
      </trkpt>
      <trkpt lat="45.03488" lon="3.4005">
        <ele>1129.21</ele>
        <time>2021-02-21T13:25:15Z</time>
      </trkpt>
      <trkpt lat="45.03486" lon="3.40067">
        <ele>1125.84</ele>
        <time>2021-02-21T13:25:28Z</time>
      </trkpt>
      <trkpt lat="45.03489" lon="3.40089">
        <ele>1120.55</ele>
        <time>2021-02-21T13:25:42Z</time>
      </trkpt>
      <trkpt lat="45.03491" lon="3.40108">
        <ele>1117.19</ele>
        <time>2021-02-21T13:25:53Z</time>
      </trkpt>
      <trkpt lat="45.03492" lon="3.40116">
        <ele>1116.71</ele>
        <time>2021-02-21T13:25:58Z</time>
      </trkpt>
      <trkpt lat="45.03494" lon="3.40136">
        <ele>1114.31</ele>
        <time>2021-02-21T13:26:11Z</time>
      </trkpt>
      <trkpt lat="45.03495" lon="3.40152">
        <ele>1111.42</ele>
        <time>2021-02-21T13:26:22Z</time>
      </trkpt>
      <trkpt lat="45.03496" lon="3.40163">
        <ele>1111.42</ele>
        <time>2021-02-21T13:26:30Z</time>
      </trkpt>
      <trkpt lat="45.03496" lon="3.40174">
        <ele>1113.82</ele>
        <time>2021-02-21T13:26:38Z</time>
      </trkpt>
      <trkpt lat="45.03494" lon="3.4019">
        <ele>1119.59</ele>
        <time>2021-02-21T13:26:48Z</time>
      </trkpt>
      <trkpt lat="45.03492" lon="3.40209">
        <ele>1127.76</ele>
        <time>2021-02-21T13:27:01Z</time>
      </trkpt>
      <trkpt lat="45.03494" lon="3.40228">
        <ele>1129.21</ele>
        <time>2021-02-21T13:27:12Z</time>
      </trkpt>
      <trkpt lat="45.03498" lon="3.40251">
        <ele>1126.32</ele>
        <time>2021-02-21T13:27:27Z</time>
      </trkpt>
      <trkpt lat="45.03501" lon="3.40268">
        <ele>1122.96</ele>
        <time>2021-02-21T13:27:38Z</time>
      </trkpt>
      <trkpt lat="45.03506" lon="3.4029">
        <ele>1119.11</ele>
        <time>2021-02-21T13:27:53Z</time>
      </trkpt>
      <trkpt lat="45.0351" lon="3.40308">
        <ele>1117.19</ele>
        <time>2021-02-21T13:28:05Z</time>
      </trkpt>
      <trkpt lat="45.03515" lon="3.40328">
        <ele>1116.71</ele>
        <time>2021-02-21T13:28:18Z</time>
      </trkpt>
      <trkpt lat="45.03521" lon="3.40348">
        <ele>1116.23</ele>
        <time>2021-02-21T13:28:30Z</time>
      </trkpt>
      <trkpt lat="45.03527" lon="3.4037">
        <ele>1116.71</ele>
        <time>2021-02-21T13:28:46Z</time>
      </trkpt>
      <trkpt lat="45.03527" lon="3.40378">
        <ele>1122.48</ele>
        <time>2021-02-21T13:29:06Z</time>
      </trkpt>
      <trkpt lat="45.03528" lon="3.40377">
        <ele>1127.76</ele>
        <time>2021-02-21T13:29:28Z</time>
      </trkpt>
      <trkpt lat="45.03528" lon="3.40377">
        <ele>1131.13</ele>
        <time>2021-02-21T13:29:44Z</time>
      </trkpt>
      <trkpt lat="45.03529" lon="3.40378">
        <ele>1133.53</ele>
        <time>2021-02-21T13:30:06Z</time>
      </trkpt>
      <trkpt lat="45.03533" lon="3.40394">
        <ele>1133.05</ele>
        <time>2021-02-21T13:30:19Z</time>
      </trkpt>
      <trkpt lat="45.03537" lon="3.40404">
        <ele>1135.94</ele>
        <time>2021-02-21T13:30:26Z</time>
      </trkpt>
      <trkpt lat="45.03542" lon="3.40416">
        <ele>1144.59</ele>
        <time>2021-02-21T13:30:37Z</time>
      </trkpt>
      <trkpt lat="45.03548" lon="3.40435">
        <ele>1145.07</ele>
        <time>2021-02-21T13:30:49Z</time>
      </trkpt>
      <trkpt lat="45.03551" lon="3.40452">
        <ele>1139.3</ele>
        <time>2021-02-21T13:31:03Z</time>
      </trkpt>
      <trkpt lat="45.03551" lon="3.40468">
        <ele>1135.45</ele>
        <time>2021-02-21T13:31:17Z</time>
      </trkpt>
      <trkpt lat="45.03549" lon="3.40479">
        <ele>1138.34</ele>
        <time>2021-02-21T13:31:29Z</time>
      </trkpt>
      <trkpt lat="45.0355" lon="3.40483">
        <ele>1138.34</ele>
        <time>2021-02-21T13:31:32Z</time>
      </trkpt>
      <trkpt lat="45.03554" lon="3.40501">
        <ele>1136.9</ele>
        <time>2021-02-21T13:31:45Z</time>
      </trkpt>
      <trkpt lat="45.03562" lon="3.40523">
        <ele>1131.61</ele>
        <time>2021-02-21T13:31:58Z</time>
      </trkpt>
      <trkpt lat="45.0357" lon="3.40548">
        <ele>1128.73</ele>
        <time>2021-02-21T13:32:11Z</time>
      </trkpt>
      <trkpt lat="45.03579" lon="3.40569">
        <ele>1122.48</ele>
        <time>2021-02-21T13:32:23Z</time>
      </trkpt>
      <trkpt lat="45.03588" lon="3.4059">
        <ele>1122.96</ele>
        <time>2021-02-21T13:32:36Z</time>
      </trkpt>
      <trkpt lat="45.03596" lon="3.40607">
        <ele>1122</ele>
        <time>2021-02-21T13:32:47Z</time>
      </trkpt>
      <trkpt lat="45.036" lon="3.40619">
        <ele>1120.07</ele>
        <time>2021-02-21T13:32:55Z</time>
      </trkpt>
      <trkpt lat="45.036" lon="3.40622">
        <ele>1119.59</ele>
        <time>2021-02-21T13:32:57Z</time>
      </trkpt>
      <trkpt lat="45.03607" lon="3.40641">
        <ele>1111.9</ele>
        <time>2021-02-21T13:33:09Z</time>
      </trkpt>
      <trkpt lat="45.03611" lon="3.40659">
        <ele>1104.21</ele>
        <time>2021-02-21T13:33:21Z</time>
      </trkpt>
      <trkpt lat="45.03616" lon="3.40677">
        <ele>1099.89</ele>
        <time>2021-02-21T13:33:34Z</time>
      </trkpt>
      <trkpt lat="45.03624" lon="3.40693">
        <ele>1096.52</ele>
        <time>2021-02-21T13:33:46Z</time>
      </trkpt>
      <trkpt lat="45.03631" lon="3.40704">
        <ele>1097</ele>
        <time>2021-02-21T13:33:53Z</time>
      </trkpt>
      <trkpt lat="45.03642" lon="3.40719">
        <ele>1097</ele>
        <time>2021-02-21T13:34:06Z</time>
      </trkpt>
      <trkpt lat="45.03646" lon="3.40724">
        <ele>1096.52</ele>
        <time>2021-02-21T13:34:11Z</time>
      </trkpt>
      <trkpt lat="45.03651" lon="3.40735">
        <ele>1098.44</ele>
        <time>2021-02-21T13:34:19Z</time>
      </trkpt>
      <trkpt lat="45.03663" lon="3.40755">
        <ele>1097.96</ele>
        <time>2021-02-21T13:34:33Z</time>
      </trkpt>
      <trkpt lat="45.0367" lon="3.40768">
        <ele>1096.52</ele>
        <time>2021-02-21T13:34:44Z</time>
      </trkpt>
      <trkpt lat="45.03674" lon="3.40775">
        <ele>1095.56</ele>
        <time>2021-02-21T13:34:49Z</time>
      </trkpt>
      <trkpt lat="45.03677" lon="3.40779">
        <ele>1096.04</ele>
        <time>2021-02-21T13:34:54Z</time>
      </trkpt>
      <trkpt lat="45.03682" lon="3.40787">
        <ele>1096.52</ele>
        <time>2021-02-21T13:34:59Z</time>
      </trkpt>
      <trkpt lat="45.03694" lon="3.40806">
        <ele>1097</ele>
        <time>2021-02-21T13:35:12Z</time>
      </trkpt>
      <trkpt lat="45.03706" lon="3.40824">
        <ele>1100.37</ele>
        <time>2021-02-21T13:35:24Z</time>
      </trkpt>
      <trkpt lat="45.03704" lon="3.40833">
        <ele>1104.21</ele>
        <time>2021-02-21T13:35:37Z</time>
      </trkpt>
      <trkpt lat="45.03704" lon="3.40831">
        <ele>1106.61</ele>
        <time>2021-02-21T13:35:50Z</time>
      </trkpt>
      <trkpt lat="45.03704" lon="3.40834">
        <ele>1110.94</ele>
        <time>2021-02-21T13:36:09Z</time>
      </trkpt>
      <trkpt lat="45.03708" lon="3.40841">
        <ele>1114.79</ele>
        <time>2021-02-21T13:36:24Z</time>
      </trkpt>
      <trkpt lat="45.03709" lon="3.40844">
        <ele>1116.23</ele>
        <time>2021-02-21T13:36:26Z</time>
      </trkpt>
      <trkpt lat="45.03711" lon="3.40849">
        <ele>1118.15</ele>
        <time>2021-02-21T13:36:29Z</time>
      </trkpt>
      <trkpt lat="45.03724" lon="3.40872">
        <ele>1123.92</ele>
        <time>2021-02-21T13:36:44Z</time>
      </trkpt>
      <trkpt lat="45.03733" lon="3.40886">
        <ele>1125.84</ele>
        <time>2021-02-21T13:36:56Z</time>
      </trkpt>
      <trkpt lat="45.03739" lon="3.40892">
        <ele>1126.8</ele>
        <time>2021-02-21T13:37:02Z</time>
      </trkpt>
      <trkpt lat="45.03741" lon="3.40893">
        <ele>1127.28</ele>
        <time>2021-02-21T13:37:04Z</time>
      </trkpt>
      <trkpt lat="45.03754" lon="3.40901">
        <ele>1127.76</ele>
        <time>2021-02-21T13:37:19Z</time>
      </trkpt>
      <trkpt lat="45.03764" lon="3.40905">
        <ele>1127.28</ele>
        <time>2021-02-21T13:37:27Z</time>
      </trkpt>
      <trkpt lat="45.03772" lon="3.40908">
        <ele>1126.32</ele>
        <time>2021-02-21T13:37:33Z</time>
      </trkpt>
      <trkpt lat="45.0378" lon="3.40917">
        <ele>1123.92</ele>
        <time>2021-02-21T13:37:42Z</time>
      </trkpt>
      <trkpt lat="45.03785" lon="3.40923">
        <ele>1122.48</ele>
        <time>2021-02-21T13:37:47Z</time>
      </trkpt>
      <trkpt lat="45.03786" lon="3.40928">
        <ele>1121.52</ele>
        <time>2021-02-21T13:37:50Z</time>
      </trkpt>
      <trkpt lat="45.03795" lon="3.40947">
        <ele>1115.27</ele>
        <time>2021-02-21T13:38:05Z</time>
      </trkpt>
      <trkpt lat="45.03801" lon="3.40965">
        <ele>1113.34</ele>
        <time>2021-02-21T13:38:17Z</time>
      </trkpt>
      <trkpt lat="45.03802" lon="3.40967">
        <ele>1112.86</ele>
        <time>2021-02-21T13:38:19Z</time>
      </trkpt>
      <trkpt lat="45.03805" lon="3.40975">
        <ele>1111.42</ele>
        <time>2021-02-21T13:38:24Z</time>
      </trkpt>
      <trkpt lat="45.0381" lon="3.40995">
        <ele>1109.5</ele>
        <time>2021-02-21T13:38:36Z</time>
      </trkpt>
      <trkpt lat="45.03815" lon="3.41018">
        <ele>1108.54</ele>
        <time>2021-02-21T13:38:50Z</time>
      </trkpt>
      <trkpt lat="45.0382" lon="3.41039">
        <ele>1104.69</ele>
        <time>2021-02-21T13:39:02Z</time>
      </trkpt>
      <trkpt lat="45.0382" lon="3.41049">
        <ele>1103.73</ele>
        <time>2021-02-21T13:39:07Z</time>
      </trkpt>
      <trkpt lat="45.0382" lon="3.41052">
        <ele>1103.25</ele>
        <time>2021-02-21T13:39:09Z</time>
      </trkpt>
      <trkpt lat="45.0382" lon="3.41068">
        <ele>1105.65</ele>
        <time>2021-02-21T13:39:17Z</time>
      </trkpt>
      <trkpt lat="45.03821" lon="3.41076">
        <ele>1106.13</ele>
        <time>2021-02-21T13:39:21Z</time>
      </trkpt>
      <trkpt lat="45.03822" lon="3.4108">
        <ele>1106.13</ele>
        <time>2021-02-21T13:39:24Z</time>
      </trkpt>
      <trkpt lat="45.03824" lon="3.41092">
        <ele>1105.65</ele>
        <time>2021-02-21T13:39:31Z</time>
      </trkpt>
      <trkpt lat="45.03829" lon="3.4111">
        <ele>1103.73</ele>
        <time>2021-02-21T13:39:41Z</time>
      </trkpt>
      <trkpt lat="45.03832" lon="3.41125">
        <ele>1102.77</ele>
        <time>2021-02-21T13:39:49Z</time>
      </trkpt>
      <trkpt lat="45.03832" lon="3.41131">
        <ele>1103.25</ele>
        <time>2021-02-21T13:39:52Z</time>
      </trkpt>
      <trkpt lat="45.03833" lon="3.41133">
        <ele>1102.77</ele>
        <time>2021-02-21T13:39:54Z</time>
      </trkpt>
      <trkpt lat="45.03833" lon="3.41139">
        <ele>1103.25</ele>
        <time>2021-02-21T13:39:57Z</time>
      </trkpt>
      <trkpt lat="45.03834" lon="3.41159">
        <ele>1101.81</ele>
        <time>2021-02-21T13:40:07Z</time>
      </trkpt>
      <trkpt lat="45.03836" lon="3.41171">
        <ele>1102.29</ele>
        <time>2021-02-21T13:40:14Z</time>
      </trkpt>
      <trkpt lat="45.03838" lon="3.41176">
        <ele>1101.81</ele>
        <time>2021-02-21T13:40:17Z</time>
      </trkpt>
      <trkpt lat="45.03841" lon="3.41199">
        <ele>1098.92</ele>
        <time>2021-02-21T13:40:31Z</time>
      </trkpt>
      <trkpt lat="45.03845" lon="3.41217">
        <ele>1093.64</ele>
        <time>2021-02-21T13:40:43Z</time>
      </trkpt>
      <trkpt lat="45.03848" lon="3.41234">
        <ele>1090.75</ele>
        <time>2021-02-21T13:40:55Z</time>
      </trkpt>
      <trkpt lat="45.03855" lon="3.41251">
        <ele>1090.27</ele>
        <time>2021-02-21T13:41:06Z</time>
      </trkpt>
      <trkpt lat="45.03861" lon="3.41271">
        <ele>1089.79</ele>
        <time>2021-02-21T13:41:18Z</time>
      </trkpt>
      <trkpt lat="45.03868" lon="3.41286">
        <ele>1088.35</ele>
        <time>2021-02-21T13:41:28Z</time>
      </trkpt>
      <trkpt lat="45.03873" lon="3.41299">
        <ele>1086.91</ele>
        <time>2021-02-21T13:41:36Z</time>
      </trkpt>
      <trkpt lat="45.03875" lon="3.41304">
        <ele>1086.91</ele>
        <time>2021-02-21T13:41:39Z</time>
      </trkpt>
      <trkpt lat="45.03883" lon="3.41327">
        <ele>1085.95</ele>
        <time>2021-02-21T13:41:53Z</time>
      </trkpt>
      <trkpt lat="45.0389" lon="3.41343">
        <ele>1085.47</ele>
        <time>2021-02-21T13:42:02Z</time>
      </trkpt>
      <trkpt lat="45.03893" lon="3.41353">
        <ele>1084.5</ele>
        <time>2021-02-21T13:42:08Z</time>
      </trkpt>
      <trkpt lat="45.03896" lon="3.4136">
        <ele>1083.54</ele>
        <time>2021-02-21T13:42:14Z</time>
      </trkpt>
      <trkpt lat="45.039" lon="3.41368">
        <ele>1082.1</ele>
        <time>2021-02-21T13:42:19Z</time>
      </trkpt>
      <trkpt lat="45.03903" lon="3.41382">
        <ele>1083.06</ele>
        <time>2021-02-21T13:42:33Z</time>
      </trkpt>
      <trkpt lat="45.03903" lon="3.41385">
        <ele>1086.91</ele>
        <time>2021-02-21T13:42:58Z</time>
      </trkpt>
      <trkpt lat="45.03903" lon="3.41388">
        <ele>1091.23</ele>
        <time>2021-02-21T13:43:27Z</time>
      </trkpt>
      <trkpt lat="45.03903" lon="3.41388">
        <ele>1093.64</ele>
        <time>2021-02-21T13:43:51Z</time>
      </trkpt>
      <trkpt lat="45.03903" lon="3.41388">
        <ele>1093.64</ele>
        <time>2021-02-21T13:44:15Z</time>
      </trkpt>
      <trkpt lat="45.03903" lon="3.41388">
        <ele>1094.12</ele>
        <time>2021-02-21T13:44:36Z</time>
      </trkpt>
      <trkpt lat="45.03911" lon="3.41404">
        <ele>1093.64</ele>
        <time>2021-02-21T13:44:53Z</time>
      </trkpt>
      <trkpt lat="45.03923" lon="3.41427">
        <ele>1093.64</ele>
        <time>2021-02-21T13:45:08Z</time>
      </trkpt>
      <trkpt lat="45.03939" lon="3.41457">
        <ele>1096.04</ele>
        <time>2021-02-21T13:45:27Z</time>
      </trkpt>
      <trkpt lat="45.03953" lon="3.41482">
        <ele>1097.48</ele>
        <time>2021-02-21T13:45:44Z</time>
      </trkpt>
      <trkpt lat="45.03958" lon="3.41489">
        <ele>1096.04</ele>
        <time>2021-02-21T13:45:50Z</time>
      </trkpt>
      <trkpt lat="45.03963" lon="3.41496">
        <ele>1095.56</ele>
        <time>2021-02-21T13:45:56Z</time>
      </trkpt>
      <trkpt lat="45.03965" lon="3.41502">
        <ele>1094.6</ele>
        <time>2021-02-21T13:46:00Z</time>
      </trkpt>
      <trkpt lat="45.03969" lon="3.41512">
        <ele>1093.16</ele>
        <time>2021-02-21T13:46:07Z</time>
      </trkpt>
      <trkpt lat="45.03975" lon="3.41539">
        <ele>1091.71</ele>
        <time>2021-02-21T13:46:23Z</time>
      </trkpt>
      <trkpt lat="45.03976" lon="3.41545">
        <ele>1090.75</ele>
        <time>2021-02-21T13:46:27Z</time>
      </trkpt>
      <trkpt lat="45.03977" lon="3.41551">
        <ele>1089.79</ele>
        <time>2021-02-21T13:46:30Z</time>
      </trkpt>
      <trkpt lat="45.03977" lon="3.41559">
        <ele>1087.87</ele>
        <time>2021-02-21T13:46:34Z</time>
      </trkpt>
      <trkpt lat="45.03977" lon="3.41587">
        <ele>1083.54</ele>
        <time>2021-02-21T13:46:50Z</time>
      </trkpt>
      <trkpt lat="45.03977" lon="3.4159">
        <ele>1083.06</ele>
        <time>2021-02-21T13:46:52Z</time>
      </trkpt>
      <trkpt lat="45.03977" lon="3.41618">
        <ele>1082.58</ele>
        <time>2021-02-21T13:47:08Z</time>
      </trkpt>
      <trkpt lat="45.03976" lon="3.41642">
        <ele>1082.1</ele>
        <time>2021-02-21T13:47:21Z</time>
      </trkpt>
      <trkpt lat="45.03977" lon="3.41655">
        <ele>1082.1</ele>
        <time>2021-02-21T13:47:29Z</time>
      </trkpt>
      <trkpt lat="45.03975" lon="3.41683">
        <ele>1081.62</ele>
        <time>2021-02-21T13:47:44Z</time>
      </trkpt>
      <trkpt lat="45.03973" lon="3.41705">
        <ele>1079.7</ele>
        <time>2021-02-21T13:47:57Z</time>
      </trkpt>
      <trkpt lat="45.03971" lon="3.41728">
        <ele>1079.22</ele>
        <time>2021-02-21T13:48:10Z</time>
      </trkpt>
      <trkpt lat="45.03968" lon="3.41751">
        <ele>1077.29</ele>
        <time>2021-02-21T13:48:22Z</time>
      </trkpt>
      <trkpt lat="45.03967" lon="3.41759">
        <ele>1077.29</ele>
        <time>2021-02-21T13:48:26Z</time>
      </trkpt>
      <trkpt lat="45.03967" lon="3.41771">
        <ele>1077.78</ele>
        <time>2021-02-21T13:48:32Z</time>
      </trkpt>
      <trkpt lat="45.03967" lon="3.418">
        <ele>1079.22</ele>
        <time>2021-02-21T13:48:47Z</time>
      </trkpt>
      <trkpt lat="45.03966" lon="3.41822">
        <ele>1080.66</ele>
        <time>2021-02-21T13:48:59Z</time>
      </trkpt>
      <trkpt lat="45.03967" lon="3.41824">
        <ele>1080.66</ele>
        <time>2021-02-21T13:49:00Z</time>
      </trkpt>
      <trkpt lat="45.03967" lon="3.41839">
        <ele>1080.66</ele>
        <time>2021-02-21T13:49:09Z</time>
      </trkpt>
      <trkpt lat="45.03972" lon="3.41855">
        <ele>1085.95</ele>
        <time>2021-02-21T13:49:19Z</time>
      </trkpt>
      <trkpt lat="45.03975" lon="3.41872">
        <ele>1085.95</ele>
        <time>2021-02-21T13:49:27Z</time>
      </trkpt>
      <trkpt lat="45.03981" lon="3.41899">
        <ele>1084.99</ele>
        <time>2021-02-21T13:49:42Z</time>
      </trkpt>
      <trkpt lat="45.03982" lon="3.41904">
        <ele>1084.5</ele>
        <time>2021-02-21T13:49:45Z</time>
      </trkpt>
      <trkpt lat="45.03987" lon="3.41924">
        <ele>1083.54</ele>
        <time>2021-02-21T13:49:57Z</time>
      </trkpt>
      <trkpt lat="45.03991" lon="3.41945">
        <ele>1084.99</ele>
        <time>2021-02-21T13:50:07Z</time>
      </trkpt>
      <trkpt lat="45.03994" lon="3.41963">
        <ele>1086.91</ele>
        <time>2021-02-21T13:50:17Z</time>
      </trkpt>
      <trkpt lat="45.03997" lon="3.41987">
        <ele>1085.95</ele>
        <time>2021-02-21T13:50:28Z</time>
      </trkpt>
      <trkpt lat="45.04001" lon="3.42002">
        <ele>1084.02</ele>
        <time>2021-02-21T13:50:36Z</time>
      </trkpt>
      <trkpt lat="45.04" lon="3.42009">
        <ele>1082.1</ele>
        <time>2021-02-21T13:50:40Z</time>
      </trkpt>
      <trkpt lat="45.03999" lon="3.42032">
        <ele>1078.26</ele>
        <time>2021-02-21T13:50:52Z</time>
      </trkpt>
      <trkpt lat="45.04001" lon="3.42059">
        <ele>1076.33</ele>
        <time>2021-02-21T13:51:06Z</time>
      </trkpt>
      <trkpt lat="45.04001" lon="3.42085">
        <ele>1075.37</ele>
        <time>2021-02-21T13:51:20Z</time>
      </trkpt>
      <trkpt lat="45.04003" lon="3.42092">
        <ele>1073.45</ele>
        <time>2021-02-21T13:51:24Z</time>
      </trkpt>
      <trkpt lat="45.04002" lon="3.42098">
        <ele>1072.49</ele>
        <time>2021-02-21T13:51:28Z</time>
      </trkpt>
      <trkpt lat="45.04003" lon="3.42105">
        <ele>1071.53</ele>
        <time>2021-02-21T13:51:32Z</time>
      </trkpt>
      <trkpt lat="45.04004" lon="3.42115">
        <ele>1071.53</ele>
        <time>2021-02-21T13:51:37Z</time>
      </trkpt>
      <trkpt lat="45.04003" lon="3.42138">
        <ele>1070.08</ele>
        <time>2021-02-21T13:51:50Z</time>
      </trkpt>
      <trkpt lat="45.04003" lon="3.42146">
        <ele>1069.6</ele>
        <time>2021-02-21T13:51:54Z</time>
      </trkpt>
      <trkpt lat="45.04007" lon="3.42164">
        <ele>1068.64</ele>
        <time>2021-02-21T13:52:03Z</time>
      </trkpt>
      <trkpt lat="45.04018" lon="3.42192">
        <ele>1069.6</ele>
        <time>2021-02-21T13:52:18Z</time>
      </trkpt>
      <trkpt lat="45.04026" lon="3.42217">
        <ele>1072.97</ele>
        <time>2021-02-21T13:52:30Z</time>
      </trkpt>
      <trkpt lat="45.04032" lon="3.42233">
        <ele>1073.93</ele>
        <time>2021-02-21T13:52:40Z</time>
      </trkpt>
      <trkpt lat="45.04036" lon="3.42228">
        <ele>1073.45</ele>
        <time>2021-02-21T13:52:45Z</time>
      </trkpt>
      <trkpt lat="45.04045" lon="3.42224">
        <ele>1073.93</ele>
        <time>2021-02-21T13:52:59Z</time>
      </trkpt>
      <trkpt lat="45.04046" lon="3.42224">
        <ele>1073.93</ele>
        <time>2021-02-21T13:53:31Z</time>
      </trkpt>
      <trkpt lat="45.04045" lon="3.42224">
        <ele>1074.89</ele>
        <time>2021-02-21T13:53:59Z</time>
      </trkpt>
      <trkpt lat="45.04045" lon="3.42224">
        <ele>1075.85</ele>
        <time>2021-02-21T13:54:26Z</time>
      </trkpt>
      <trkpt lat="45.04036" lon="3.42235">
        <ele>1076.33</ele>
        <time>2021-02-21T13:54:34Z</time>
      </trkpt>
      <trkpt lat="45.04039" lon="3.42251">
        <ele>1078.26</ele>
        <time>2021-02-21T13:54:42Z</time>
      </trkpt>
      <trkpt lat="45.04051" lon="3.42285">
        <ele>1075.85</ele>
        <time>2021-02-21T13:54:58Z</time>
      </trkpt>
      <trkpt lat="45.04062" lon="3.42311">
        <ele>1079.22</ele>
        <time>2021-02-21T13:55:12Z</time>
      </trkpt>
      <trkpt lat="45.04075" lon="3.42342">
        <ele>1078.74</ele>
        <time>2021-02-21T13:55:29Z</time>
      </trkpt>
      <trkpt lat="45.04085" lon="3.4237">
        <ele>1076.81</ele>
        <time>2021-02-21T13:55:45Z</time>
      </trkpt>
      <trkpt lat="45.04093" lon="3.42398">
        <ele>1075.85</ele>
        <time>2021-02-21T13:56:01Z</time>
      </trkpt>
      <trkpt lat="45.04101" lon="3.42423">
        <ele>1075.37</ele>
        <time>2021-02-21T13:56:16Z</time>
      </trkpt>
      <trkpt lat="45.04109" lon="3.42452">
        <ele>1075.37</ele>
        <time>2021-02-21T13:56:32Z</time>
      </trkpt>
      <trkpt lat="45.04114" lon="3.42481">
        <ele>1075.37</ele>
        <time>2021-02-21T13:56:48Z</time>
      </trkpt>
      <trkpt lat="45.04118" lon="3.42514">
        <ele>1074.89</ele>
        <time>2021-02-21T13:57:04Z</time>
      </trkpt>
      <trkpt lat="45.0412" lon="3.42544">
        <ele>1073.93</ele>
        <time>2021-02-21T13:57:18Z</time>
      </trkpt>
      <trkpt lat="45.04121" lon="3.42577">
        <ele>1072.49</ele>
        <time>2021-02-21T13:57:33Z</time>
      </trkpt>
      <trkpt lat="45.04121" lon="3.4261">
        <ele>1073.45</ele>
        <time>2021-02-21T13:57:48Z</time>
      </trkpt>
      <trkpt lat="45.04119" lon="3.42649">
        <ele>1070.08</ele>
        <time>2021-02-21T13:58:06Z</time>
      </trkpt>
      <trkpt lat="45.04117" lon="3.4268">
        <ele>1067.68</ele>
        <time>2021-02-21T13:58:19Z</time>
      </trkpt>
      <trkpt lat="45.04115" lon="3.42715">
        <ele>1068.16</ele>
        <time>2021-02-21T13:58:34Z</time>
      </trkpt>
      <trkpt lat="45.04114" lon="3.42716">
        <ele>1068.16</ele>
        <time>2021-02-21T13:58:35Z</time>
      </trkpt>
      <trkpt lat="45.0411" lon="3.42742">
        <ele>1069.6</ele>
        <time>2021-02-21T13:58:50Z</time>
      </trkpt>
      <trkpt lat="45.04109" lon="3.42745">
        <ele>1069.6</ele>
        <time>2021-02-21T13:58:51Z</time>
      </trkpt>
      <trkpt lat="45.0411" lon="3.42782">
        <ele>1070.08</ele>
        <time>2021-02-21T13:59:02Z</time>
      </trkpt>
      <trkpt lat="45.04117" lon="3.42813">
        <ele>1074.41</ele>
        <time>2021-02-21T13:59:14Z</time>
      </trkpt>
      <trkpt lat="45.04115" lon="3.42828">
        <ele>1072.49</ele>
        <time>2021-02-21T13:59:25Z</time>
      </trkpt>
      <trkpt lat="45.04115" lon="3.42843">
        <ele>1072.01</ele>
        <time>2021-02-21T13:59:31Z</time>
      </trkpt>
      <trkpt lat="45.04115" lon="3.42847">
        <ele>1071.53</ele>
        <time>2021-02-21T13:59:35Z</time>
      </trkpt>
      <trkpt lat="45.04114" lon="3.42859">
        <ele>1070.08</ele>
        <time>2021-02-21T13:59:40Z</time>
      </trkpt>
      <trkpt lat="45.0412" lon="3.42878">
        <ele>1070.57</ele>
        <time>2021-02-21T13:59:48Z</time>
      </trkpt>
      <trkpt lat="45.04121" lon="3.42881">
        <ele>1070.57</ele>
        <time>2021-02-21T13:59:51Z</time>
      </trkpt>
      <trkpt lat="45.04123" lon="3.42902">
        <ele>1069.6</ele>
        <time>2021-02-21T14:00:00Z</time>
      </trkpt>
      <trkpt lat="45.04125" lon="3.42914">
        <ele>1069.6</ele>
        <time>2021-02-21T14:00:08Z</time>
      </trkpt>
      <trkpt lat="45.04125" lon="3.42917">
        <ele>1069.6</ele>
        <time>2021-02-21T14:00:12Z</time>
      </trkpt>
      <trkpt lat="45.04127" lon="3.42926">
        <ele>1069.6</ele>
        <time>2021-02-21T14:00:16Z</time>
      </trkpt>
      <trkpt lat="45.04128" lon="3.4293">
        <ele>1069.12</ele>
        <time>2021-02-21T14:00:21Z</time>
      </trkpt>
      <trkpt lat="45.04133" lon="3.42945">
        <ele>1067.68</ele>
        <time>2021-02-21T14:00:29Z</time>
      </trkpt>
      <trkpt lat="45.04132" lon="3.42945">
        <ele>1067.2</ele>
        <time>2021-02-21T14:00:30Z</time>
      </trkpt>
      <trkpt lat="45.04136" lon="3.42963">
        <ele>1064.32</ele>
        <time>2021-02-21T14:00:40Z</time>
      </trkpt>
      <trkpt lat="45.04139" lon="3.42981">
        <ele>1062.87</ele>
        <time>2021-02-21T14:00:50Z</time>
      </trkpt>
      <trkpt lat="45.04143" lon="3.43001">
        <ele>1061.91</ele>
        <time>2021-02-21T14:01:01Z</time>
      </trkpt>
      <trkpt lat="45.04143" lon="3.43004">
        <ele>1061.43</ele>
        <time>2021-02-21T14:01:04Z</time>
      </trkpt>
      <trkpt lat="45.04156" lon="3.43023">
        <ele>1060.47</ele>
        <time>2021-02-21T14:01:15Z</time>
      </trkpt>
      <trkpt lat="45.04158" lon="3.43026">
        <ele>1059.99</ele>
        <time>2021-02-21T14:01:18Z</time>
      </trkpt>
      <trkpt lat="45.04166" lon="3.43042">
        <ele>1060.47</ele>
        <time>2021-02-21T14:01:28Z</time>
      </trkpt>
      <trkpt lat="45.04173" lon="3.43055">
        <ele>1058.07</ele>
        <time>2021-02-21T14:01:38Z</time>
      </trkpt>
      <trkpt lat="45.04183" lon="3.43067">
        <ele>1055.18</ele>
        <time>2021-02-21T14:01:50Z</time>
      </trkpt>
      <trkpt lat="45.04184" lon="3.43068">
        <ele>1055.18</ele>
        <time>2021-02-21T14:01:51Z</time>
      </trkpt>
      <trkpt lat="45.04193" lon="3.43083">
        <ele>1053.74</ele>
        <time>2021-02-21T14:02:02Z</time>
      </trkpt>
      <trkpt lat="45.04195" lon="3.43086">
        <ele>1054.22</ele>
        <time>2021-02-21T14:02:05Z</time>
      </trkpt>
      <trkpt lat="45.04205" lon="3.43097">
        <ele>1054.22</ele>
        <time>2021-02-21T14:02:15Z</time>
      </trkpt>
      <trkpt lat="45.04208" lon="3.431">
        <ele>1054.22</ele>
        <time>2021-02-21T14:02:20Z</time>
      </trkpt>
      <trkpt lat="45.04216" lon="3.4311">
        <ele>1052.3</ele>
        <time>2021-02-21T14:02:29Z</time>
      </trkpt>
      <trkpt lat="45.0423" lon="3.43124">
        <ele>1048.45</ele>
        <time>2021-02-21T14:02:43Z</time>
      </trkpt>
      <trkpt lat="45.04243" lon="3.43136">
        <ele>1047.01</ele>
        <time>2021-02-21T14:02:55Z</time>
      </trkpt>
      <trkpt lat="45.04255" lon="3.43146">
        <ele>1045.57</ele>
        <time>2021-02-21T14:03:06Z</time>
      </trkpt>
      <trkpt lat="45.04266" lon="3.43151">
        <ele>1044.61</ele>
        <time>2021-02-21T14:03:17Z</time>
      </trkpt>
      <trkpt lat="45.04273" lon="3.43154">
        <ele>1044.61</ele>
        <time>2021-02-21T14:03:22Z</time>
      </trkpt>
      <trkpt lat="45.04288" lon="3.43163">
        <ele>1044.13</ele>
        <time>2021-02-21T14:03:34Z</time>
      </trkpt>
      <trkpt lat="45.043" lon="3.43168">
        <ele>1044.61</ele>
        <time>2021-02-21T14:03:43Z</time>
      </trkpt>
      <trkpt lat="45.04308" lon="3.43172">
        <ele>1045.57</ele>
        <time>2021-02-21T14:03:49Z</time>
      </trkpt>
      <trkpt lat="45.04317" lon="3.43179">
        <ele>1045.09</ele>
        <time>2021-02-21T14:03:58Z</time>
      </trkpt>
      <trkpt lat="45.04326" lon="3.43185">
        <ele>1044.13</ele>
        <time>2021-02-21T14:04:06Z</time>
      </trkpt>
      <trkpt lat="45.04337" lon="3.43194">
        <ele>1041.73</ele>
        <time>2021-02-21T14:04:15Z</time>
      </trkpt>
      <trkpt lat="45.04346" lon="3.43199">
        <ele>1040.76</ele>
        <time>2021-02-21T14:04:23Z</time>
      </trkpt>
      <trkpt lat="45.04352" lon="3.43205">
        <ele>1040.28</ele>
        <time>2021-02-21T14:04:31Z</time>
      </trkpt>
      <trkpt lat="45.04364" lon="3.43213">
        <ele>1040.28</ele>
        <time>2021-02-21T14:04:39Z</time>
      </trkpt>
      <trkpt lat="45.04374" lon="3.43222">
        <ele>1039.8</ele>
        <time>2021-02-21T14:04:49Z</time>
      </trkpt>
      <trkpt lat="45.04386" lon="3.43233">
        <ele>1037.88</ele>
        <time>2021-02-21T14:04:59Z</time>
      </trkpt>
      <trkpt lat="45.04397" lon="3.4325">
        <ele>1035</ele>
        <time>2021-02-21T14:05:10Z</time>
      </trkpt>
      <trkpt lat="45.04402" lon="3.43261">
        <ele>1032.59</ele>
        <time>2021-02-21T14:05:18Z</time>
      </trkpt>
      <trkpt lat="45.0441" lon="3.43278">
        <ele>1029.71</ele>
        <time>2021-02-21T14:05:28Z</time>
      </trkpt>
      <trkpt lat="45.04418" lon="3.43291">
        <ele>1027.79</ele>
        <time>2021-02-21T14:05:38Z</time>
      </trkpt>
      <trkpt lat="45.04426" lon="3.43307">
        <ele>1026.83</ele>
        <time>2021-02-21T14:05:47Z</time>
      </trkpt>
      <trkpt lat="45.04428" lon="3.43323">
        <ele>1025.86</ele>
        <time>2021-02-21T14:05:57Z</time>
      </trkpt>
    </trkseg>
  </trk>
</gpx>